<?xml version="1.0" encoding="UTF-8" standalone="no" ?>
<gpx xmlns="http://www.topografix.com/GPX/1/1" xmlns:xsi="http://www.w3.org/2001/XMLSchema-instance" xsi:schemaLocation="http://www.topografix.com/GPX/1/1 http://www.topografix.com/GPX/1/1/gpx.xsd" version="1.1" creator="VisuGPX - https://www.visugpx.com">
  <metadata>
    <name>2011-02-20 - Crevaison è Givry</name>
    <desc><![CDATA[Sortie VTT du 2011-02-20 avec crevaison à Givry]]></desc>
  </metadata>
  <trk>
    <name><![CDATA[2011-02-20 - Crevaison a Givry]]></name>
    <desc><![CDATA[20 févr. 2011  1:46 pm]]></desc>
    <trkseg>
      <trkpt lat="46.78148" lon="4.85365">
        <ele>170.1217</ele>
        <time>2011-02-20T12:46:25Z</time>
      </trkpt>
      <trkpt lat="46.7814" lon="4.85413">
        <ele>177.840257</ele>
        <time>2011-02-20T12:46:41Z</time>
      </trkpt>
      <trkpt lat="46.78129" lon="4.85417">
        <ele>180.137599</ele>
        <time>2011-02-20T12:46:46Z</time>
      </trkpt>
      <trkpt lat="46.78119" lon="4.85413">
        <ele>176.844955</ele>
        <time>2011-02-20T12:46:50Z</time>
      </trkpt>
      <trkpt lat="46.78113" lon="4.85403">
        <ele>167.585036</ele>
        <time>2011-02-20T12:46:53Z</time>
      </trkpt>
      <trkpt lat="46.78107" lon="4.8539">
        <ele>157.065645</ele>
        <time>2011-02-20T12:46:56Z</time>
      </trkpt>
      <trkpt lat="46.78103" lon="4.85374">
        <ele>150.890491</ele>
        <time>2011-02-20T12:46:59Z</time>
      </trkpt>
      <trkpt lat="46.78099" lon="4.85359">
        <ele>149.244195</ele>
        <time>2011-02-20T12:47:01Z</time>
      </trkpt>
      <trkpt lat="46.78092" lon="4.85332">
        <ele>149.779472</ele>
        <time>2011-02-20T12:47:04Z</time>
      </trkpt>
      <trkpt lat="46.78081" lon="4.85307">
        <ele>150.690678</ele>
        <time>2011-02-20T12:47:07Z</time>
      </trkpt>
      <trkpt lat="46.78074" lon="4.85289">
        <ele>151.315503</ele>
        <time>2011-02-20T12:47:09Z</time>
      </trkpt>
      <trkpt lat="46.78065" lon="4.85262">
        <ele>151.722662</ele>
        <time>2011-02-20T12:47:12Z</time>
      </trkpt>
      <trkpt lat="46.78056" lon="4.85237">
        <ele>152.099659</ele>
        <time>2011-02-20T12:47:15Z</time>
      </trkpt>
      <trkpt lat="46.78049" lon="4.85221">
        <ele>152.429101</ele>
        <time>2011-02-20T12:47:17Z</time>
      </trkpt>
      <trkpt lat="46.78039" lon="4.85197">
        <ele>152.631621</ele>
        <time>2011-02-20T12:47:20Z</time>
      </trkpt>
      <trkpt lat="46.78029" lon="4.8518">
        <ele>152.727296</ele>
        <time>2011-02-20T12:47:23Z</time>
      </trkpt>
      <trkpt lat="46.78021" lon="4.8517">
        <ele>152.768314</ele>
        <time>2011-02-20T12:47:26Z</time>
      </trkpt>
      <trkpt lat="46.78012" lon="4.8516">
        <ele>152.779852</ele>
        <time>2011-02-20T12:47:29Z</time>
      </trkpt>
      <trkpt lat="46.78003" lon="4.85153">
        <ele>152.77684</ele>
        <time>2011-02-20T12:47:32Z</time>
      </trkpt>
      <trkpt lat="46.77995" lon="4.85147">
        <ele>152.768073</ele>
        <time>2011-02-20T12:47:35Z</time>
      </trkpt>
      <trkpt lat="46.77985" lon="4.8514">
        <ele>152.746213</ele>
        <time>2011-02-20T12:47:39Z</time>
      </trkpt>
      <trkpt lat="46.77975" lon="4.85133">
        <ele>152.697102</ele>
        <time>2011-02-20T12:47:43Z</time>
      </trkpt>
      <trkpt lat="46.77967" lon="4.85126">
        <ele>152.617091</ele>
        <time>2011-02-20T12:47:47Z</time>
      </trkpt>
      <trkpt lat="46.77958" lon="4.85119">
        <ele>152.501247</ele>
        <time>2011-02-20T12:47:51Z</time>
      </trkpt>
      <trkpt lat="46.77958" lon="4.85119">
        <ele>152.368254</ele>
        <time>2011-02-20T12:47:56Z</time>
      </trkpt>
      <trkpt lat="46.77942" lon="4.85092">
        <ele>152.251705</ele>
        <time>2011-02-20T12:48:04Z</time>
      </trkpt>
      <trkpt lat="46.77937" lon="4.85078">
        <ele>152.139936</ele>
        <time>2011-02-20T12:48:07Z</time>
      </trkpt>
      <trkpt lat="46.77931" lon="4.85064">
        <ele>152.003891</ele>
        <time>2011-02-20T12:48:10Z</time>
      </trkpt>
      <trkpt lat="46.77931" lon="4.85064">
        <ele>151.872064</ele>
        <time>2011-02-20T12:48:14Z</time>
      </trkpt>
      <trkpt lat="46.77931" lon="4.85064">
        <ele>151.77853</ele>
        <time>2011-02-20T12:48:40Z</time>
      </trkpt>
      <trkpt lat="46.77908" lon="4.85031">
        <ele>151.721623</ele>
        <time>2011-02-20T12:49:40Z</time>
      </trkpt>
      <trkpt lat="46.779" lon="4.85013">
        <ele>151.692454</ele>
        <time>2011-02-20T12:49:43Z</time>
      </trkpt>
      <trkpt lat="46.77891" lon="4.85009">
        <ele>151.70495</ele>
        <time>2011-02-20T12:49:45Z</time>
      </trkpt>
      <trkpt lat="46.77876" lon="4.85003">
        <ele>151.921851</ele>
        <time>2011-02-20T12:49:48Z</time>
      </trkpt>
      <trkpt lat="46.7786" lon="4.85016">
        <ele>153.092933</ele>
        <time>2011-02-20T12:49:51Z</time>
      </trkpt>
      <trkpt lat="46.77842" lon="4.8503">
        <ele>155.800773</ele>
        <time>2011-02-20T12:49:54Z</time>
      </trkpt>
      <trkpt lat="46.77823" lon="4.85041">
        <ele>159.428755</ele>
        <time>2011-02-20T12:49:57Z</time>
      </trkpt>
      <trkpt lat="46.77802" lon="4.85038">
        <ele>162.58269</ele>
        <time>2011-02-20T12:50:00Z</time>
      </trkpt>
      <trkpt lat="46.77791" lon="4.85023">
        <ele>164.32341</ele>
        <time>2011-02-20T12:50:02Z</time>
      </trkpt>
      <trkpt lat="46.77782" lon="4.85007">
        <ele>164.733745</ele>
        <time>2011-02-20T12:50:04Z</time>
      </trkpt>
      <trkpt lat="46.77769" lon="4.84984">
        <ele>164.503316</ele>
        <time>2011-02-20T12:50:07Z</time>
      </trkpt>
      <trkpt lat="46.77755" lon="4.84976">
        <ele>164.133436</ele>
        <time>2011-02-20T12:50:10Z</time>
      </trkpt>
      <trkpt lat="46.77748" lon="4.84966">
        <ele>163.877937</ele>
        <time>2011-02-20T12:50:12Z</time>
      </trkpt>
      <trkpt lat="46.77741" lon="4.84953">
        <ele>163.791198</ele>
        <time>2011-02-20T12:50:14Z</time>
      </trkpt>
      <trkpt lat="46.77729" lon="4.84931">
        <ele>163.84789</ele>
        <time>2011-02-20T12:50:17Z</time>
      </trkpt>
      <trkpt lat="46.77721" lon="4.84915">
        <ele>164.0674</ele>
        <time>2011-02-20T12:50:19Z</time>
      </trkpt>
      <trkpt lat="46.77708" lon="4.84893">
        <ele>164.422137</ele>
        <time>2011-02-20T12:50:22Z</time>
      </trkpt>
      <trkpt lat="46.77695" lon="4.8487">
        <ele>164.82864</ele>
        <time>2011-02-20T12:50:25Z</time>
      </trkpt>
      <trkpt lat="46.77683" lon="4.84847">
        <ele>165.246851</ele>
        <time>2011-02-20T12:50:28Z</time>
      </trkpt>
      <trkpt lat="46.77669" lon="4.84823">
        <ele>165.679423</ele>
        <time>2011-02-20T12:50:31Z</time>
      </trkpt>
      <trkpt lat="46.77656" lon="4.84798">
        <ele>166.11804</ele>
        <time>2011-02-20T12:50:34Z</time>
      </trkpt>
      <trkpt lat="46.77641" lon="4.84773">
        <ele>166.526104</ele>
        <time>2011-02-20T12:50:37Z</time>
      </trkpt>
      <trkpt lat="46.77628" lon="4.84748">
        <ele>166.83202</ele>
        <time>2011-02-20T12:50:40Z</time>
      </trkpt>
      <trkpt lat="46.7762" lon="4.84732">
        <ele>166.984692</ele>
        <time>2011-02-20T12:50:42Z</time>
      </trkpt>
      <trkpt lat="46.77607" lon="4.84707">
        <ele>167.012334</ele>
        <time>2011-02-20T12:50:45Z</time>
      </trkpt>
      <trkpt lat="46.77598" lon="4.84691">
        <ele>166.981058</ele>
        <time>2011-02-20T12:50:47Z</time>
      </trkpt>
      <trkpt lat="46.77584" lon="4.84666">
        <ele>166.933801</ele>
        <time>2011-02-20T12:50:50Z</time>
      </trkpt>
      <trkpt lat="46.77574" lon="4.84651">
        <ele>166.898614</ele>
        <time>2011-02-20T12:50:52Z</time>
      </trkpt>
      <trkpt lat="46.77564" lon="4.84637">
        <ele>166.88562</ele>
        <time>2011-02-20T12:50:54Z</time>
      </trkpt>
      <trkpt lat="46.77554" lon="4.84624">
        <ele>166.925415</ele>
        <time>2011-02-20T12:50:56Z</time>
      </trkpt>
      <trkpt lat="46.77539" lon="4.84605">
        <ele>167.102933</ele>
        <time>2011-02-20T12:50:59Z</time>
      </trkpt>
      <trkpt lat="46.77523" lon="4.84588">
        <ele>167.490074</ele>
        <time>2011-02-20T12:51:02Z</time>
      </trkpt>
      <trkpt lat="46.77512" lon="4.84578">
        <ele>168.058667</ele>
        <time>2011-02-20T12:51:04Z</time>
      </trkpt>
      <trkpt lat="46.77497" lon="4.84564">
        <ele>168.700766</ele>
        <time>2011-02-20T12:51:07Z</time>
      </trkpt>
      <trkpt lat="46.77486" lon="4.84555">
        <ele>169.266541</ele>
        <time>2011-02-20T12:51:09Z</time>
      </trkpt>
      <trkpt lat="46.7747" lon="4.84542">
        <ele>169.623004</ele>
        <time>2011-02-20T12:51:12Z</time>
      </trkpt>
      <trkpt lat="46.77459" lon="4.84533">
        <ele>169.754032</ele>
        <time>2011-02-20T12:51:14Z</time>
      </trkpt>
      <trkpt lat="46.77443" lon="4.84521">
        <ele>169.758224</ele>
        <time>2011-02-20T12:51:17Z</time>
      </trkpt>
      <trkpt lat="46.77426" lon="4.84509">
        <ele>169.72871</ele>
        <time>2011-02-20T12:51:20Z</time>
      </trkpt>
      <trkpt lat="46.77415" lon="4.84502">
        <ele>169.70679</ele>
        <time>2011-02-20T12:51:22Z</time>
      </trkpt>
      <trkpt lat="46.77398" lon="4.84491">
        <ele>169.698716</ele>
        <time>2011-02-20T12:51:25Z</time>
      </trkpt>
      <trkpt lat="46.7738" lon="4.8448">
        <ele>169.676897</ele>
        <time>2011-02-20T12:51:28Z</time>
      </trkpt>
      <trkpt lat="46.77363" lon="4.84469">
        <ele>169.599684</ele>
        <time>2011-02-20T12:51:31Z</time>
      </trkpt>
      <trkpt lat="46.77351" lon="4.84463">
        <ele>169.476862</ele>
        <time>2011-02-20T12:51:33Z</time>
      </trkpt>
      <trkpt lat="46.77339" lon="4.84456">
        <ele>169.300132</ele>
        <time>2011-02-20T12:51:35Z</time>
      </trkpt>
      <trkpt lat="46.77321" lon="4.84447">
        <ele>168.980602</ele>
        <time>2011-02-20T12:51:38Z</time>
      </trkpt>
      <trkpt lat="46.77303" lon="4.84438">
        <ele>168.552915</ele>
        <time>2011-02-20T12:51:41Z</time>
      </trkpt>
      <trkpt lat="46.77292" lon="4.84431">
        <ele>168.216771</ele>
        <time>2011-02-20T12:51:43Z</time>
      </trkpt>
      <trkpt lat="46.77276" lon="4.84418">
        <ele>168.074413</ele>
        <time>2011-02-20T12:51:46Z</time>
      </trkpt>
      <trkpt lat="46.77259" lon="4.8441">
        <ele>168.06314</ele>
        <time>2011-02-20T12:51:49Z</time>
      </trkpt>
      <trkpt lat="46.77242" lon="4.84403">
        <ele>168.099963</ele>
        <time>2011-02-20T12:51:52Z</time>
      </trkpt>
      <trkpt lat="46.77225" lon="4.84399">
        <ele>168.139646</ele>
        <time>2011-02-20T12:51:55Z</time>
      </trkpt>
      <trkpt lat="46.77207" lon="4.84394">
        <ele>168.168095</ele>
        <time>2011-02-20T12:51:58Z</time>
      </trkpt>
      <trkpt lat="46.77189" lon="4.84388">
        <ele>168.18696</ele>
        <time>2011-02-20T12:52:01Z</time>
      </trkpt>
      <trkpt lat="46.77172" lon="4.84382">
        <ele>168.197999</ele>
        <time>2011-02-20T12:52:04Z</time>
      </trkpt>
      <trkpt lat="46.77154" lon="4.84376">
        <ele>168.195967</ele>
        <time>2011-02-20T12:52:07Z</time>
      </trkpt>
      <trkpt lat="46.77136" lon="4.84371">
        <ele>168.16959</ele>
        <time>2011-02-20T12:52:10Z</time>
      </trkpt>
      <trkpt lat="46.77125" lon="4.84367">
        <ele>168.113576</ele>
        <time>2011-02-20T12:52:12Z</time>
      </trkpt>
      <trkpt lat="46.77107" lon="4.84362">
        <ele>167.990729</ele>
        <time>2011-02-20T12:52:15Z</time>
      </trkpt>
      <trkpt lat="46.77089" lon="4.84356">
        <ele>167.76169</ele>
        <time>2011-02-20T12:52:18Z</time>
      </trkpt>
      <trkpt lat="46.77072" lon="4.84352">
        <ele>167.474461</ele>
        <time>2011-02-20T12:52:21Z</time>
      </trkpt>
      <trkpt lat="46.77055" lon="4.84349">
        <ele>167.22334</ele>
        <time>2011-02-20T12:52:24Z</time>
      </trkpt>
      <trkpt lat="46.77037" lon="4.84346">
        <ele>167.060801</ele>
        <time>2011-02-20T12:52:27Z</time>
      </trkpt>
      <trkpt lat="46.77019" lon="4.84343">
        <ele>166.995256</ele>
        <time>2011-02-20T12:52:30Z</time>
      </trkpt>
      <trkpt lat="46.77001" lon="4.8434">
        <ele>166.974729</ele>
        <time>2011-02-20T12:52:33Z</time>
      </trkpt>
      <trkpt lat="46.7699" lon="4.84338">
        <ele>166.944479</ele>
        <time>2011-02-20T12:52:35Z</time>
      </trkpt>
      <trkpt lat="46.76973" lon="4.84336">
        <ele>166.908221</ele>
        <time>2011-02-20T12:52:38Z</time>
      </trkpt>
      <trkpt lat="46.76956" lon="4.84335">
        <ele>166.837727</ele>
        <time>2011-02-20T12:52:41Z</time>
      </trkpt>
      <trkpt lat="46.7694" lon="4.84333">
        <ele>166.66741</ele>
        <time>2011-02-20T12:52:44Z</time>
      </trkpt>
      <trkpt lat="46.76929" lon="4.84333">
        <ele>166.356279</ele>
        <time>2011-02-20T12:52:46Z</time>
      </trkpt>
      <trkpt lat="46.76913" lon="4.84332">
        <ele>165.899116</ele>
        <time>2011-02-20T12:52:49Z</time>
      </trkpt>
      <trkpt lat="46.76901" lon="4.84332">
        <ele>165.337443</ele>
        <time>2011-02-20T12:52:51Z</time>
      </trkpt>
      <trkpt lat="46.76884" lon="4.84334">
        <ele>164.72886</ele>
        <time>2011-02-20T12:52:54Z</time>
      </trkpt>
      <trkpt lat="46.76872" lon="4.84334">
        <ele>164.080964</ele>
        <time>2011-02-20T12:52:56Z</time>
      </trkpt>
      <trkpt lat="46.76854" lon="4.84336">
        <ele>163.427603</ele>
        <time>2011-02-20T12:52:59Z</time>
      </trkpt>
      <trkpt lat="46.76835" lon="4.84337">
        <ele>162.808154</ele>
        <time>2011-02-20T12:53:02Z</time>
      </trkpt>
      <trkpt lat="46.76818" lon="4.84336">
        <ele>162.234787</ele>
        <time>2011-02-20T12:53:05Z</time>
      </trkpt>
      <trkpt lat="46.76799" lon="4.84333">
        <ele>161.782676</ele>
        <time>2011-02-20T12:53:08Z</time>
      </trkpt>
      <trkpt lat="46.76787" lon="4.84331">
        <ele>161.550616</ele>
        <time>2011-02-20T12:53:10Z</time>
      </trkpt>
      <trkpt lat="46.76769" lon="4.84325">
        <ele>161.504931</ele>
        <time>2011-02-20T12:53:13Z</time>
      </trkpt>
      <trkpt lat="46.76757" lon="4.84319">
        <ele>161.54348</ele>
        <time>2011-02-20T12:53:15Z</time>
      </trkpt>
      <trkpt lat="46.76739" lon="4.84311">
        <ele>161.624055</ele>
        <time>2011-02-20T12:53:18Z</time>
      </trkpt>
      <trkpt lat="46.76728" lon="4.84304">
        <ele>161.775399</ele>
        <time>2011-02-20T12:53:20Z</time>
      </trkpt>
      <trkpt lat="46.7671" lon="4.84295">
        <ele>162.020378</ele>
        <time>2011-02-20T12:53:23Z</time>
      </trkpt>
      <trkpt lat="46.76699" lon="4.84288">
        <ele>162.285621</ele>
        <time>2011-02-20T12:53:25Z</time>
      </trkpt>
      <trkpt lat="46.76682" lon="4.84277">
        <ele>162.457761</ele>
        <time>2011-02-20T12:53:28Z</time>
      </trkpt>
      <trkpt lat="46.7667" lon="4.8427">
        <ele>162.512181</ele>
        <time>2011-02-20T12:53:30Z</time>
      </trkpt>
      <trkpt lat="46.76659" lon="4.84264">
        <ele>162.503506</ele>
        <time>2011-02-20T12:53:32Z</time>
      </trkpt>
      <trkpt lat="46.76643" lon="4.84253">
        <ele>162.197852</ele>
        <time>2011-02-20T12:53:35Z</time>
      </trkpt>
      <trkpt lat="46.76625" lon="4.84244">
        <ele>161.357458</ele>
        <time>2011-02-20T12:53:38Z</time>
      </trkpt>
      <trkpt lat="46.76607" lon="4.84235">
        <ele>160.316739</ele>
        <time>2011-02-20T12:53:41Z</time>
      </trkpt>
      <trkpt lat="46.76595" lon="4.8423">
        <ele>159.572847</ele>
        <time>2011-02-20T12:53:43Z</time>
      </trkpt>
      <trkpt lat="46.7658" lon="4.84222">
        <ele>159.220804</ele>
        <time>2011-02-20T12:53:46Z</time>
      </trkpt>
      <trkpt lat="46.76573" lon="4.84213">
        <ele>159.146079</ele>
        <time>2011-02-20T12:53:48Z</time>
      </trkpt>
      <trkpt lat="46.76564" lon="4.84197">
        <ele>159.190193</ele>
        <time>2011-02-20T12:53:51Z</time>
      </trkpt>
      <trkpt lat="46.76555" lon="4.84183">
        <ele>159.337343</ele>
        <time>2011-02-20T12:53:54Z</time>
      </trkpt>
      <trkpt lat="46.76543" lon="4.84176">
        <ele>159.652262</ele>
        <time>2011-02-20T12:53:57Z</time>
      </trkpt>
      <trkpt lat="46.76533" lon="4.84176">
        <ele>160.106226</ele>
        <time>2011-02-20T12:53:59Z</time>
      </trkpt>
      <trkpt lat="46.76518" lon="4.84177">
        <ele>160.708939</ele>
        <time>2011-02-20T12:54:02Z</time>
      </trkpt>
      <trkpt lat="46.76507" lon="4.84174">
        <ele>161.511621</ele>
        <time>2011-02-20T12:54:04Z</time>
      </trkpt>
      <trkpt lat="46.76491" lon="4.84167">
        <ele>162.359651</ele>
        <time>2011-02-20T12:54:07Z</time>
      </trkpt>
      <trkpt lat="46.76477" lon="4.84155">
        <ele>163.057546</ele>
        <time>2011-02-20T12:54:10Z</time>
      </trkpt>
      <trkpt lat="46.76466" lon="4.84141">
        <ele>163.565777</ele>
        <time>2011-02-20T12:54:13Z</time>
      </trkpt>
      <trkpt lat="46.76458" lon="4.84127">
        <ele>163.886182</ele>
        <time>2011-02-20T12:54:16Z</time>
      </trkpt>
      <trkpt lat="46.76449" lon="4.84115">
        <ele>164.021581</ele>
        <time>2011-02-20T12:54:19Z</time>
      </trkpt>
      <trkpt lat="46.76441" lon="4.84102">
        <ele>164.037025</ele>
        <time>2011-02-20T12:54:22Z</time>
      </trkpt>
      <trkpt lat="46.76432" lon="4.8409">
        <ele>164.01006</ele>
        <time>2011-02-20T12:54:25Z</time>
      </trkpt>
      <trkpt lat="46.76422" lon="4.84076">
        <ele>164.006945</ele>
        <time>2011-02-20T12:54:28Z</time>
      </trkpt>
      <trkpt lat="46.76413" lon="4.84063">
        <ele>164.054291</ele>
        <time>2011-02-20T12:54:31Z</time>
      </trkpt>
      <trkpt lat="46.76405" lon="4.8405">
        <ele>164.116157</ele>
        <time>2011-02-20T12:54:34Z</time>
      </trkpt>
      <trkpt lat="46.76397" lon="4.84036">
        <ele>164.155388</ele>
        <time>2011-02-20T12:54:37Z</time>
      </trkpt>
      <trkpt lat="46.76389" lon="4.84023">
        <ele>164.223067</ele>
        <time>2011-02-20T12:54:40Z</time>
      </trkpt>
      <trkpt lat="46.7638" lon="4.84009">
        <ele>164.412705</ele>
        <time>2011-02-20T12:54:43Z</time>
      </trkpt>
      <trkpt lat="46.76371" lon="4.83994">
        <ele>164.770682</ele>
        <time>2011-02-20T12:54:46Z</time>
      </trkpt>
      <trkpt lat="46.76361" lon="4.83982">
        <ele>165.372168</ele>
        <time>2011-02-20T12:54:49Z</time>
      </trkpt>
      <trkpt lat="46.76352" lon="4.83969">
        <ele>166.268054</ele>
        <time>2011-02-20T12:54:52Z</time>
      </trkpt>
      <trkpt lat="46.76345" lon="4.83952">
        <ele>167.300643</ele>
        <time>2011-02-20T12:54:55Z</time>
      </trkpt>
      <trkpt lat="46.76337" lon="4.83935">
        <ele>168.19933</ele>
        <time>2011-02-20T12:54:58Z</time>
      </trkpt>
      <trkpt lat="46.7633" lon="4.83918">
        <ele>168.793752</ele>
        <time>2011-02-20T12:55:01Z</time>
      </trkpt>
      <trkpt lat="46.76324" lon="4.83901">
        <ele>169.097277</ele>
        <time>2011-02-20T12:55:04Z</time>
      </trkpt>
      <trkpt lat="46.76318" lon="4.83884">
        <ele>169.320836</ele>
        <time>2011-02-20T12:55:07Z</time>
      </trkpt>
      <trkpt lat="46.76311" lon="4.83867">
        <ele>169.642123</ele>
        <time>2011-02-20T12:55:10Z</time>
      </trkpt>
      <trkpt lat="46.76304" lon="4.83849">
        <ele>170.009991</ele>
        <time>2011-02-20T12:55:13Z</time>
      </trkpt>
      <trkpt lat="46.76297" lon="4.83832">
        <ele>170.306669</ele>
        <time>2011-02-20T12:55:16Z</time>
      </trkpt>
      <trkpt lat="46.76292" lon="4.8382">
        <ele>170.564024</ele>
        <time>2011-02-20T12:55:18Z</time>
      </trkpt>
      <trkpt lat="46.76285" lon="4.83801">
        <ele>170.893966</ele>
        <time>2011-02-20T12:55:21Z</time>
      </trkpt>
      <trkpt lat="46.76278" lon="4.83782">
        <ele>171.276128</ele>
        <time>2011-02-20T12:55:24Z</time>
      </trkpt>
      <trkpt lat="46.76273" lon="4.8377">
        <ele>171.563106</ele>
        <time>2011-02-20T12:55:26Z</time>
      </trkpt>
      <trkpt lat="46.76267" lon="4.83751">
        <ele>171.706291</ele>
        <time>2011-02-20T12:55:29Z</time>
      </trkpt>
      <trkpt lat="46.7626" lon="4.83732">
        <ele>171.843237</ele>
        <time>2011-02-20T12:55:32Z</time>
      </trkpt>
      <trkpt lat="46.76249" lon="4.83715">
        <ele>172.134117</ele>
        <time>2011-02-20T12:55:35Z</time>
      </trkpt>
      <trkpt lat="46.76236" lon="4.837">
        <ele>172.622715</ele>
        <time>2011-02-20T12:55:38Z</time>
      </trkpt>
      <trkpt lat="46.7622" lon="4.83688">
        <ele>173.226986</ele>
        <time>2011-02-20T12:55:41Z</time>
      </trkpt>
      <trkpt lat="46.76204" lon="4.83675">
        <ele>173.790631</ele>
        <time>2011-02-20T12:55:44Z</time>
      </trkpt>
      <trkpt lat="46.76193" lon="4.83666">
        <ele>174.195738</ele>
        <time>2011-02-20T12:55:46Z</time>
      </trkpt>
      <trkpt lat="46.76182" lon="4.83647">
        <ele>174.520798</ele>
        <time>2011-02-20T12:55:49Z</time>
      </trkpt>
      <trkpt lat="46.76173" lon="4.83625">
        <ele>174.859804</ele>
        <time>2011-02-20T12:55:52Z</time>
      </trkpt>
      <trkpt lat="46.76166" lon="4.83601">
        <ele>175.148018</ele>
        <time>2011-02-20T12:55:55Z</time>
      </trkpt>
      <trkpt lat="46.76162" lon="4.83585">
        <ele>175.329497</ele>
        <time>2011-02-20T12:55:57Z</time>
      </trkpt>
      <trkpt lat="46.76155" lon="4.83557">
        <ele>175.431904</ele>
        <time>2011-02-20T12:56:00Z</time>
      </trkpt>
      <trkpt lat="46.76147" lon="4.83529">
        <ele>175.471395</ele>
        <time>2011-02-20T12:56:03Z</time>
      </trkpt>
      <trkpt lat="46.76138" lon="4.83502">
        <ele>175.471912</ele>
        <time>2011-02-20T12:56:06Z</time>
      </trkpt>
      <trkpt lat="46.76131" lon="4.83473">
        <ele>175.438197</ele>
        <time>2011-02-20T12:56:09Z</time>
      </trkpt>
      <trkpt lat="46.76138" lon="4.83447">
        <ele>175.368142</ele>
        <time>2011-02-20T12:56:12Z</time>
      </trkpt>
      <trkpt lat="46.76146" lon="4.83427">
        <ele>175.296387</ele>
        <time>2011-02-20T12:56:15Z</time>
      </trkpt>
      <trkpt lat="46.7615" lon="4.83414">
        <ele>175.254876</ele>
        <time>2011-02-20T12:56:17Z</time>
      </trkpt>
      <trkpt lat="46.76154" lon="4.834">
        <ele>175.232529</ele>
        <time>2011-02-20T12:56:19Z</time>
      </trkpt>
      <trkpt lat="46.76159" lon="4.83382">
        <ele>175.195033</ele>
        <time>2011-02-20T12:56:22Z</time>
      </trkpt>
      <trkpt lat="46.76162" lon="4.83364">
        <ele>175.103615</ele>
        <time>2011-02-20T12:56:25Z</time>
      </trkpt>
      <trkpt lat="46.76166" lon="4.83343">
        <ele>174.961334</ele>
        <time>2011-02-20T12:56:28Z</time>
      </trkpt>
      <trkpt lat="46.76169" lon="4.83323">
        <ele>174.766682</ele>
        <time>2011-02-20T12:56:31Z</time>
      </trkpt>
      <trkpt lat="46.76171" lon="4.83309">
        <ele>174.509193</ele>
        <time>2011-02-20T12:56:33Z</time>
      </trkpt>
      <trkpt lat="46.76174" lon="4.83295">
        <ele>174.259131</ele>
        <time>2011-02-20T12:56:35Z</time>
      </trkpt>
      <trkpt lat="46.76176" lon="4.83281">
        <ele>174.104746</ele>
        <time>2011-02-20T12:56:37Z</time>
      </trkpt>
      <trkpt lat="46.7618" lon="4.83261">
        <ele>174.025605</ele>
        <time>2011-02-20T12:56:40Z</time>
      </trkpt>
      <trkpt lat="46.76182" lon="4.83247">
        <ele>173.90637</ele>
        <time>2011-02-20T12:56:42Z</time>
      </trkpt>
      <trkpt lat="46.76186" lon="4.83226">
        <ele>173.626758</ele>
        <time>2011-02-20T12:56:45Z</time>
      </trkpt>
      <trkpt lat="46.76188" lon="4.83211">
        <ele>173.154946</ele>
        <time>2011-02-20T12:56:47Z</time>
      </trkpt>
      <trkpt lat="46.76191" lon="4.83191">
        <ele>172.558155</ele>
        <time>2011-02-20T12:56:50Z</time>
      </trkpt>
      <trkpt lat="46.76195" lon="4.83169">
        <ele>172.009395</ele>
        <time>2011-02-20T12:56:53Z</time>
      </trkpt>
      <trkpt lat="46.76199" lon="4.83147">
        <ele>171.689312</ele>
        <time>2011-02-20T12:56:56Z</time>
      </trkpt>
      <trkpt lat="46.76202" lon="4.83132">
        <ele>171.604974</ele>
        <time>2011-02-20T12:56:58Z</time>
      </trkpt>
      <trkpt lat="46.76206" lon="4.83118">
        <ele>171.649541</ele>
        <time>2011-02-20T12:57:00Z</time>
      </trkpt>
      <trkpt lat="46.7621" lon="4.83103">
        <ele>171.808261</ele>
        <time>2011-02-20T12:57:02Z</time>
      </trkpt>
      <trkpt lat="46.76217" lon="4.83082">
        <ele>172.108829</ele>
        <time>2011-02-20T12:57:05Z</time>
      </trkpt>
      <trkpt lat="46.76225" lon="4.83062">
        <ele>172.480971</ele>
        <time>2011-02-20T12:57:08Z</time>
      </trkpt>
      <trkpt lat="46.76235" lon="4.83045">
        <ele>172.784796</ele>
        <time>2011-02-20T12:57:11Z</time>
      </trkpt>
      <trkpt lat="46.76246" lon="4.83029">
        <ele>172.940873</ele>
        <time>2011-02-20T12:57:14Z</time>
      </trkpt>
      <trkpt lat="46.76254" lon="4.83018">
        <ele>172.971671</ele>
        <time>2011-02-20T12:57:16Z</time>
      </trkpt>
      <trkpt lat="46.76266" lon="4.83003">
        <ele>172.861951</ele>
        <time>2011-02-20T12:57:19Z</time>
      </trkpt>
      <trkpt lat="46.76274" lon="4.82992">
        <ele>172.563147</ele>
        <time>2011-02-20T12:57:21Z</time>
      </trkpt>
      <trkpt lat="46.76286" lon="4.82976">
        <ele>172.200278</ele>
        <time>2011-02-20T12:57:24Z</time>
      </trkpt>
      <trkpt lat="46.76293" lon="4.82965">
        <ele>171.96881</ele>
        <time>2011-02-20T12:57:26Z</time>
      </trkpt>
      <trkpt lat="46.76301" lon="4.82953">
        <ele>171.898143</ele>
        <time>2011-02-20T12:57:28Z</time>
      </trkpt>
      <trkpt lat="46.76311" lon="4.82936">
        <ele>171.940362</ele>
        <time>2011-02-20T12:57:31Z</time>
      </trkpt>
      <trkpt lat="46.76317" lon="4.82923">
        <ele>172.051949</ele>
        <time>2011-02-20T12:57:33Z</time>
      </trkpt>
      <trkpt lat="46.76326" lon="4.82904">
        <ele>172.162913</ele>
        <time>2011-02-20T12:57:36Z</time>
      </trkpt>
      <trkpt lat="46.76332" lon="4.8289">
        <ele>172.219783</ele>
        <time>2011-02-20T12:57:38Z</time>
      </trkpt>
      <trkpt lat="46.7634" lon="4.8287">
        <ele>172.225709</ele>
        <time>2011-02-20T12:57:41Z</time>
      </trkpt>
      <trkpt lat="46.76347" lon="4.82849">
        <ele>172.194408</ele>
        <time>2011-02-20T12:57:44Z</time>
      </trkpt>
      <trkpt lat="46.76352" lon="4.82835">
        <ele>172.14566</ele>
        <time>2011-02-20T12:57:46Z</time>
      </trkpt>
      <trkpt lat="46.76356" lon="4.8282">
        <ele>172.108043</ele>
        <time>2011-02-20T12:57:48Z</time>
      </trkpt>
      <trkpt lat="46.76362" lon="4.82797">
        <ele>172.093646</ele>
        <time>2011-02-20T12:57:51Z</time>
      </trkpt>
      <trkpt lat="46.76367" lon="4.82775">
        <ele>172.104736</ele>
        <time>2011-02-20T12:57:54Z</time>
      </trkpt>
      <trkpt lat="46.76371" lon="4.82761">
        <ele>172.169475</ele>
        <time>2011-02-20T12:57:56Z</time>
      </trkpt>
      <trkpt lat="46.76376" lon="4.82739">
        <ele>172.289143</ele>
        <time>2011-02-20T12:57:59Z</time>
      </trkpt>
      <trkpt lat="46.76381" lon="4.82717">
        <ele>172.414538</ele>
        <time>2011-02-20T12:58:02Z</time>
      </trkpt>
      <trkpt lat="46.76384" lon="4.82702">
        <ele>172.536625</ele>
        <time>2011-02-20T12:58:04Z</time>
      </trkpt>
      <trkpt lat="46.76387" lon="4.82687">
        <ele>172.753634</ele>
        <time>2011-02-20T12:58:06Z</time>
      </trkpt>
      <trkpt lat="46.76391" lon="4.82664">
        <ele>173.125549</ele>
        <time>2011-02-20T12:58:09Z</time>
      </trkpt>
      <trkpt lat="46.76393" lon="4.82648">
        <ele>173.555075</ele>
        <time>2011-02-20T12:58:11Z</time>
      </trkpt>
      <trkpt lat="46.76394" lon="4.82625">
        <ele>173.909826</ele>
        <time>2011-02-20T12:58:14Z</time>
      </trkpt>
      <trkpt lat="46.76392" lon="4.82604">
        <ele>174.174192</ele>
        <time>2011-02-20T12:58:17Z</time>
      </trkpt>
      <trkpt lat="46.76391" lon="4.82591">
        <ele>174.510889</ele>
        <time>2011-02-20T12:58:19Z</time>
      </trkpt>
      <trkpt lat="46.76388" lon="4.82572">
        <ele>175.165702</ele>
        <time>2011-02-20T12:58:22Z</time>
      </trkpt>
      <trkpt lat="46.76383" lon="4.82554">
        <ele>176.148144</ele>
        <time>2011-02-20T12:58:25Z</time>
      </trkpt>
      <trkpt lat="46.76378" lon="4.82534">
        <ele>177.156374</ele>
        <time>2011-02-20T12:58:28Z</time>
      </trkpt>
      <trkpt lat="46.76373" lon="4.82513">
        <ele>177.897</ele>
        <time>2011-02-20T12:58:31Z</time>
      </trkpt>
      <trkpt lat="46.76367" lon="4.82492">
        <ele>178.358199</ele>
        <time>2011-02-20T12:58:34Z</time>
      </trkpt>
      <trkpt lat="46.76364" lon="4.8247">
        <ele>178.772401</ele>
        <time>2011-02-20T12:58:37Z</time>
      </trkpt>
      <trkpt lat="46.76365" lon="4.82455">
        <ele>179.373527</ele>
        <time>2011-02-20T12:58:39Z</time>
      </trkpt>
      <trkpt lat="46.76369" lon="4.82442">
        <ele>180.21351</ele>
        <time>2011-02-20T12:58:41Z</time>
      </trkpt>
      <trkpt lat="46.76381" lon="4.82424">
        <ele>181.125929</ele>
        <time>2011-02-20T12:58:44Z</time>
      </trkpt>
      <trkpt lat="46.76396" lon="4.82414">
        <ele>181.827734</ele>
        <time>2011-02-20T12:58:47Z</time>
      </trkpt>
      <trkpt lat="46.76411" lon="4.82404">
        <ele>182.161971</ele>
        <time>2011-02-20T12:58:50Z</time>
      </trkpt>
      <trkpt lat="46.76426" lon="4.82394">
        <ele>182.213346</ele>
        <time>2011-02-20T12:58:53Z</time>
      </trkpt>
      <trkpt lat="46.7644" lon="4.82385">
        <ele>182.058647</ele>
        <time>2011-02-20T12:58:56Z</time>
      </trkpt>
      <trkpt lat="46.7645" lon="4.82379">
        <ele>181.671629</ele>
        <time>2011-02-20T12:58:58Z</time>
      </trkpt>
      <trkpt lat="46.76464" lon="4.8237">
        <ele>181.159175</ele>
        <time>2011-02-20T12:59:01Z</time>
      </trkpt>
      <trkpt lat="46.76473" lon="4.82364">
        <ele>180.754701</ele>
        <time>2011-02-20T12:59:03Z</time>
      </trkpt>
      <trkpt lat="46.76486" lon="4.82354">
        <ele>180.56683</ele>
        <time>2011-02-20T12:59:06Z</time>
      </trkpt>
      <trkpt lat="46.76494" lon="4.82345">
        <ele>180.540801</ele>
        <time>2011-02-20T12:59:08Z</time>
      </trkpt>
      <trkpt lat="46.76505" lon="4.8233">
        <ele>180.574756</ele>
        <time>2011-02-20T12:59:11Z</time>
      </trkpt>
      <trkpt lat="46.76512" lon="4.82319">
        <ele>180.607706</ele>
        <time>2011-02-20T12:59:13Z</time>
      </trkpt>
      <trkpt lat="46.76518" lon="4.82309">
        <ele>180.622808</ele>
        <time>2011-02-20T12:59:15Z</time>
      </trkpt>
      <trkpt lat="46.76527" lon="4.82294">
        <ele>180.61142</ele>
        <time>2011-02-20T12:59:18Z</time>
      </trkpt>
      <trkpt lat="46.76533" lon="4.82283">
        <ele>180.555979</ele>
        <time>2011-02-20T12:59:20Z</time>
      </trkpt>
      <trkpt lat="46.76542" lon="4.82269">
        <ele>180.471148</ele>
        <time>2011-02-20T12:59:23Z</time>
      </trkpt>
      <trkpt lat="46.76552" lon="4.82254">
        <ele>180.405326</ele>
        <time>2011-02-20T12:59:26Z</time>
      </trkpt>
      <trkpt lat="46.76558" lon="4.82243">
        <ele>180.379999</ele>
        <time>2011-02-20T12:59:28Z</time>
      </trkpt>
      <trkpt lat="46.76567" lon="4.82226">
        <ele>180.347682</ele>
        <time>2011-02-20T12:59:31Z</time>
      </trkpt>
      <trkpt lat="46.76573" lon="4.82214">
        <ele>180.27025</ele>
        <time>2011-02-20T12:59:33Z</time>
      </trkpt>
      <trkpt lat="46.76582" lon="4.82198">
        <ele>180.187325</ele>
        <time>2011-02-20T12:59:36Z</time>
      </trkpt>
      <trkpt lat="46.76587" lon="4.82186">
        <ele>180.146017</ele>
        <time>2011-02-20T12:59:38Z</time>
      </trkpt>
      <trkpt lat="46.76593" lon="4.82168">
        <ele>180.115414</ele>
        <time>2011-02-20T12:59:41Z</time>
      </trkpt>
      <trkpt lat="46.76597" lon="4.82156">
        <ele>179.979993</ele>
        <time>2011-02-20T12:59:43Z</time>
      </trkpt>
      <trkpt lat="46.76602" lon="4.82144">
        <ele>179.663605</ele>
        <time>2011-02-20T12:59:45Z</time>
      </trkpt>
      <trkpt lat="46.76607" lon="4.82132">
        <ele>179.201042</ele>
        <time>2011-02-20T12:59:47Z</time>
      </trkpt>
      <trkpt lat="46.76614" lon="4.82116">
        <ele>178.695958</ele>
        <time>2011-02-20T12:59:50Z</time>
      </trkpt>
      <trkpt lat="46.76621" lon="4.82101">
        <ele>178.285628</ele>
        <time>2011-02-20T12:59:53Z</time>
      </trkpt>
      <trkpt lat="46.76629" lon="4.82085">
        <ele>178.062253</ele>
        <time>2011-02-20T12:59:56Z</time>
      </trkpt>
      <trkpt lat="46.76637" lon="4.8207">
        <ele>177.996135</ele>
        <time>2011-02-20T12:59:59Z</time>
      </trkpt>
      <trkpt lat="46.76645" lon="4.82054">
        <ele>178.01006</ele>
        <time>2011-02-20T13:00:02Z</time>
      </trkpt>
      <trkpt lat="46.7665" lon="4.82044">
        <ele>178.04177</ele>
        <time>2011-02-20T13:00:04Z</time>
      </trkpt>
      <trkpt lat="46.76658" lon="4.82027">
        <ele>178.100687</ele>
        <time>2011-02-20T13:00:07Z</time>
      </trkpt>
      <trkpt lat="46.76661" lon="4.82015">
        <ele>178.286754</ele>
        <time>2011-02-20T13:00:09Z</time>
      </trkpt>
      <trkpt lat="46.76668" lon="4.81998">
        <ele>178.655294</ele>
        <time>2011-02-20T13:00:12Z</time>
      </trkpt>
      <trkpt lat="46.76674" lon="4.81985">
        <ele>179.1333</ele>
        <time>2011-02-20T13:00:15Z</time>
      </trkpt>
      <trkpt lat="46.76681" lon="4.81971">
        <ele>179.608152</ele>
        <time>2011-02-20T13:00:18Z</time>
      </trkpt>
      <trkpt lat="46.76687" lon="4.81958">
        <ele>180.023581</ele>
        <time>2011-02-20T13:00:21Z</time>
      </trkpt>
      <trkpt lat="46.76688" lon="4.81942">
        <ele>180.354975</ele>
        <time>2011-02-20T13:00:24Z</time>
      </trkpt>
      <trkpt lat="46.76685" lon="4.81925">
        <ele>180.570764</ele>
        <time>2011-02-20T13:00:27Z</time>
      </trkpt>
      <trkpt lat="46.76678" lon="4.8191">
        <ele>180.664954</ele>
        <time>2011-02-20T13:00:30Z</time>
      </trkpt>
      <trkpt lat="46.76671" lon="4.81893">
        <ele>180.708183</ele>
        <time>2011-02-20T13:00:33Z</time>
      </trkpt>
      <trkpt lat="46.76666" lon="4.8188">
        <ele>181.11048</ele>
        <time>2011-02-20T13:00:35Z</time>
      </trkpt>
      <trkpt lat="46.76658" lon="4.81864">
        <ele>182.543002</ele>
        <time>2011-02-20T13:00:38Z</time>
      </trkpt>
      <trkpt lat="46.7665" lon="4.81849">
        <ele>184.926993</ele>
        <time>2011-02-20T13:00:41Z</time>
      </trkpt>
      <trkpt lat="46.76644" lon="4.81839">
        <ele>187.153002</ele>
        <time>2011-02-20T13:00:43Z</time>
      </trkpt>
      <trkpt lat="46.76635" lon="4.81823">
        <ele>188.349721</ele>
        <time>2011-02-20T13:00:46Z</time>
      </trkpt>
      <trkpt lat="46.76627" lon="4.81808">
        <ele>188.615372</ele>
        <time>2011-02-20T13:00:49Z</time>
      </trkpt>
      <trkpt lat="46.76618" lon="4.81793">
        <ele>188.490592</ele>
        <time>2011-02-20T13:00:52Z</time>
      </trkpt>
      <trkpt lat="46.76606" lon="4.8178">
        <ele>188.338259</ele>
        <time>2011-02-20T13:00:55Z</time>
      </trkpt>
      <trkpt lat="46.76594" lon="4.81765">
        <ele>188.242335</ele>
        <time>2011-02-20T13:00:58Z</time>
      </trkpt>
      <trkpt lat="46.76581" lon="4.81751">
        <ele>188.184036</ele>
        <time>2011-02-20T13:01:01Z</time>
      </trkpt>
      <trkpt lat="46.76569" lon="4.81735">
        <ele>188.167528</ele>
        <time>2011-02-20T13:01:04Z</time>
      </trkpt>
      <trkpt lat="46.7656" lon="4.81725">
        <ele>188.20149</ele>
        <time>2011-02-20T13:01:06Z</time>
      </trkpt>
      <trkpt lat="46.76547" lon="4.81711">
        <ele>188.277919</ele>
        <time>2011-02-20T13:01:09Z</time>
      </trkpt>
      <trkpt lat="46.76534" lon="4.81696">
        <ele>188.429586</ele>
        <time>2011-02-20T13:01:12Z</time>
      </trkpt>
      <trkpt lat="46.76526" lon="4.81686">
        <ele>188.659056</ele>
        <time>2011-02-20T13:01:14Z</time>
      </trkpt>
      <trkpt lat="46.76514" lon="4.81671">
        <ele>188.855723</ele>
        <time>2011-02-20T13:01:17Z</time>
      </trkpt>
      <trkpt lat="46.76505" lon="4.81661">
        <ele>188.938228</ele>
        <time>2011-02-20T13:01:19Z</time>
      </trkpt>
      <trkpt lat="46.76496" lon="4.81651">
        <ele>188.91493</ele>
        <time>2011-02-20T13:01:21Z</time>
      </trkpt>
      <trkpt lat="46.7648" lon="4.81638">
        <ele>188.805142</ele>
        <time>2011-02-20T13:01:24Z</time>
      </trkpt>
      <trkpt lat="46.76469" lon="4.8163">
        <ele>188.672213</ele>
        <time>2011-02-20T13:01:26Z</time>
      </trkpt>
      <trkpt lat="46.76459" lon="4.8162">
        <ele>188.579371</ele>
        <time>2011-02-20T13:01:28Z</time>
      </trkpt>
      <trkpt lat="46.76442" lon="4.81599">
        <ele>188.482554</ele>
        <time>2011-02-20T13:01:31Z</time>
      </trkpt>
      <trkpt lat="46.76421" lon="4.81572">
        <ele>188.326135</ele>
        <time>2011-02-20T13:01:34Z</time>
      </trkpt>
      <trkpt lat="46.76401" lon="4.81541">
        <ele>188.144991</ele>
        <time>2011-02-20T13:01:37Z</time>
      </trkpt>
      <trkpt lat="46.76389" lon="4.8152">
        <ele>187.998812</ele>
        <time>2011-02-20T13:01:39Z</time>
      </trkpt>
      <trkpt lat="46.76372" lon="4.81487">
        <ele>187.812711</ele>
        <time>2011-02-20T13:01:42Z</time>
      </trkpt>
      <trkpt lat="46.76347" lon="4.81466">
        <ele>187.420393</ele>
        <time>2011-02-20T13:01:45Z</time>
      </trkpt>
      <trkpt lat="46.76327" lon="4.81466">
        <ele>186.882551</ele>
        <time>2011-02-20T13:01:47Z</time>
      </trkpt>
      <trkpt lat="46.76307" lon="4.81472">
        <ele>186.483927</ele>
        <time>2011-02-20T13:01:49Z</time>
      </trkpt>
      <trkpt lat="46.76281" lon="4.81485">
        <ele>186.337418</ele>
        <time>2011-02-20T13:01:52Z</time>
      </trkpt>
      <trkpt lat="46.76254" lon="4.81496">
        <ele>186.342584</ele>
        <time>2011-02-20T13:01:55Z</time>
      </trkpt>
      <trkpt lat="46.76236" lon="4.81499">
        <ele>186.39147</ele>
        <time>2011-02-20T13:01:57Z</time>
      </trkpt>
      <trkpt lat="46.76207" lon="4.81496">
        <ele>186.428517</ele>
        <time>2011-02-20T13:02:00Z</time>
      </trkpt>
      <trkpt lat="46.76177" lon="4.81485">
        <ele>186.442447</ele>
        <time>2011-02-20T13:02:03Z</time>
      </trkpt>
      <trkpt lat="46.76158" lon="4.81474">
        <ele>186.436002</ele>
        <time>2011-02-20T13:02:05Z</time>
      </trkpt>
      <trkpt lat="46.76133" lon="4.8145">
        <ele>186.413228</ele>
        <time>2011-02-20T13:02:08Z</time>
      </trkpt>
      <trkpt lat="46.76119" lon="4.81431">
        <ele>186.360369</ele>
        <time>2011-02-20T13:02:10Z</time>
      </trkpt>
      <trkpt lat="46.76099" lon="4.81403">
        <ele>186.245661</ele>
        <time>2011-02-20T13:02:13Z</time>
      </trkpt>
      <trkpt lat="46.76086" lon="4.81384">
        <ele>186.029222</ele>
        <time>2011-02-20T13:02:15Z</time>
      </trkpt>
      <trkpt lat="46.76069" lon="4.81357">
        <ele>185.712845</ele>
        <time>2011-02-20T13:02:18Z</time>
      </trkpt>
      <trkpt lat="46.76055" lon="4.81333">
        <ele>185.347288</ele>
        <time>2011-02-20T13:02:21Z</time>
      </trkpt>
      <trkpt lat="46.76041" lon="4.81309">
        <ele>184.998934</ele>
        <time>2011-02-20T13:02:24Z</time>
      </trkpt>
      <trkpt lat="46.76027" lon="4.81287">
        <ele>184.681904</ele>
        <time>2011-02-20T13:02:27Z</time>
      </trkpt>
      <trkpt lat="46.76018" lon="4.81274">
        <ele>184.309579</ele>
        <time>2011-02-20T13:02:29Z</time>
      </trkpt>
      <trkpt lat="46.76006" lon="4.81254">
        <ele>183.801407</ele>
        <time>2011-02-20T13:02:32Z</time>
      </trkpt>
      <trkpt lat="46.75994" lon="4.81236">
        <ele>183.172306</ele>
        <time>2011-02-20T13:02:35Z</time>
      </trkpt>
      <trkpt lat="46.75986" lon="4.81224">
        <ele>182.469467</ele>
        <time>2011-02-20T13:02:37Z</time>
      </trkpt>
      <trkpt lat="46.75974" lon="4.81206">
        <ele>181.696654</ele>
        <time>2011-02-20T13:02:40Z</time>
      </trkpt>
      <trkpt lat="46.75964" lon="4.8119">
        <ele>180.839705</ele>
        <time>2011-02-20T13:02:43Z</time>
      </trkpt>
      <trkpt lat="46.75956" lon="4.81177">
        <ele>179.982475</ele>
        <time>2011-02-20T13:02:46Z</time>
      </trkpt>
      <trkpt lat="46.75947" lon="4.81168">
        <ele>179.200504</ele>
        <time>2011-02-20T13:02:50Z</time>
      </trkpt>
      <trkpt lat="46.75941" lon="4.81156">
        <ele>178.451485</ele>
        <time>2011-02-20T13:02:54Z</time>
      </trkpt>
      <trkpt lat="46.75941" lon="4.81156">
        <ele>177.817186</ele>
        <time>2011-02-20T13:02:59Z</time>
      </trkpt>
      <trkpt lat="46.75918" lon="4.8111">
        <ele>177.455517</ele>
        <time>2011-02-20T13:03:15Z</time>
      </trkpt>
      <trkpt lat="46.75918" lon="4.8111">
        <ele>177.337181</ele>
        <time>2011-02-20T13:03:19Z</time>
      </trkpt>
      <trkpt lat="46.75899" lon="4.81077">
        <ele>177.3231</ele>
        <time>2011-02-20T13:03:32Z</time>
      </trkpt>
      <trkpt lat="46.7589" lon="4.81067">
        <ele>177.317781</ele>
        <time>2011-02-20T13:03:36Z</time>
      </trkpt>
      <trkpt lat="46.75877" lon="4.81051">
        <ele>177.220142</ele>
        <time>2011-02-20T13:03:42Z</time>
      </trkpt>
      <trkpt lat="46.75869" lon="4.81041">
        <ele>176.925683</ele>
        <time>2011-02-20T13:03:46Z</time>
      </trkpt>
      <trkpt lat="46.75862" lon="4.8103">
        <ele>176.500886</ele>
        <time>2011-02-20T13:03:50Z</time>
      </trkpt>
      <trkpt lat="46.75855" lon="4.81019">
        <ele>176.148627</ele>
        <time>2011-02-20T13:03:54Z</time>
      </trkpt>
      <trkpt lat="46.75849" lon="4.81007">
        <ele>175.953236</ele>
        <time>2011-02-20T13:03:58Z</time>
      </trkpt>
      <trkpt lat="46.75843" lon="4.80996">
        <ele>175.858754</ele>
        <time>2011-02-20T13:04:02Z</time>
      </trkpt>
      <trkpt lat="46.75838" lon="4.80984">
        <ele>175.803799</ele>
        <time>2011-02-20T13:04:06Z</time>
      </trkpt>
      <trkpt lat="46.75831" lon="4.80962">
        <ele>175.753063</ele>
        <time>2011-02-20T13:04:13Z</time>
      </trkpt>
      <trkpt lat="46.75828" lon="4.80949">
        <ele>175.699003</ele>
        <time>2011-02-20T13:04:17Z</time>
      </trkpt>
      <trkpt lat="46.75825" lon="4.80933">
        <ele>175.65528</ele>
        <time>2011-02-20T13:04:21Z</time>
      </trkpt>
      <trkpt lat="46.75822" lon="4.80918">
        <ele>175.633637</ele>
        <time>2011-02-20T13:04:25Z</time>
      </trkpt>
      <trkpt lat="46.75818" lon="4.80901">
        <ele>175.62923</ele>
        <time>2011-02-20T13:04:30Z</time>
      </trkpt>
      <trkpt lat="46.75815" lon="4.80885">
        <ele>175.632673</ele>
        <time>2011-02-20T13:04:34Z</time>
      </trkpt>
      <trkpt lat="46.75815" lon="4.80885">
        <ele>175.637611</ele>
        <time>2011-02-20T13:04:37Z</time>
      </trkpt>
      <trkpt lat="46.75809" lon="4.80861">
        <ele>175.645488</ele>
        <time>2011-02-20T13:04:41Z</time>
      </trkpt>
      <trkpt lat="46.75805" lon="4.80848">
        <ele>175.65916</ele>
        <time>2011-02-20T13:04:44Z</time>
      </trkpt>
      <trkpt lat="46.75804" lon="4.80833">
        <ele>175.673326</ele>
        <time>2011-02-20T13:04:47Z</time>
      </trkpt>
      <trkpt lat="46.75805" lon="4.80819">
        <ele>175.691324</ele>
        <time>2011-02-20T13:04:50Z</time>
      </trkpt>
      <trkpt lat="46.75808" lon="4.80804">
        <ele>175.73031</ele>
        <time>2011-02-20T13:04:53Z</time>
      </trkpt>
      <trkpt lat="46.75812" lon="4.8079">
        <ele>175.797281</ele>
        <time>2011-02-20T13:04:56Z</time>
      </trkpt>
      <trkpt lat="46.75815" lon="4.80775">
        <ele>175.892371</ele>
        <time>2011-02-20T13:04:59Z</time>
      </trkpt>
      <trkpt lat="46.75816" lon="4.80761">
        <ele>176.016988</ele>
        <time>2011-02-20T13:05:02Z</time>
      </trkpt>
      <trkpt lat="46.75816" lon="4.80746">
        <ele>176.16134</ele>
        <time>2011-02-20T13:05:05Z</time>
      </trkpt>
      <trkpt lat="46.75816" lon="4.80732">
        <ele>176.318755</ele>
        <time>2011-02-20T13:05:08Z</time>
      </trkpt>
      <trkpt lat="46.75816" lon="4.80715">
        <ele>176.501625</ele>
        <time>2011-02-20T13:05:12Z</time>
      </trkpt>
      <trkpt lat="46.75816" lon="4.80702">
        <ele>176.708096</ele>
        <time>2011-02-20T13:05:15Z</time>
      </trkpt>
      <trkpt lat="46.75816" lon="4.80702">
        <ele>176.887482</ele>
        <time>2011-02-20T13:05:17Z</time>
      </trkpt>
      <trkpt lat="46.7582" lon="4.80656">
        <ele>177.009781</ele>
        <time>2011-02-20T13:05:25Z</time>
      </trkpt>
      <trkpt lat="46.75821" lon="4.80639">
        <ele>177.118353</ele>
        <time>2011-02-20T13:05:28Z</time>
      </trkpt>
      <trkpt lat="46.75819" lon="4.80623">
        <ele>177.25881</ele>
        <time>2011-02-20T13:05:31Z</time>
      </trkpt>
      <trkpt lat="46.75818" lon="4.80608">
        <ele>177.562659</ele>
        <time>2011-02-20T13:05:34Z</time>
      </trkpt>
      <trkpt lat="46.75817" lon="4.80593">
        <ele>178.140933</ele>
        <time>2011-02-20T13:05:37Z</time>
      </trkpt>
      <trkpt lat="46.75815" lon="4.80578">
        <ele>178.843827</ele>
        <time>2011-02-20T13:05:40Z</time>
      </trkpt>
      <trkpt lat="46.75814" lon="4.80565">
        <ele>179.465846</ele>
        <time>2011-02-20T13:05:43Z</time>
      </trkpt>
      <trkpt lat="46.75811" lon="4.80549">
        <ele>179.993352</ele>
        <time>2011-02-20T13:05:47Z</time>
      </trkpt>
      <trkpt lat="46.7581" lon="4.80536">
        <ele>180.482771</ele>
        <time>2011-02-20T13:05:50Z</time>
      </trkpt>
      <trkpt lat="46.75811" lon="4.80523">
        <ele>180.958425</ele>
        <time>2011-02-20T13:05:53Z</time>
      </trkpt>
      <trkpt lat="46.75812" lon="4.80509">
        <ele>181.403966</ele>
        <time>2011-02-20T13:05:56Z</time>
      </trkpt>
      <trkpt lat="46.75814" lon="4.80494">
        <ele>181.813871</ele>
        <time>2011-02-20T13:05:59Z</time>
      </trkpt>
      <trkpt lat="46.75814" lon="4.80478">
        <ele>182.212</ele>
        <time>2011-02-20T13:06:02Z</time>
      </trkpt>
      <trkpt lat="46.75817" lon="4.80462">
        <ele>182.652687</ele>
        <time>2011-02-20T13:06:05Z</time>
      </trkpt>
      <trkpt lat="46.75818" lon="4.80447">
        <ele>183.201014</ele>
        <time>2011-02-20T13:06:08Z</time>
      </trkpt>
      <trkpt lat="46.7582" lon="4.80431">
        <ele>183.874307</ele>
        <time>2011-02-20T13:06:11Z</time>
      </trkpt>
      <trkpt lat="46.75822" lon="4.80415">
        <ele>184.636622</ele>
        <time>2011-02-20T13:06:14Z</time>
      </trkpt>
      <trkpt lat="46.75823" lon="4.80397">
        <ele>185.426718</ele>
        <time>2011-02-20T13:06:17Z</time>
      </trkpt>
      <trkpt lat="46.75825" lon="4.80379">
        <ele>186.164041</ele>
        <time>2011-02-20T13:06:20Z</time>
      </trkpt>
      <trkpt lat="46.75826" lon="4.80361">
        <ele>186.773577</ele>
        <time>2011-02-20T13:06:23Z</time>
      </trkpt>
      <trkpt lat="46.75828" lon="4.80344">
        <ele>187.232004</ele>
        <time>2011-02-20T13:06:26Z</time>
      </trkpt>
      <trkpt lat="46.7583" lon="4.80324">
        <ele>187.573706</ele>
        <time>2011-02-20T13:06:29Z</time>
      </trkpt>
      <trkpt lat="46.7583" lon="4.8031">
        <ele>187.814214</ele>
        <time>2011-02-20T13:06:31Z</time>
      </trkpt>
      <trkpt lat="46.75831" lon="4.80288">
        <ele>187.935269</ele>
        <time>2011-02-20T13:06:33Z</time>
      </trkpt>
      <trkpt lat="46.75832" lon="4.80274">
        <ele>187.971358</ele>
        <time>2011-02-20T13:06:35Z</time>
      </trkpt>
      <trkpt lat="46.75835" lon="4.80253">
        <ele>187.994987</ele>
        <time>2011-02-20T13:06:38Z</time>
      </trkpt>
      <trkpt lat="46.75835" lon="4.80239">
        <ele>188.080745</ele>
        <time>2011-02-20T13:06:40Z</time>
      </trkpt>
      <trkpt lat="46.75835" lon="4.80218">
        <ele>188.244203</ele>
        <time>2011-02-20T13:06:43Z</time>
      </trkpt>
      <trkpt lat="46.75837" lon="4.80199">
        <ele>188.418038</ele>
        <time>2011-02-20T13:06:46Z</time>
      </trkpt>
      <trkpt lat="46.75838" lon="4.80177">
        <ele>188.541887</ele>
        <time>2011-02-20T13:06:49Z</time>
      </trkpt>
      <trkpt lat="46.7584" lon="4.80155">
        <ele>188.606921</ele>
        <time>2011-02-20T13:06:52Z</time>
      </trkpt>
      <trkpt lat="46.75843" lon="4.80134">
        <ele>188.620536</ele>
        <time>2011-02-20T13:06:55Z</time>
      </trkpt>
      <trkpt lat="46.75844" lon="4.80119">
        <ele>188.370044</ele>
        <time>2011-02-20T13:06:57Z</time>
      </trkpt>
      <trkpt lat="46.75845" lon="4.801">
        <ele>187.687054</ele>
        <time>2011-02-20T13:07:00Z</time>
      </trkpt>
      <trkpt lat="46.75846" lon="4.80082">
        <ele>186.921345</ele>
        <time>2011-02-20T13:07:03Z</time>
      </trkpt>
      <trkpt lat="46.75848" lon="4.80065">
        <ele>186.445363</ele>
        <time>2011-02-20T13:07:06Z</time>
      </trkpt>
      <trkpt lat="46.75849" lon="4.80046">
        <ele>186.183899</ele>
        <time>2011-02-20T13:07:09Z</time>
      </trkpt>
      <trkpt lat="46.75851" lon="4.80027">
        <ele>185.977988</ele>
        <time>2011-02-20T13:07:12Z</time>
      </trkpt>
      <trkpt lat="46.75852" lon="4.80008">
        <ele>185.78929</ele>
        <time>2011-02-20T13:07:15Z</time>
      </trkpt>
      <trkpt lat="46.75852" lon="4.79994">
        <ele>185.592041</ele>
        <time>2011-02-20T13:07:17Z</time>
      </trkpt>
      <trkpt lat="46.75852" lon="4.79973">
        <ele>185.321405</ele>
        <time>2011-02-20T13:07:20Z</time>
      </trkpt>
      <trkpt lat="46.75853" lon="4.79949">
        <ele>184.904083</ele>
        <time>2011-02-20T13:07:23Z</time>
      </trkpt>
      <trkpt lat="46.75853" lon="4.79934">
        <ele>184.153793</ele>
        <time>2011-02-20T13:07:25Z</time>
      </trkpt>
      <trkpt lat="46.75855" lon="4.79913">
        <ele>182.86901</ele>
        <time>2011-02-20T13:07:28Z</time>
      </trkpt>
      <trkpt lat="46.75857" lon="4.79892">
        <ele>181.292745</ele>
        <time>2011-02-20T13:07:31Z</time>
      </trkpt>
      <trkpt lat="46.75858" lon="4.79871">
        <ele>180.029054</ele>
        <time>2011-02-20T13:07:34Z</time>
      </trkpt>
      <trkpt lat="46.75859" lon="4.79858">
        <ele>179.400814</ele>
        <time>2011-02-20T13:07:36Z</time>
      </trkpt>
      <trkpt lat="46.7586" lon="4.79837">
        <ele>179.211429</ele>
        <time>2011-02-20T13:07:39Z</time>
      </trkpt>
      <trkpt lat="46.75861" lon="4.79816">
        <ele>179.103469</ele>
        <time>2011-02-20T13:07:42Z</time>
      </trkpt>
      <trkpt lat="46.75862" lon="4.79802">
        <ele>178.914683</ele>
        <time>2011-02-20T13:07:44Z</time>
      </trkpt>
      <trkpt lat="46.75864" lon="4.79782">
        <ele>178.472103</ele>
        <time>2011-02-20T13:07:47Z</time>
      </trkpt>
      <trkpt lat="46.75865" lon="4.79769">
        <ele>177.611954</ele>
        <time>2011-02-20T13:07:49Z</time>
      </trkpt>
      <trkpt lat="46.75867" lon="4.79748">
        <ele>176.584031</ele>
        <time>2011-02-20T13:07:52Z</time>
      </trkpt>
      <trkpt lat="46.75868" lon="4.79735">
        <ele>175.723999</ele>
        <time>2011-02-20T13:07:54Z</time>
      </trkpt>
      <trkpt lat="46.75869" lon="4.79716">
        <ele>175.023922</ele>
        <time>2011-02-20T13:07:57Z</time>
      </trkpt>
      <trkpt lat="46.75871" lon="4.79697">
        <ele>174.388389</ele>
        <time>2011-02-20T13:08:00Z</time>
      </trkpt>
      <trkpt lat="46.75873" lon="4.79683">
        <ele>173.853934</ele>
        <time>2011-02-20T13:08:02Z</time>
      </trkpt>
      <trkpt lat="46.75876" lon="4.79662">
        <ele>173.533898</ele>
        <time>2011-02-20T13:08:05Z</time>
      </trkpt>
      <trkpt lat="46.75877" lon="4.79647">
        <ele>173.44552</ele>
        <time>2011-02-20T13:08:07Z</time>
      </trkpt>
      <trkpt lat="46.7588" lon="4.79628">
        <ele>173.604304</ele>
        <time>2011-02-20T13:08:10Z</time>
      </trkpt>
      <trkpt lat="46.75882" lon="4.79609">
        <ele>174.174934</ele>
        <time>2011-02-20T13:08:13Z</time>
      </trkpt>
      <trkpt lat="46.75884" lon="4.79588">
        <ele>175.171396</ele>
        <time>2011-02-20T13:08:16Z</time>
      </trkpt>
      <trkpt lat="46.75886" lon="4.79568">
        <ele>176.230618</ele>
        <time>2011-02-20T13:08:19Z</time>
      </trkpt>
      <trkpt lat="46.75888" lon="4.79547">
        <ele>176.934919</ele>
        <time>2011-02-20T13:08:22Z</time>
      </trkpt>
      <trkpt lat="46.75888" lon="4.79533">
        <ele>177.197155</ele>
        <time>2011-02-20T13:08:24Z</time>
      </trkpt>
      <trkpt lat="46.75889" lon="4.7952">
        <ele>177.202476</ele>
        <time>2011-02-20T13:08:26Z</time>
      </trkpt>
      <trkpt lat="46.7589" lon="4.79506">
        <ele>177.139537</ele>
        <time>2011-02-20T13:08:28Z</time>
      </trkpt>
      <trkpt lat="46.75891" lon="4.79485">
        <ele>177.116515</ele>
        <time>2011-02-20T13:08:31Z</time>
      </trkpt>
      <trkpt lat="46.75892" lon="4.79472">
        <ele>177.148178</ele>
        <time>2011-02-20T13:08:33Z</time>
      </trkpt>
      <trkpt lat="46.75893" lon="4.79453">
        <ele>177.212993</ele>
        <time>2011-02-20T13:08:36Z</time>
      </trkpt>
      <trkpt lat="46.75894" lon="4.79434">
        <ele>177.437313</ele>
        <time>2011-02-20T13:08:39Z</time>
      </trkpt>
      <trkpt lat="46.75895" lon="4.79412">
        <ele>177.879124</ele>
        <time>2011-02-20T13:08:42Z</time>
      </trkpt>
      <trkpt lat="46.75897" lon="4.79391">
        <ele>178.294521</ele>
        <time>2011-02-20T13:08:45Z</time>
      </trkpt>
      <trkpt lat="46.75899" lon="4.7937">
        <ele>178.481004</ele>
        <time>2011-02-20T13:08:48Z</time>
      </trkpt>
      <trkpt lat="46.759" lon="4.7935">
        <ele>178.314708</ele>
        <time>2011-02-20T13:08:51Z</time>
      </trkpt>
      <trkpt lat="46.75902" lon="4.79329">
        <ele>177.74373</ele>
        <time>2011-02-20T13:08:54Z</time>
      </trkpt>
      <trkpt lat="46.75902" lon="4.79305">
        <ele>177.07695</ele>
        <time>2011-02-20T13:08:57Z</time>
      </trkpt>
      <trkpt lat="46.75904" lon="4.79286">
        <ele>176.666703</ele>
        <time>2011-02-20T13:08:59Z</time>
      </trkpt>
      <trkpt lat="46.75905" lon="4.79261">
        <ele>176.533435</ele>
        <time>2011-02-20T13:09:02Z</time>
      </trkpt>
      <trkpt lat="46.75906" lon="4.79239">
        <ele>176.566124</ele>
        <time>2011-02-20T13:09:05Z</time>
      </trkpt>
      <trkpt lat="46.75906" lon="4.79224">
        <ele>176.701283</ele>
        <time>2011-02-20T13:09:07Z</time>
      </trkpt>
      <trkpt lat="46.75907" lon="4.7921">
        <ele>176.992123</ele>
        <time>2011-02-20T13:09:09Z</time>
      </trkpt>
      <trkpt lat="46.75908" lon="4.79188">
        <ele>177.538281</ele>
        <time>2011-02-20T13:09:12Z</time>
      </trkpt>
      <trkpt lat="46.75909" lon="4.79171">
        <ele>178.289609</ele>
        <time>2011-02-20T13:09:14Z</time>
      </trkpt>
      <trkpt lat="46.75908" lon="4.79149">
        <ele>179.040591</ele>
        <time>2011-02-20T13:09:17Z</time>
      </trkpt>
      <trkpt lat="46.75908" lon="4.79134">
        <ele>179.761087</ele>
        <time>2011-02-20T13:09:19Z</time>
      </trkpt>
      <trkpt lat="46.75908" lon="4.7912">
        <ele>180.595935</ele>
        <time>2011-02-20T13:09:21Z</time>
      </trkpt>
      <trkpt lat="46.75909" lon="4.79106">
        <ele>181.593378</ele>
        <time>2011-02-20T13:09:23Z</time>
      </trkpt>
      <trkpt lat="46.75911" lon="4.79084">
        <ele>182.547202</ele>
        <time>2011-02-20T13:09:26Z</time>
      </trkpt>
      <trkpt lat="46.75915" lon="4.79063">
        <ele>183.162796</ele>
        <time>2011-02-20T13:09:29Z</time>
      </trkpt>
      <trkpt lat="46.75918" lon="4.79042">
        <ele>183.38378</ele>
        <time>2011-02-20T13:09:32Z</time>
      </trkpt>
      <trkpt lat="46.7592" lon="4.79027">
        <ele>183.410472</ele>
        <time>2011-02-20T13:09:34Z</time>
      </trkpt>
      <trkpt lat="46.75922" lon="4.79013">
        <ele>183.414862</ele>
        <time>2011-02-20T13:09:36Z</time>
      </trkpt>
      <trkpt lat="46.75925" lon="4.78992">
        <ele>183.512771</ele>
        <time>2011-02-20T13:09:39Z</time>
      </trkpt>
      <trkpt lat="46.75928" lon="4.78968">
        <ele>183.7791</ele>
        <time>2011-02-20T13:09:42Z</time>
      </trkpt>
      <trkpt lat="46.75929" lon="4.78951">
        <ele>184.157358</ele>
        <time>2011-02-20T13:09:44Z</time>
      </trkpt>
      <trkpt lat="46.7593" lon="4.78936">
        <ele>184.472184</ele>
        <time>2011-02-20T13:09:46Z</time>
      </trkpt>
      <trkpt lat="46.75932" lon="4.78913">
        <ele>184.642878</ele>
        <time>2011-02-20T13:09:49Z</time>
      </trkpt>
      <trkpt lat="46.75933" lon="4.78896">
        <ele>184.779428</ele>
        <time>2011-02-20T13:09:51Z</time>
      </trkpt>
      <trkpt lat="46.75934" lon="4.78872">
        <ele>185.008206</ele>
        <time>2011-02-20T13:09:54Z</time>
      </trkpt>
      <trkpt lat="46.75936" lon="4.78848">
        <ele>185.461646</ele>
        <time>2011-02-20T13:09:57Z</time>
      </trkpt>
      <trkpt lat="46.75937" lon="4.78833">
        <ele>186.303636</ele>
        <time>2011-02-20T13:09:59Z</time>
      </trkpt>
      <trkpt lat="46.75937" lon="4.78818">
        <ele>187.565574</ele>
        <time>2011-02-20T13:10:01Z</time>
      </trkpt>
      <trkpt lat="46.75939" lon="4.78799">
        <ele>189.023804</ele>
        <time>2011-02-20T13:10:04Z</time>
      </trkpt>
      <trkpt lat="46.75943" lon="4.78781">
        <ele>190.248334</ele>
        <time>2011-02-20T13:10:07Z</time>
      </trkpt>
      <trkpt lat="46.75949" lon="4.78766">
        <ele>190.895459</ele>
        <time>2011-02-20T13:10:10Z</time>
      </trkpt>
      <trkpt lat="46.75951" lon="4.7875">
        <ele>191.033179</ele>
        <time>2011-02-20T13:10:13Z</time>
      </trkpt>
      <trkpt lat="46.75952" lon="4.78732">
        <ele>190.90703</ele>
        <time>2011-02-20T13:10:16Z</time>
      </trkpt>
      <trkpt lat="46.75953" lon="4.78714">
        <ele>190.630641</ele>
        <time>2011-02-20T13:10:19Z</time>
      </trkpt>
      <trkpt lat="46.75955" lon="4.787">
        <ele>190.239013</ele>
        <time>2011-02-20T13:10:22Z</time>
      </trkpt>
      <trkpt lat="46.75959" lon="4.78688">
        <ele>189.789821</ele>
        <time>2011-02-20T13:10:25Z</time>
      </trkpt>
      <trkpt lat="46.75964" lon="4.78673">
        <ele>189.358534</ele>
        <time>2011-02-20T13:10:29Z</time>
      </trkpt>
      <trkpt lat="46.75969" lon="4.78661">
        <ele>188.998174</ele>
        <time>2011-02-20T13:10:32Z</time>
      </trkpt>
      <trkpt lat="46.75974" lon="4.78644">
        <ele>188.696907</ele>
        <time>2011-02-20T13:10:35Z</time>
      </trkpt>
      <trkpt lat="46.75981" lon="4.78624">
        <ele>188.378403</ele>
        <time>2011-02-20T13:10:38Z</time>
      </trkpt>
      <trkpt lat="46.75988" lon="4.78604">
        <ele>187.999333</ele>
        <time>2011-02-20T13:10:41Z</time>
      </trkpt>
      <trkpt lat="46.75992" lon="4.78592">
        <ele>187.61844</ele>
        <time>2011-02-20T13:10:43Z</time>
      </trkpt>
      <trkpt lat="46.75997" lon="4.7858">
        <ele>187.334586</ele>
        <time>2011-02-20T13:10:45Z</time>
      </trkpt>
      <trkpt lat="46.76003" lon="4.7856">
        <ele>187.193035</ele>
        <time>2011-02-20T13:10:48Z</time>
      </trkpt>
      <trkpt lat="46.76009" lon="4.78538">
        <ele>187.161999</ele>
        <time>2011-02-20T13:10:51Z</time>
      </trkpt>
      <trkpt lat="46.76016" lon="4.78522">
        <ele>187.17677</ele>
        <time>2011-02-20T13:10:54Z</time>
      </trkpt>
      <trkpt lat="46.76023" lon="4.78509">
        <ele>187.196708</ele>
        <time>2011-02-20T13:10:57Z</time>
      </trkpt>
      <trkpt lat="46.76031" lon="4.78494">
        <ele>187.207491</ele>
        <time>2011-02-20T13:11:00Z</time>
      </trkpt>
      <trkpt lat="46.76039" lon="4.7848">
        <ele>187.20992</ele>
        <time>2011-02-20T13:11:03Z</time>
      </trkpt>
      <trkpt lat="46.76047" lon="4.78467">
        <ele>187.208673</ele>
        <time>2011-02-20T13:11:06Z</time>
      </trkpt>
      <trkpt lat="46.76053" lon="4.78457">
        <ele>187.220163</ele>
        <time>2011-02-20T13:11:08Z</time>
      </trkpt>
      <trkpt lat="46.76061" lon="4.78444">
        <ele>187.271566</ele>
        <time>2011-02-20T13:11:11Z</time>
      </trkpt>
      <trkpt lat="46.7607" lon="4.78431">
        <ele>187.387256</ele>
        <time>2011-02-20T13:11:14Z</time>
      </trkpt>
      <trkpt lat="46.76076" lon="4.78421">
        <ele>187.562873</ele>
        <time>2011-02-20T13:11:16Z</time>
      </trkpt>
      <trkpt lat="46.76085" lon="4.78405">
        <ele>187.784901</ele>
        <time>2011-02-20T13:11:19Z</time>
      </trkpt>
      <trkpt lat="46.76091" lon="4.78396">
        <ele>188.056818</ele>
        <time>2011-02-20T13:11:21Z</time>
      </trkpt>
      <trkpt lat="46.76101" lon="4.78381">
        <ele>188.342697</ele>
        <time>2011-02-20T13:11:24Z</time>
      </trkpt>
      <trkpt lat="46.7611" lon="4.78368">
        <ele>188.564705</ele>
        <time>2011-02-20T13:11:27Z</time>
      </trkpt>
      <trkpt lat="46.76121" lon="4.78357">
        <ele>188.693356</ele>
        <time>2011-02-20T13:11:30Z</time>
      </trkpt>
      <trkpt lat="46.76133" lon="4.78344">
        <ele>188.748892</ele>
        <time>2011-02-20T13:11:33Z</time>
      </trkpt>
      <trkpt lat="46.76141" lon="4.78336">
        <ele>188.780508</ele>
        <time>2011-02-20T13:11:35Z</time>
      </trkpt>
      <trkpt lat="46.76151" lon="4.78321">
        <ele>188.884827</ele>
        <time>2011-02-20T13:11:38Z</time>
      </trkpt>
      <trkpt lat="46.76161" lon="4.78303">
        <ele>189.132154</ele>
        <time>2011-02-20T13:11:41Z</time>
      </trkpt>
      <trkpt lat="46.76172" lon="4.78288">
        <ele>189.462043</ele>
        <time>2011-02-20T13:11:44Z</time>
      </trkpt>
      <trkpt lat="46.76183" lon="4.78272">
        <ele>189.730586</ele>
        <time>2011-02-20T13:11:47Z</time>
      </trkpt>
      <trkpt lat="46.76191" lon="4.78261">
        <ele>189.85975</ele>
        <time>2011-02-20T13:11:49Z</time>
      </trkpt>
      <trkpt lat="46.76197" lon="4.78252">
        <ele>189.880363</ele>
        <time>2011-02-20T13:11:51Z</time>
      </trkpt>
      <trkpt lat="46.76207" lon="4.7824">
        <ele>189.828977</ele>
        <time>2011-02-20T13:11:54Z</time>
      </trkpt>
      <trkpt lat="46.76216" lon="4.78229">
        <ele>189.706374</ele>
        <time>2011-02-20T13:11:57Z</time>
      </trkpt>
      <trkpt lat="46.76223" lon="4.78214">
        <ele>189.540261</ele>
        <time>2011-02-20T13:12:00Z</time>
      </trkpt>
      <trkpt lat="46.76231" lon="4.78202">
        <ele>189.364372</ele>
        <time>2011-02-20T13:12:03Z</time>
      </trkpt>
      <trkpt lat="46.7624" lon="4.78188">
        <ele>189.183445</ele>
        <time>2011-02-20T13:12:06Z</time>
      </trkpt>
      <trkpt lat="46.76251" lon="4.78168">
        <ele>189.023085</ele>
        <time>2011-02-20T13:12:09Z</time>
      </trkpt>
      <trkpt lat="46.76258" lon="4.78158">
        <ele>188.922705</ele>
        <time>2011-02-20T13:12:11Z</time>
      </trkpt>
      <trkpt lat="46.76268" lon="4.78146">
        <ele>188.881097</ele>
        <time>2011-02-20T13:12:14Z</time>
      </trkpt>
      <trkpt lat="46.76276" lon="4.78139">
        <ele>188.869088</ele>
        <time>2011-02-20T13:12:16Z</time>
      </trkpt>
      <trkpt lat="46.76284" lon="4.78131">
        <ele>188.867249</ele>
        <time>2011-02-20T13:12:18Z</time>
      </trkpt>
      <trkpt lat="46.76297" lon="4.78117">
        <ele>188.869115</ele>
        <time>2011-02-20T13:12:21Z</time>
      </trkpt>
      <trkpt lat="46.76306" lon="4.78104">
        <ele>188.866113</ele>
        <time>2011-02-20T13:12:23Z</time>
      </trkpt>
      <trkpt lat="46.76315" lon="4.78093">
        <ele>188.854612</ele>
        <time>2011-02-20T13:12:25Z</time>
      </trkpt>
      <trkpt lat="46.76321" lon="4.78083">
        <ele>188.84221</ele>
        <time>2011-02-20T13:12:27Z</time>
      </trkpt>
      <trkpt lat="46.76331" lon="4.7807">
        <ele>188.819537</ele>
        <time>2011-02-20T13:12:30Z</time>
      </trkpt>
      <trkpt lat="46.76341" lon="4.78057">
        <ele>188.761343</ele>
        <time>2011-02-20T13:12:33Z</time>
      </trkpt>
      <trkpt lat="46.76349" lon="4.78047">
        <ele>188.672477</ele>
        <time>2011-02-20T13:12:35Z</time>
      </trkpt>
      <trkpt lat="46.76359" lon="4.78035">
        <ele>188.578933</ele>
        <time>2011-02-20T13:12:37Z</time>
      </trkpt>
      <trkpt lat="46.76368" lon="4.78023">
        <ele>188.485709</ele>
        <time>2011-02-20T13:12:39Z</time>
      </trkpt>
      <trkpt lat="46.76379" lon="4.78007">
        <ele>188.384945</ele>
        <time>2011-02-20T13:12:42Z</time>
      </trkpt>
      <trkpt lat="46.7639" lon="4.77991">
        <ele>188.287893</ele>
        <time>2011-02-20T13:12:45Z</time>
      </trkpt>
      <trkpt lat="46.76398" lon="4.77978">
        <ele>188.213684</ele>
        <time>2011-02-20T13:12:47Z</time>
      </trkpt>
      <trkpt lat="46.76408" lon="4.77959">
        <ele>188.145638</ele>
        <time>2011-02-20T13:12:50Z</time>
      </trkpt>
      <trkpt lat="46.7641" lon="4.77936">
        <ele>188.030419</ele>
        <time>2011-02-20T13:12:53Z</time>
      </trkpt>
      <trkpt lat="46.76406" lon="4.7792">
        <ele>187.832819</ele>
        <time>2011-02-20T13:12:55Z</time>
      </trkpt>
      <trkpt lat="46.76398" lon="4.77898">
        <ele>187.547195</ele>
        <time>2011-02-20T13:12:58Z</time>
      </trkpt>
      <trkpt lat="46.76393" lon="4.77887">
        <ele>187.186618</ele>
        <time>2011-02-20T13:13:00Z</time>
      </trkpt>
      <trkpt lat="46.76388" lon="4.77875">
        <ele>186.806955</ele>
        <time>2011-02-20T13:13:02Z</time>
      </trkpt>
      <trkpt lat="46.76382" lon="4.77862">
        <ele>186.447544</ele>
        <time>2011-02-20T13:13:05Z</time>
      </trkpt>
      <trkpt lat="46.76375" lon="4.7785">
        <ele>186.097149</ele>
        <time>2011-02-20T13:13:08Z</time>
      </trkpt>
      <trkpt lat="46.76369" lon="4.7784">
        <ele>185.774491</ele>
        <time>2011-02-20T13:13:11Z</time>
      </trkpt>
      <trkpt lat="46.76361" lon="4.77826">
        <ele>185.505824</ele>
        <time>2011-02-20T13:13:15Z</time>
      </trkpt>
      <trkpt lat="46.76354" lon="4.77812">
        <ele>185.262839</ele>
        <time>2011-02-20T13:13:18Z</time>
      </trkpt>
      <trkpt lat="46.7635" lon="4.77799">
        <ele>184.998822</ele>
        <time>2011-02-20T13:13:20Z</time>
      </trkpt>
      <trkpt lat="46.7635" lon="4.77799">
        <ele>184.735736</ele>
        <time>2011-02-20T13:13:24Z</time>
      </trkpt>
      <trkpt lat="46.76335" lon="4.77759">
        <ele>184.560761</ele>
        <time>2011-02-20T13:13:28Z</time>
      </trkpt>
      <trkpt lat="46.76335" lon="4.77759">
        <ele>184.476523</ele>
        <time>2011-02-20T13:13:32Z</time>
      </trkpt>
      <trkpt lat="46.76323" lon="4.77712">
        <ele>184.41186</ele>
        <time>2011-02-20T13:13:40Z</time>
      </trkpt>
      <trkpt lat="46.7632" lon="4.77696">
        <ele>184.420145</ele>
        <time>2011-02-20T13:13:44Z</time>
      </trkpt>
      <trkpt lat="46.76318" lon="4.7768">
        <ele>184.595302</ele>
        <time>2011-02-20T13:13:47Z</time>
      </trkpt>
      <trkpt lat="46.76316" lon="4.77659">
        <ele>185.047802</ele>
        <time>2011-02-20T13:13:50Z</time>
      </trkpt>
      <trkpt lat="46.76313" lon="4.77641">
        <ele>185.781054</ele>
        <time>2011-02-20T13:13:52Z</time>
      </trkpt>
      <trkpt lat="46.76309" lon="4.77615">
        <ele>186.539986</ele>
        <time>2011-02-20T13:13:55Z</time>
      </trkpt>
      <trkpt lat="46.76304" lon="4.77592">
        <ele>187.099774</ele>
        <time>2011-02-20T13:13:58Z</time>
      </trkpt>
      <trkpt lat="46.76301" lon="4.77579">
        <ele>187.487018</ele>
        <time>2011-02-20T13:14:00Z</time>
      </trkpt>
      <trkpt lat="46.76295" lon="4.7756">
        <ele>187.796972</ele>
        <time>2011-02-20T13:14:03Z</time>
      </trkpt>
      <trkpt lat="46.76291" lon="4.77542">
        <ele>188.11927</ele>
        <time>2011-02-20T13:14:06Z</time>
      </trkpt>
      <trkpt lat="46.76287" lon="4.77525">
        <ele>188.455896</ele>
        <time>2011-02-20T13:14:09Z</time>
      </trkpt>
      <trkpt lat="46.76282" lon="4.77511">
        <ele>188.747904</ele>
        <time>2011-02-20T13:14:12Z</time>
      </trkpt>
      <trkpt lat="46.76276" lon="4.77498">
        <ele>188.952317</ele>
        <time>2011-02-20T13:14:15Z</time>
      </trkpt>
      <trkpt lat="46.76272" lon="4.77486">
        <ele>189.051596</ele>
        <time>2011-02-20T13:14:18Z</time>
      </trkpt>
      <trkpt lat="46.76269" lon="4.7747">
        <ele>189.068009</ele>
        <time>2011-02-20T13:14:22Z</time>
      </trkpt>
      <trkpt lat="46.76267" lon="4.77455">
        <ele>189.037858</ele>
        <time>2011-02-20T13:14:26Z</time>
      </trkpt>
      <trkpt lat="46.7626" lon="4.77446">
        <ele>188.962715</ele>
        <time>2011-02-20T13:14:32Z</time>
      </trkpt>
      <trkpt lat="46.7626" lon="4.77446">
        <ele>188.857201</ele>
        <time>2011-02-20T13:14:35Z</time>
      </trkpt>
      <trkpt lat="46.76249" lon="4.77403">
        <ele>188.771104</ele>
        <time>2011-02-20T13:15:10Z</time>
      </trkpt>
      <trkpt lat="46.76246" lon="4.7739">
        <ele>188.732815</ele>
        <time>2011-02-20T13:15:16Z</time>
      </trkpt>
      <trkpt lat="46.76242" lon="4.77377">
        <ele>188.728554</ele>
        <time>2011-02-20T13:15:21Z</time>
      </trkpt>
      <trkpt lat="46.76239" lon="4.77364">
        <ele>189.096274</ele>
        <time>2011-02-20T13:15:26Z</time>
      </trkpt>
      <trkpt lat="46.76236" lon="4.77351">
        <ele>190.203334</ele>
        <time>2011-02-20T13:15:31Z</time>
      </trkpt>
      <trkpt lat="46.76233" lon="4.77337">
        <ele>191.694886</ele>
        <time>2011-02-20T13:15:36Z</time>
      </trkpt>
      <trkpt lat="46.76231" lon="4.77324">
        <ele>192.938354</ele>
        <time>2011-02-20T13:15:41Z</time>
      </trkpt>
      <trkpt lat="46.76228" lon="4.77309">
        <ele>193.770424</ele>
        <time>2011-02-20T13:15:46Z</time>
      </trkpt>
      <trkpt lat="46.76226" lon="4.77295">
        <ele>194.279986</ele>
        <time>2011-02-20T13:15:52Z</time>
      </trkpt>
      <trkpt lat="46.76222" lon="4.77281">
        <ele>194.582657</ele>
        <time>2011-02-20T13:15:57Z</time>
      </trkpt>
      <trkpt lat="46.76218" lon="4.77267">
        <ele>194.768609</ele>
        <time>2011-02-20T13:16:03Z</time>
      </trkpt>
      <trkpt lat="46.76215" lon="4.77255">
        <ele>194.911615</ele>
        <time>2011-02-20T13:16:08Z</time>
      </trkpt>
      <trkpt lat="46.76212" lon="4.7724">
        <ele>195.049989</ele>
        <time>2011-02-20T13:16:13Z</time>
      </trkpt>
      <trkpt lat="46.76208" lon="4.77226">
        <ele>195.195957</ele>
        <time>2011-02-20T13:16:18Z</time>
      </trkpt>
      <trkpt lat="46.76205" lon="4.77213">
        <ele>195.343665</ele>
        <time>2011-02-20T13:16:22Z</time>
      </trkpt>
      <trkpt lat="46.76201" lon="4.772">
        <ele>195.45751</ele>
        <time>2011-02-20T13:16:26Z</time>
      </trkpt>
      <trkpt lat="46.76199" lon="4.77187">
        <ele>195.508805</ele>
        <time>2011-02-20T13:16:30Z</time>
      </trkpt>
      <trkpt lat="46.76195" lon="4.77172">
        <ele>195.514941</ele>
        <time>2011-02-20T13:16:34Z</time>
      </trkpt>
      <trkpt lat="46.76191" lon="4.77158">
        <ele>195.499472</ele>
        <time>2011-02-20T13:16:38Z</time>
      </trkpt>
      <trkpt lat="46.76188" lon="4.77144">
        <ele>195.47492</ele>
        <time>2011-02-20T13:16:42Z</time>
      </trkpt>
      <trkpt lat="46.76185" lon="4.77131">
        <ele>195.446424</ele>
        <time>2011-02-20T13:16:46Z</time>
      </trkpt>
      <trkpt lat="46.76182" lon="4.77118">
        <ele>195.417345</ele>
        <time>2011-02-20T13:16:50Z</time>
      </trkpt>
      <trkpt lat="46.76178" lon="4.77103">
        <ele>195.386423</ele>
        <time>2011-02-20T13:16:55Z</time>
      </trkpt>
      <trkpt lat="46.76175" lon="4.7709">
        <ele>195.330887</ele>
        <time>2011-02-20T13:17:01Z</time>
      </trkpt>
      <trkpt lat="46.76173" lon="4.77077">
        <ele>195.196709</ele>
        <time>2011-02-20T13:17:07Z</time>
      </trkpt>
      <trkpt lat="46.7617" lon="4.77062">
        <ele>194.929849</ele>
        <time>2011-02-20T13:17:13Z</time>
      </trkpt>
      <trkpt lat="46.76166" lon="4.77048">
        <ele>194.552709</ele>
        <time>2011-02-20T13:17:18Z</time>
      </trkpt>
      <trkpt lat="46.76163" lon="4.77035">
        <ele>194.202584</ele>
        <time>2011-02-20T13:17:22Z</time>
      </trkpt>
      <trkpt lat="46.76158" lon="4.77023">
        <ele>194.006197</ele>
        <time>2011-02-20T13:17:26Z</time>
      </trkpt>
      <trkpt lat="46.76155" lon="4.77009">
        <ele>193.958279</ele>
        <time>2011-02-20T13:17:31Z</time>
      </trkpt>
      <trkpt lat="46.76152" lon="4.76996">
        <ele>193.99551</ele>
        <time>2011-02-20T13:17:35Z</time>
      </trkpt>
      <trkpt lat="46.76149" lon="4.76983">
        <ele>194.085469</ele>
        <time>2011-02-20T13:17:39Z</time>
      </trkpt>
      <trkpt lat="46.76146" lon="4.76969">
        <ele>194.208101</ele>
        <time>2011-02-20T13:17:44Z</time>
      </trkpt>
      <trkpt lat="46.76143" lon="4.76955">
        <ele>194.349997</ele>
        <time>2011-02-20T13:17:50Z</time>
      </trkpt>
      <trkpt lat="46.7614" lon="4.76941">
        <ele>194.522652</ele>
        <time>2011-02-20T13:17:56Z</time>
      </trkpt>
      <trkpt lat="46.76137" lon="4.76927">
        <ele>194.742014</ele>
        <time>2011-02-20T13:18:02Z</time>
      </trkpt>
      <trkpt lat="46.76134" lon="4.76913">
        <ele>194.999583</ele>
        <time>2011-02-20T13:18:07Z</time>
      </trkpt>
      <trkpt lat="46.7613" lon="4.76898">
        <ele>195.270724</ele>
        <time>2011-02-20T13:18:12Z</time>
      </trkpt>
      <trkpt lat="46.76126" lon="4.76883">
        <ele>195.53048</ele>
        <time>2011-02-20T13:18:17Z</time>
      </trkpt>
      <trkpt lat="46.76123" lon="4.76869">
        <ele>195.773945</ele>
        <time>2011-02-20T13:18:22Z</time>
      </trkpt>
      <trkpt lat="46.76121" lon="4.76856">
        <ele>196.031366</ele>
        <time>2011-02-20T13:18:26Z</time>
      </trkpt>
      <trkpt lat="46.76119" lon="4.76841">
        <ele>196.345466</ele>
        <time>2011-02-20T13:18:30Z</time>
      </trkpt>
      <trkpt lat="46.76116" lon="4.76827">
        <ele>196.73183</ele>
        <time>2011-02-20T13:18:34Z</time>
      </trkpt>
      <trkpt lat="46.76112" lon="4.76813">
        <ele>197.151946</ele>
        <time>2011-02-20T13:18:38Z</time>
      </trkpt>
      <trkpt lat="46.76108" lon="4.76798">
        <ele>197.498536</ele>
        <time>2011-02-20T13:18:43Z</time>
      </trkpt>
      <trkpt lat="46.76104" lon="4.76783">
        <ele>197.684646</ele>
        <time>2011-02-20T13:18:48Z</time>
      </trkpt>
      <trkpt lat="46.761" lon="4.76769">
        <ele>197.754691</ele>
        <time>2011-02-20T13:18:52Z</time>
      </trkpt>
      <trkpt lat="46.76096" lon="4.76757">
        <ele>197.803228</ele>
        <time>2011-02-20T13:18:56Z</time>
      </trkpt>
      <trkpt lat="46.76092" lon="4.76742">
        <ele>197.847766</ele>
        <time>2011-02-20T13:19:01Z</time>
      </trkpt>
      <trkpt lat="46.76088" lon="4.76728">
        <ele>197.922647</ele>
        <time>2011-02-20T13:19:06Z</time>
      </trkpt>
      <trkpt lat="46.76084" lon="4.76714">
        <ele>198.121574</ele>
        <time>2011-02-20T13:19:11Z</time>
      </trkpt>
      <trkpt lat="46.76081" lon="4.76699">
        <ele>198.474854</ele>
        <time>2011-02-20T13:19:17Z</time>
      </trkpt>
      <trkpt lat="46.76085" lon="4.76686">
        <ele>198.923222</ele>
        <time>2011-02-20T13:19:22Z</time>
      </trkpt>
      <trkpt lat="46.76091" lon="4.76674">
        <ele>199.336815</ele>
        <time>2011-02-20T13:19:27Z</time>
      </trkpt>
      <trkpt lat="46.76099" lon="4.76665">
        <ele>199.580161</ele>
        <time>2011-02-20T13:19:32Z</time>
      </trkpt>
      <trkpt lat="46.76108" lon="4.76657">
        <ele>199.645308</ele>
        <time>2011-02-20T13:19:37Z</time>
      </trkpt>
      <trkpt lat="46.76116" lon="4.7665">
        <ele>199.597635</ele>
        <time>2011-02-20T13:19:41Z</time>
      </trkpt>
      <trkpt lat="46.76123" lon="4.76642">
        <ele>199.446686</ele>
        <time>2011-02-20T13:19:45Z</time>
      </trkpt>
      <trkpt lat="46.76131" lon="4.76631">
        <ele>199.175326</ele>
        <time>2011-02-20T13:19:50Z</time>
      </trkpt>
      <trkpt lat="46.7614" lon="4.76625">
        <ele>198.816201</ele>
        <time>2011-02-20T13:19:55Z</time>
      </trkpt>
      <trkpt lat="46.76147" lon="4.76616">
        <ele>198.485168</ele>
        <time>2011-02-20T13:19:59Z</time>
      </trkpt>
      <trkpt lat="46.76156" lon="4.76606">
        <ele>198.295782</ele>
        <time>2011-02-20T13:20:04Z</time>
      </trkpt>
      <trkpt lat="46.76165" lon="4.76598">
        <ele>198.24769</ele>
        <time>2011-02-20T13:20:09Z</time>
      </trkpt>
      <trkpt lat="46.76174" lon="4.76589">
        <ele>198.27303</ele>
        <time>2011-02-20T13:20:14Z</time>
      </trkpt>
      <trkpt lat="46.76183" lon="4.76582">
        <ele>198.342766</ele>
        <time>2011-02-20T13:20:19Z</time>
      </trkpt>
      <trkpt lat="46.76193" lon="4.76577">
        <ele>198.450673</ele>
        <time>2011-02-20T13:20:24Z</time>
      </trkpt>
      <trkpt lat="46.76201" lon="4.7657">
        <ele>198.559523</ele>
        <time>2011-02-20T13:20:29Z</time>
      </trkpt>
      <trkpt lat="46.76208" lon="4.76558">
        <ele>198.63205</ele>
        <time>2011-02-20T13:20:34Z</time>
      </trkpt>
      <trkpt lat="46.76213" lon="4.76548">
        <ele>198.678887</ele>
        <time>2011-02-20T13:20:39Z</time>
      </trkpt>
      <trkpt lat="46.76221" lon="4.76538">
        <ele>198.771449</ele>
        <time>2011-02-20T13:20:47Z</time>
      </trkpt>
      <trkpt lat="46.76229" lon="4.76533">
        <ele>198.993348</ele>
        <time>2011-02-20T13:20:54Z</time>
      </trkpt>
      <trkpt lat="46.76238" lon="4.76526">
        <ele>199.358009</ele>
        <time>2011-02-20T13:21:01Z</time>
      </trkpt>
      <trkpt lat="46.76247" lon="4.76521">
        <ele>199.873149</ele>
        <time>2011-02-20T13:21:06Z</time>
      </trkpt>
      <trkpt lat="46.76256" lon="4.76513">
        <ele>200.554439</ele>
        <time>2011-02-20T13:21:12Z</time>
      </trkpt>
      <trkpt lat="46.76265" lon="4.76506">
        <ele>201.302212</ele>
        <time>2011-02-20T13:21:18Z</time>
      </trkpt>
      <trkpt lat="46.76274" lon="4.76501">
        <ele>201.904652</ele>
        <time>2011-02-20T13:21:24Z</time>
      </trkpt>
      <trkpt lat="46.76283" lon="4.76492">
        <ele>202.218038</ele>
        <time>2011-02-20T13:21:29Z</time>
      </trkpt>
      <trkpt lat="46.76292" lon="4.76484">
        <ele>202.282045</ele>
        <time>2011-02-20T13:21:34Z</time>
      </trkpt>
      <trkpt lat="46.76301" lon="4.76478">
        <ele>202.201204</ele>
        <time>2011-02-20T13:21:38Z</time>
      </trkpt>
      <trkpt lat="46.7631" lon="4.76472">
        <ele>202.029559</ele>
        <time>2011-02-20T13:21:42Z</time>
      </trkpt>
      <trkpt lat="46.76319" lon="4.76465">
        <ele>201.832968</ele>
        <time>2011-02-20T13:21:46Z</time>
      </trkpt>
      <trkpt lat="46.76328" lon="4.76458">
        <ele>201.655402</ele>
        <time>2011-02-20T13:21:50Z</time>
      </trkpt>
      <trkpt lat="46.76337" lon="4.76452">
        <ele>201.45914</ele>
        <time>2011-02-20T13:21:54Z</time>
      </trkpt>
      <trkpt lat="46.76346" lon="4.76445">
        <ele>201.217796</ele>
        <time>2011-02-20T13:21:58Z</time>
      </trkpt>
      <trkpt lat="46.76356" lon="4.76439">
        <ele>200.985463</ele>
        <time>2011-02-20T13:22:02Z</time>
      </trkpt>
      <trkpt lat="46.76366" lon="4.76432">
        <ele>200.835442</ele>
        <time>2011-02-20T13:22:06Z</time>
      </trkpt>
      <trkpt lat="46.76376" lon="4.76426">
        <ele>200.7802</ele>
        <time>2011-02-20T13:22:10Z</time>
      </trkpt>
      <trkpt lat="46.76385" lon="4.76419">
        <ele>200.781405</ele>
        <time>2011-02-20T13:22:14Z</time>
      </trkpt>
      <trkpt lat="46.76395" lon="4.76413">
        <ele>200.812896</ele>
        <time>2011-02-20T13:22:18Z</time>
      </trkpt>
      <trkpt lat="46.76404" lon="4.76408">
        <ele>200.890373</ele>
        <time>2011-02-20T13:22:22Z</time>
      </trkpt>
      <trkpt lat="46.76413" lon="4.764">
        <ele>201.036264</ele>
        <time>2011-02-20T13:22:26Z</time>
      </trkpt>
      <trkpt lat="46.76421" lon="4.76389">
        <ele>201.210572</ele>
        <time>2011-02-20T13:22:30Z</time>
      </trkpt>
      <trkpt lat="46.76429" lon="4.76381">
        <ele>201.332487</ele>
        <time>2011-02-20T13:22:34Z</time>
      </trkpt>
      <trkpt lat="46.76437" lon="4.76373">
        <ele>201.374498</ele>
        <time>2011-02-20T13:22:38Z</time>
      </trkpt>
      <trkpt lat="46.76445" lon="4.76364">
        <ele>201.361326</ele>
        <time>2011-02-20T13:22:43Z</time>
      </trkpt>
      <trkpt lat="46.76453" lon="4.76355">
        <ele>201.299367</ele>
        <time>2011-02-20T13:22:48Z</time>
      </trkpt>
      <trkpt lat="46.76462" lon="4.76348">
        <ele>201.178582</ele>
        <time>2011-02-20T13:22:53Z</time>
      </trkpt>
      <trkpt lat="46.76471" lon="4.76344">
        <ele>201.031886</ele>
        <time>2011-02-20T13:22:59Z</time>
      </trkpt>
      <trkpt lat="46.76477" lon="4.76328">
        <ele>200.927912</ele>
        <time>2011-02-20T13:23:11Z</time>
      </trkpt>
      <trkpt lat="46.76477" lon="4.76328">
        <ele>200.886831</ele>
        <time>2011-02-20T13:23:21Z</time>
      </trkpt>
      <trkpt lat="46.76468" lon="4.76291">
        <ele>200.876869</ele>
        <time>2011-02-20T13:23:47Z</time>
      </trkpt>
      <trkpt lat="46.76462" lon="4.76278">
        <ele>200.973135</ele>
        <time>2011-02-20T13:23:53Z</time>
      </trkpt>
      <trkpt lat="46.76459" lon="4.76266">
        <ele>201.375603</ele>
        <time>2011-02-20T13:23:59Z</time>
      </trkpt>
      <trkpt lat="46.76455" lon="4.76253">
        <ele>202.126467</ele>
        <time>2011-02-20T13:24:06Z</time>
      </trkpt>
      <trkpt lat="46.76451" lon="4.76238">
        <ele>202.918398</ele>
        <time>2011-02-20T13:24:11Z</time>
      </trkpt>
      <trkpt lat="46.76446" lon="4.76227">
        <ele>203.404666</ele>
        <time>2011-02-20T13:24:16Z</time>
      </trkpt>
      <trkpt lat="46.76442" lon="4.76213">
        <ele>203.544684</ele>
        <time>2011-02-20T13:24:22Z</time>
      </trkpt>
      <trkpt lat="46.76438" lon="4.76202">
        <ele>203.420291</ele>
        <time>2011-02-20T13:24:27Z</time>
      </trkpt>
      <trkpt lat="46.76433" lon="4.76187">
        <ele>203.061774</ele>
        <time>2011-02-20T13:24:32Z</time>
      </trkpt>
      <trkpt lat="46.76429" lon="4.76174">
        <ele>202.588295</ele>
        <time>2011-02-20T13:24:36Z</time>
      </trkpt>
      <trkpt lat="46.76425" lon="4.76162">
        <ele>202.140379</ele>
        <time>2011-02-20T13:24:41Z</time>
      </trkpt>
      <trkpt lat="46.7642" lon="4.76149">
        <ele>201.712331</ele>
        <time>2011-02-20T13:24:46Z</time>
      </trkpt>
      <trkpt lat="46.76414" lon="4.76137">
        <ele>201.244581</ele>
        <time>2011-02-20T13:24:52Z</time>
      </trkpt>
      <trkpt lat="46.7641" lon="4.76123">
        <ele>200.716155</ele>
        <time>2011-02-20T13:24:57Z</time>
      </trkpt>
      <trkpt lat="46.76406" lon="4.76111">
        <ele>200.164548</ele>
        <time>2011-02-20T13:25:02Z</time>
      </trkpt>
      <trkpt lat="46.76399" lon="4.76093">
        <ele>199.694199</ele>
        <time>2011-02-20T13:25:12Z</time>
      </trkpt>
      <trkpt lat="46.76399" lon="4.76093">
        <ele>199.410465</ele>
        <time>2011-02-20T13:25:29Z</time>
      </trkpt>
      <trkpt lat="46.76382" lon="4.76052">
        <ele>199.262384</ele>
        <time>2011-02-20T13:25:59Z</time>
      </trkpt>
      <trkpt lat="46.76377" lon="4.7604">
        <ele>199.059544</ele>
        <time>2011-02-20T13:26:05Z</time>
      </trkpt>
      <trkpt lat="46.76372" lon="4.76029">
        <ele>198.6429</ele>
        <time>2011-02-20T13:26:18Z</time>
      </trkpt>
      <trkpt lat="46.76369" lon="4.76012">
        <ele>197.848602</ele>
        <time>2011-02-20T13:26:35Z</time>
      </trkpt>
      <trkpt lat="46.76364" lon="4.76001">
        <ele>196.713651</ele>
        <time>2011-02-20T13:26:44Z</time>
      </trkpt>
      <trkpt lat="46.76359" lon="4.75987">
        <ele>195.663206</ele>
        <time>2011-02-20T13:26:50Z</time>
      </trkpt>
      <trkpt lat="46.76353" lon="4.75976">
        <ele>195.062673</ele>
        <time>2011-02-20T13:26:55Z</time>
      </trkpt>
      <trkpt lat="46.76349" lon="4.75964">
        <ele>194.878372</ele>
        <time>2011-02-20T13:26:59Z</time>
      </trkpt>
      <trkpt lat="46.76345" lon="4.75952">
        <ele>194.910889</ele>
        <time>2011-02-20T13:27:04Z</time>
      </trkpt>
      <trkpt lat="46.7634" lon="4.7594">
        <ele>195.087933</ele>
        <time>2011-02-20T13:27:10Z</time>
      </trkpt>
      <trkpt lat="46.76336" lon="4.75925">
        <ele>195.499245</ele>
        <time>2011-02-20T13:27:17Z</time>
      </trkpt>
      <trkpt lat="46.76333" lon="4.75911">
        <ele>196.14648</ele>
        <time>2011-02-20T13:27:21Z</time>
      </trkpt>
      <trkpt lat="46.76329" lon="4.75898">
        <ele>196.888869</ele>
        <time>2011-02-20T13:27:26Z</time>
      </trkpt>
      <trkpt lat="46.76324" lon="4.75886">
        <ele>197.643957</ele>
        <time>2011-02-20T13:27:35Z</time>
      </trkpt>
      <trkpt lat="46.76318" lon="4.75875">
        <ele>198.395894</ele>
        <time>2011-02-20T13:27:41Z</time>
      </trkpt>
      <trkpt lat="46.76311" lon="4.7586">
        <ele>199.118575</ele>
        <time>2011-02-20T13:27:45Z</time>
      </trkpt>
      <trkpt lat="46.76307" lon="4.75847">
        <ele>199.84937</ele>
        <time>2011-02-20T13:27:49Z</time>
      </trkpt>
      <trkpt lat="46.76303" lon="4.75834">
        <ele>200.640157</ele>
        <time>2011-02-20T13:27:57Z</time>
      </trkpt>
      <trkpt lat="46.76298" lon="4.7582">
        <ele>201.45101</ele>
        <time>2011-02-20T13:28:05Z</time>
      </trkpt>
      <trkpt lat="46.76293" lon="4.75808">
        <ele>202.261422</ele>
        <time>2011-02-20T13:28:10Z</time>
      </trkpt>
      <trkpt lat="46.76288" lon="4.75794">
        <ele>203.157781</ele>
        <time>2011-02-20T13:28:15Z</time>
      </trkpt>
      <trkpt lat="46.76283" lon="4.75782">
        <ele>204.129528</ele>
        <time>2011-02-20T13:28:19Z</time>
      </trkpt>
      <trkpt lat="46.76278" lon="4.75768">
        <ele>204.930497</ele>
        <time>2011-02-20T13:28:23Z</time>
      </trkpt>
      <trkpt lat="46.76275" lon="4.75756">
        <ele>205.34991</ele>
        <time>2011-02-20T13:28:27Z</time>
      </trkpt>
      <trkpt lat="46.7627" lon="4.75742">
        <ele>205.459448</ele>
        <time>2011-02-20T13:28:33Z</time>
      </trkpt>
      <trkpt lat="46.76265" lon="4.75729">
        <ele>205.451005</ele>
        <time>2011-02-20T13:28:39Z</time>
      </trkpt>
      <trkpt lat="46.76261" lon="4.75717">
        <ele>205.485286</ele>
        <time>2011-02-20T13:28:44Z</time>
      </trkpt>
      <trkpt lat="46.76256" lon="4.75703">
        <ele>205.671838</ele>
        <time>2011-02-20T13:28:48Z</time>
      </trkpt>
      <trkpt lat="46.76253" lon="4.75688">
        <ele>206.019442</ele>
        <time>2011-02-20T13:28:51Z</time>
      </trkpt>
      <trkpt lat="46.76252" lon="4.75673">
        <ele>206.402631</ele>
        <time>2011-02-20T13:28:55Z</time>
      </trkpt>
      <trkpt lat="46.76253" lon="4.75659">
        <ele>206.678016</ele>
        <time>2011-02-20T13:29:00Z</time>
      </trkpt>
      <trkpt lat="46.76254" lon="4.75645">
        <ele>206.837914</ele>
        <time>2011-02-20T13:29:05Z</time>
      </trkpt>
      <trkpt lat="46.7626" lon="4.75634">
        <ele>206.98739</ele>
        <time>2011-02-20T13:29:10Z</time>
      </trkpt>
      <trkpt lat="46.7627" lon="4.7563">
        <ele>207.167473</ele>
        <time>2011-02-20T13:29:15Z</time>
      </trkpt>
      <trkpt lat="46.7628" lon="4.75624">
        <ele>207.307749</ele>
        <time>2011-02-20T13:29:19Z</time>
      </trkpt>
      <trkpt lat="46.76287" lon="4.75617">
        <ele>207.361922</ele>
        <time>2011-02-20T13:29:23Z</time>
      </trkpt>
      <trkpt lat="46.76294" lon="4.75606">
        <ele>207.341353</ele>
        <time>2011-02-20T13:29:27Z</time>
      </trkpt>
      <trkpt lat="46.76302" lon="4.75596">
        <ele>207.221131</ele>
        <time>2011-02-20T13:29:32Z</time>
      </trkpt>
      <trkpt lat="46.76312" lon="4.7559">
        <ele>206.958268</ele>
        <time>2011-02-20T13:29:37Z</time>
      </trkpt>
      <trkpt lat="46.76319" lon="4.75579">
        <ele>206.56339</ele>
        <time>2011-02-20T13:29:42Z</time>
      </trkpt>
      <trkpt lat="46.76328" lon="4.75569">
        <ele>206.088468</ele>
        <time>2011-02-20T13:29:47Z</time>
      </trkpt>
      <trkpt lat="46.76335" lon="4.75559">
        <ele>205.5807</ele>
        <time>2011-02-20T13:29:52Z</time>
      </trkpt>
      <trkpt lat="46.76343" lon="4.7555">
        <ele>205.093682</ele>
        <time>2011-02-20T13:29:58Z</time>
      </trkpt>
      <trkpt lat="46.76352" lon="4.75541">
        <ele>204.692308</ele>
        <time>2011-02-20T13:30:04Z</time>
      </trkpt>
      <trkpt lat="46.76361" lon="4.75535">
        <ele>204.426148</ele>
        <time>2011-02-20T13:30:09Z</time>
      </trkpt>
      <trkpt lat="46.76371" lon="4.7553">
        <ele>204.302554</ele>
        <time>2011-02-20T13:30:14Z</time>
      </trkpt>
      <trkpt lat="46.76382" lon="4.75527">
        <ele>204.260353</ele>
        <time>2011-02-20T13:30:19Z</time>
      </trkpt>
      <trkpt lat="46.76392" lon="4.75522">
        <ele>204.207664</ele>
        <time>2011-02-20T13:30:24Z</time>
      </trkpt>
      <trkpt lat="46.76402" lon="4.75517">
        <ele>204.095544</ele>
        <time>2011-02-20T13:30:29Z</time>
      </trkpt>
      <trkpt lat="46.7641" lon="4.7551">
        <ele>203.920933</ele>
        <time>2011-02-20T13:30:33Z</time>
      </trkpt>
      <trkpt lat="46.76418" lon="4.75503">
        <ele>203.69351</ele>
        <time>2011-02-20T13:30:38Z</time>
      </trkpt>
      <trkpt lat="46.76425" lon="4.75494">
        <ele>203.429932</ele>
        <time>2011-02-20T13:30:43Z</time>
      </trkpt>
      <trkpt lat="46.76433" lon="4.75486">
        <ele>203.155532</ele>
        <time>2011-02-20T13:30:48Z</time>
      </trkpt>
      <trkpt lat="46.76432" lon="4.75501">
        <ele>202.862141</ele>
        <time>2011-02-20T13:30:59Z</time>
      </trkpt>
      <trkpt lat="46.7643" lon="4.75515">
        <ele>202.568181</ele>
        <time>2011-02-20T13:31:04Z</time>
      </trkpt>
      <trkpt lat="46.76429" lon="4.75531">
        <ele>202.333531</ele>
        <time>2011-02-20T13:31:09Z</time>
      </trkpt>
      <trkpt lat="46.76427" lon="4.75546">
        <ele>202.144063</ele>
        <time>2011-02-20T13:31:12Z</time>
      </trkpt>
      <trkpt lat="46.76427" lon="4.75564">
        <ele>201.961196</ele>
        <time>2011-02-20T13:31:15Z</time>
      </trkpt>
      <trkpt lat="46.76428" lon="4.75577">
        <ele>201.740369</ele>
        <time>2011-02-20T13:31:17Z</time>
      </trkpt>
      <trkpt lat="46.76431" lon="4.7559">
        <ele>201.367623</ele>
        <time>2011-02-20T13:31:19Z</time>
      </trkpt>
      <trkpt lat="46.76432" lon="4.75607">
        <ele>200.765138</ele>
        <time>2011-02-20T13:31:22Z</time>
      </trkpt>
      <trkpt lat="46.76434" lon="4.75622">
        <ele>199.998811</ele>
        <time>2011-02-20T13:31:25Z</time>
      </trkpt>
      <trkpt lat="46.76437" lon="4.75637">
        <ele>199.194961</ele>
        <time>2011-02-20T13:31:29Z</time>
      </trkpt>
      <trkpt lat="46.76442" lon="4.75649">
        <ele>198.37927</ele>
        <time>2011-02-20T13:31:32Z</time>
      </trkpt>
      <trkpt lat="46.76448" lon="4.75662">
        <ele>197.515985</ele>
        <time>2011-02-20T13:31:35Z</time>
      </trkpt>
      <trkpt lat="46.76453" lon="4.75674">
        <ele>196.698769</ele>
        <time>2011-02-20T13:31:38Z</time>
      </trkpt>
      <trkpt lat="46.76463" lon="4.75677">
        <ele>196.073664</ele>
        <time>2011-02-20T13:31:41Z</time>
      </trkpt>
      <trkpt lat="46.76475" lon="4.75678">
        <ele>195.674876</ele>
        <time>2011-02-20T13:31:44Z</time>
      </trkpt>
      <trkpt lat="46.76484" lon="4.75686">
        <ele>195.406729</ele>
        <time>2011-02-20T13:31:48Z</time>
      </trkpt>
      <trkpt lat="46.76489" lon="4.75699">
        <ele>195.108049</ele>
        <time>2011-02-20T13:31:53Z</time>
      </trkpt>
      <trkpt lat="46.76492" lon="4.75716">
        <ele>194.663354</ele>
        <time>2011-02-20T13:31:58Z</time>
      </trkpt>
      <trkpt lat="46.76496" lon="4.75729">
        <ele>194.088787</ele>
        <time>2011-02-20T13:32:01Z</time>
      </trkpt>
      <trkpt lat="46.76496" lon="4.75745">
        <ele>193.493677</ele>
        <time>2011-02-20T13:32:05Z</time>
      </trkpt>
      <trkpt lat="46.76496" lon="4.7576">
        <ele>193.021909</ele>
        <time>2011-02-20T13:32:09Z</time>
      </trkpt>
      <trkpt lat="46.76497" lon="4.75773">
        <ele>192.775494</ele>
        <time>2011-02-20T13:32:12Z</time>
      </trkpt>
      <trkpt lat="46.76502" lon="4.75788">
        <ele>192.724615</ele>
        <time>2011-02-20T13:32:15Z</time>
      </trkpt>
      <trkpt lat="46.76514" lon="4.75807">
        <ele>192.7683</ele>
        <time>2011-02-20T13:32:18Z</time>
      </trkpt>
      <trkpt lat="46.76522" lon="4.75819">
        <ele>192.934026</ele>
        <time>2011-02-20T13:32:20Z</time>
      </trkpt>
      <trkpt lat="46.76535" lon="4.75835">
        <ele>193.306722</ele>
        <time>2011-02-20T13:32:23Z</time>
      </trkpt>
      <trkpt lat="46.76547" lon="4.75847">
        <ele>193.777384</ele>
        <time>2011-02-20T13:32:26Z</time>
      </trkpt>
      <trkpt lat="46.76552" lon="4.75858">
        <ele>194.132201</ele>
        <time>2011-02-20T13:32:29Z</time>
      </trkpt>
      <trkpt lat="46.76558" lon="4.75871">
        <ele>194.336504</ele>
        <time>2011-02-20T13:32:33Z</time>
      </trkpt>
      <trkpt lat="46.76567" lon="4.75885">
        <ele>194.492226</ele>
        <time>2011-02-20T13:32:36Z</time>
      </trkpt>
      <trkpt lat="46.76574" lon="4.75893">
        <ele>194.705961</ele>
        <time>2011-02-20T13:32:38Z</time>
      </trkpt>
      <trkpt lat="46.76582" lon="4.75902">
        <ele>195.069637</ele>
        <time>2011-02-20T13:32:41Z</time>
      </trkpt>
      <trkpt lat="46.76588" lon="4.75914">
        <ele>195.541753</ele>
        <time>2011-02-20T13:32:46Z</time>
      </trkpt>
      <trkpt lat="46.76595" lon="4.75927">
        <ele>195.935139</ele>
        <time>2011-02-20T13:32:50Z</time>
      </trkpt>
      <trkpt lat="46.76602" lon="4.75939">
        <ele>196.157269</ele>
        <time>2011-02-20T13:32:54Z</time>
      </trkpt>
      <trkpt lat="46.76607" lon="4.75952">
        <ele>196.283717</ele>
        <time>2011-02-20T13:32:59Z</time>
      </trkpt>
      <trkpt lat="46.76612" lon="4.75963">
        <ele>196.381729</ele>
        <time>2011-02-20T13:33:05Z</time>
      </trkpt>
      <trkpt lat="46.76618" lon="4.75973">
        <ele>196.454791</ele>
        <time>2011-02-20T13:33:09Z</time>
      </trkpt>
      <trkpt lat="46.76623" lon="4.75986">
        <ele>196.509537</ele>
        <time>2011-02-20T13:33:15Z</time>
      </trkpt>
      <trkpt lat="46.76626" lon="4.76">
        <ele>196.55782</ele>
        <time>2011-02-20T13:33:23Z</time>
      </trkpt>
      <trkpt lat="46.76631" lon="4.76015">
        <ele>196.589631</ele>
        <time>2011-02-20T13:33:28Z</time>
      </trkpt>
      <trkpt lat="46.76636" lon="4.76028">
        <ele>196.599796</ele>
        <time>2011-02-20T13:33:33Z</time>
      </trkpt>
      <trkpt lat="46.76643" lon="4.7604">
        <ele>196.556641</ele>
        <time>2011-02-20T13:33:39Z</time>
      </trkpt>
      <trkpt lat="46.76648" lon="4.76051">
        <ele>196.443977</ele>
        <time>2011-02-20T13:33:44Z</time>
      </trkpt>
      <trkpt lat="46.7665" lon="4.76065">
        <ele>196.32982</ele>
        <time>2011-02-20T13:33:50Z</time>
      </trkpt>
      <trkpt lat="46.76655" lon="4.76079">
        <ele>196.276077</ele>
        <time>2011-02-20T13:33:56Z</time>
      </trkpt>
      <trkpt lat="46.76655" lon="4.76092">
        <ele>196.282305</ele>
        <time>2011-02-20T13:34:02Z</time>
      </trkpt>
      <trkpt lat="46.76657" lon="4.76108">
        <ele>196.335019</ele>
        <time>2011-02-20T13:34:09Z</time>
      </trkpt>
      <trkpt lat="46.76662" lon="4.76121">
        <ele>196.399173</ele>
        <time>2011-02-20T13:34:14Z</time>
      </trkpt>
      <trkpt lat="46.76664" lon="4.76136">
        <ele>196.438967</ele>
        <time>2011-02-20T13:34:20Z</time>
      </trkpt>
      <trkpt lat="46.76671" lon="4.76145">
        <ele>196.450612</ele>
        <time>2011-02-20T13:34:24Z</time>
      </trkpt>
      <trkpt lat="46.76682" lon="4.76149">
        <ele>196.400869</ele>
        <time>2011-02-20T13:34:27Z</time>
      </trkpt>
      <trkpt lat="46.76693" lon="4.76149">
        <ele>196.198123</ele>
        <time>2011-02-20T13:34:30Z</time>
      </trkpt>
      <trkpt lat="46.76703" lon="4.76147">
        <ele>195.8226</ele>
        <time>2011-02-20T13:34:33Z</time>
      </trkpt>
      <trkpt lat="46.76713" lon="4.76144">
        <ele>195.386021</ele>
        <time>2011-02-20T13:34:36Z</time>
      </trkpt>
      <trkpt lat="46.76723" lon="4.76138">
        <ele>195.004405</ele>
        <time>2011-02-20T13:34:40Z</time>
      </trkpt>
      <trkpt lat="46.76731" lon="4.76132">
        <ele>194.714329</ele>
        <time>2011-02-20T13:34:44Z</time>
      </trkpt>
      <trkpt lat="46.76741" lon="4.76126">
        <ele>194.501222</ele>
        <time>2011-02-20T13:34:49Z</time>
      </trkpt>
      <trkpt lat="46.7675" lon="4.76119">
        <ele>194.330867</ele>
        <time>2011-02-20T13:34:53Z</time>
      </trkpt>
      <trkpt lat="46.76761" lon="4.76111">
        <ele>194.163308</ele>
        <time>2011-02-20T13:34:57Z</time>
      </trkpt>
      <trkpt lat="46.76769" lon="4.76103">
        <ele>193.959742</ele>
        <time>2011-02-20T13:35:00Z</time>
      </trkpt>
      <trkpt lat="46.76779" lon="4.76094">
        <ele>193.715603</ele>
        <time>2011-02-20T13:35:04Z</time>
      </trkpt>
      <trkpt lat="46.76789" lon="4.76087">
        <ele>193.462509</ele>
        <time>2011-02-20T13:35:08Z</time>
      </trkpt>
      <trkpt lat="46.76798" lon="4.7608">
        <ele>193.227382</ele>
        <time>2011-02-20T13:35:12Z</time>
      </trkpt>
      <trkpt lat="46.76807" lon="4.7607">
        <ele>193.009494</ele>
        <time>2011-02-20T13:35:16Z</time>
      </trkpt>
      <trkpt lat="46.76815" lon="4.76061">
        <ele>192.784854</ele>
        <time>2011-02-20T13:35:19Z</time>
      </trkpt>
      <trkpt lat="46.76824" lon="4.76053">
        <ele>192.512971</ele>
        <time>2011-02-20T13:35:22Z</time>
      </trkpt>
      <trkpt lat="46.76833" lon="4.76045">
        <ele>192.209914</ele>
        <time>2011-02-20T13:35:26Z</time>
      </trkpt>
      <trkpt lat="46.76842" lon="4.76038">
        <ele>191.970414</ele>
        <time>2011-02-20T13:35:30Z</time>
      </trkpt>
      <trkpt lat="46.76852" lon="4.76031">
        <ele>191.858459</ele>
        <time>2011-02-20T13:35:34Z</time>
      </trkpt>
      <trkpt lat="46.76862" lon="4.76024">
        <ele>191.842512</ele>
        <time>2011-02-20T13:35:38Z</time>
      </trkpt>
      <trkpt lat="46.76872" lon="4.76018">
        <ele>191.885582</ele>
        <time>2011-02-20T13:35:42Z</time>
      </trkpt>
      <trkpt lat="46.76881" lon="4.76016">
        <ele>191.965425</ele>
        <time>2011-02-20T13:35:46Z</time>
      </trkpt>
      <trkpt lat="46.7689" lon="4.76013">
        <ele>192.036355</ele>
        <time>2011-02-20T13:35:50Z</time>
      </trkpt>
      <trkpt lat="46.76899" lon="4.76008">
        <ele>192.066944</ele>
        <time>2011-02-20T13:35:54Z</time>
      </trkpt>
      <trkpt lat="46.76908" lon="4.76003">
        <ele>192.065753</ele>
        <time>2011-02-20T13:35:58Z</time>
      </trkpt>
      <trkpt lat="46.76916" lon="4.75994">
        <ele>192.046151</ele>
        <time>2011-02-20T13:36:03Z</time>
      </trkpt>
      <trkpt lat="46.76915" lon="4.75979">
        <ele>192.006459</ele>
        <time>2011-02-20T13:36:08Z</time>
      </trkpt>
      <trkpt lat="46.76913" lon="4.75963">
        <ele>191.940036</ele>
        <time>2011-02-20T13:36:12Z</time>
      </trkpt>
      <trkpt lat="46.7691" lon="4.75949">
        <ele>191.868183</ele>
        <time>2011-02-20T13:36:15Z</time>
      </trkpt>
      <trkpt lat="46.76906" lon="4.75934">
        <ele>191.824038</ele>
        <time>2011-02-20T13:36:18Z</time>
      </trkpt>
      <trkpt lat="46.76904" lon="4.75921">
        <ele>191.811315</ele>
        <time>2011-02-20T13:36:21Z</time>
      </trkpt>
      <trkpt lat="46.769" lon="4.75907">
        <ele>191.831025</ele>
        <time>2011-02-20T13:36:24Z</time>
      </trkpt>
      <trkpt lat="46.76897" lon="4.75893">
        <ele>191.924966</ele>
        <time>2011-02-20T13:36:27Z</time>
      </trkpt>
      <trkpt lat="46.76892" lon="4.75878">
        <ele>192.115522</ele>
        <time>2011-02-20T13:36:30Z</time>
      </trkpt>
      <trkpt lat="46.76889" lon="4.75865">
        <ele>192.325903</ele>
        <time>2011-02-20T13:36:32Z</time>
      </trkpt>
      <trkpt lat="46.76886" lon="4.75851">
        <ele>192.462831</ele>
        <time>2011-02-20T13:36:34Z</time>
      </trkpt>
      <trkpt lat="46.76885" lon="4.75831">
        <ele>192.516862</ele>
        <time>2011-02-20T13:36:37Z</time>
      </trkpt>
      <trkpt lat="46.76887" lon="4.75818">
        <ele>192.524093</ele>
        <time>2011-02-20T13:36:40Z</time>
      </trkpt>
      <trkpt lat="46.76894" lon="4.75806">
        <ele>192.508521</ele>
        <time>2011-02-20T13:36:44Z</time>
      </trkpt>
      <trkpt lat="46.76901" lon="4.75797">
        <ele>192.477429</ele>
        <time>2011-02-20T13:36:47Z</time>
      </trkpt>
      <trkpt lat="46.76909" lon="4.75789">
        <ele>192.430079</ele>
        <time>2011-02-20T13:36:50Z</time>
      </trkpt>
      <trkpt lat="46.76919" lon="4.7578">
        <ele>192.366207</ele>
        <time>2011-02-20T13:36:53Z</time>
      </trkpt>
      <trkpt lat="46.76928" lon="4.75771">
        <ele>192.288933</ele>
        <time>2011-02-20T13:36:56Z</time>
      </trkpt>
      <trkpt lat="46.76936" lon="4.75763">
        <ele>192.20291</ele>
        <time>2011-02-20T13:36:59Z</time>
      </trkpt>
      <trkpt lat="46.76946" lon="4.75756">
        <ele>192.098779</ele>
        <time>2011-02-20T13:37:03Z</time>
      </trkpt>
      <trkpt lat="46.76956" lon="4.75747">
        <ele>191.95189</ele>
        <time>2011-02-20T13:37:06Z</time>
      </trkpt>
      <trkpt lat="46.76964" lon="4.7574">
        <ele>191.739114</ele>
        <time>2011-02-20T13:37:08Z</time>
      </trkpt>
      <trkpt lat="46.7698" lon="4.75728">
        <ele>191.441311</ele>
        <time>2011-02-20T13:37:11Z</time>
      </trkpt>
      <trkpt lat="46.76993" lon="4.75715">
        <ele>190.997488</ele>
        <time>2011-02-20T13:37:14Z</time>
      </trkpt>
      <trkpt lat="46.77005" lon="4.75703">
        <ele>190.424265</ele>
        <time>2011-02-20T13:37:17Z</time>
      </trkpt>
      <trkpt lat="46.77016" lon="4.7569">
        <ele>189.897588</ele>
        <time>2011-02-20T13:37:20Z</time>
      </trkpt>
      <trkpt lat="46.77022" lon="4.75677">
        <ele>189.57277</ele>
        <time>2011-02-20T13:37:22Z</time>
      </trkpt>
      <trkpt lat="46.77028" lon="4.75663">
        <ele>189.450502</ele>
        <time>2011-02-20T13:37:24Z</time>
      </trkpt>
      <trkpt lat="46.77032" lon="4.75651">
        <ele>189.451109</ele>
        <time>2011-02-20T13:37:26Z</time>
      </trkpt>
      <trkpt lat="46.77038" lon="4.75631">
        <ele>189.499696</ele>
        <time>2011-02-20T13:37:29Z</time>
      </trkpt>
      <trkpt lat="46.77043" lon="4.75615">
        <ele>189.560863</ele>
        <time>2011-02-20T13:37:32Z</time>
      </trkpt>
      <trkpt lat="46.77049" lon="4.756">
        <ele>189.606637</ele>
        <time>2011-02-20T13:37:35Z</time>
      </trkpt>
      <trkpt lat="46.77055" lon="4.75586">
        <ele>189.623807</ele>
        <time>2011-02-20T13:37:38Z</time>
      </trkpt>
      <trkpt lat="46.77062" lon="4.75574">
        <ele>189.623676</ele>
        <time>2011-02-20T13:37:41Z</time>
      </trkpt>
      <trkpt lat="46.77069" lon="4.75562">
        <ele>189.614007</ele>
        <time>2011-02-20T13:37:44Z</time>
      </trkpt>
      <trkpt lat="46.77076" lon="4.75549">
        <ele>189.58356</ele>
        <time>2011-02-20T13:37:47Z</time>
      </trkpt>
      <trkpt lat="46.77083" lon="4.75536">
        <ele>189.531437</ele>
        <time>2011-02-20T13:37:50Z</time>
      </trkpt>
      <trkpt lat="46.7709" lon="4.75523">
        <ele>189.485188</ele>
        <time>2011-02-20T13:37:53Z</time>
      </trkpt>
      <trkpt lat="46.77096" lon="4.7551">
        <ele>189.463835</ele>
        <time>2011-02-20T13:37:56Z</time>
      </trkpt>
      <trkpt lat="46.77101" lon="4.75496">
        <ele>189.45582</ele>
        <time>2011-02-20T13:37:59Z</time>
      </trkpt>
      <trkpt lat="46.77107" lon="4.75482">
        <ele>189.444798</ele>
        <time>2011-02-20T13:38:02Z</time>
      </trkpt>
      <trkpt lat="46.77112" lon="4.75469">
        <ele>189.426689</ele>
        <time>2011-02-20T13:38:05Z</time>
      </trkpt>
      <trkpt lat="46.77117" lon="4.75454">
        <ele>189.406248</ele>
        <time>2011-02-20T13:38:08Z</time>
      </trkpt>
      <trkpt lat="46.77123" lon="4.7544">
        <ele>189.386782</ele>
        <time>2011-02-20T13:38:11Z</time>
      </trkpt>
      <trkpt lat="46.77128" lon="4.75424">
        <ele>189.365732</ele>
        <time>2011-02-20T13:38:14Z</time>
      </trkpt>
      <trkpt lat="46.77134" lon="4.75408">
        <ele>189.320318</ele>
        <time>2011-02-20T13:38:17Z</time>
      </trkpt>
      <trkpt lat="46.77139" lon="4.75391">
        <ele>189.204927</ele>
        <time>2011-02-20T13:38:20Z</time>
      </trkpt>
      <trkpt lat="46.77144" lon="4.75373">
        <ele>188.971626</ele>
        <time>2011-02-20T13:38:23Z</time>
      </trkpt>
      <trkpt lat="46.77146" lon="4.75354">
        <ele>188.642126</ele>
        <time>2011-02-20T13:38:26Z</time>
      </trkpt>
      <trkpt lat="46.77149" lon="4.75337">
        <ele>188.319388</ele>
        <time>2011-02-20T13:38:29Z</time>
      </trkpt>
      <trkpt lat="46.77155" lon="4.75319">
        <ele>188.086182</ele>
        <time>2011-02-20T13:38:32Z</time>
      </trkpt>
      <trkpt lat="46.77164" lon="4.75305">
        <ele>187.95345</ele>
        <time>2011-02-20T13:38:35Z</time>
      </trkpt>
      <trkpt lat="46.77173" lon="4.75291">
        <ele>187.878963</ele>
        <time>2011-02-20T13:38:38Z</time>
      </trkpt>
      <trkpt lat="46.77182" lon="4.75276">
        <ele>187.816695</ele>
        <time>2011-02-20T13:38:41Z</time>
      </trkpt>
      <trkpt lat="46.77191" lon="4.75262">
        <ele>187.760551</ele>
        <time>2011-02-20T13:38:44Z</time>
      </trkpt>
      <trkpt lat="46.772" lon="4.75247">
        <ele>187.72013</ele>
        <time>2011-02-20T13:38:47Z</time>
      </trkpt>
      <trkpt lat="46.77208" lon="4.75232">
        <ele>187.692898</ele>
        <time>2011-02-20T13:38:50Z</time>
      </trkpt>
      <trkpt lat="46.77216" lon="4.75217">
        <ele>187.676105</ele>
        <time>2011-02-20T13:38:53Z</time>
      </trkpt>
      <trkpt lat="46.77225" lon="4.75202">
        <ele>187.667009</ele>
        <time>2011-02-20T13:38:56Z</time>
      </trkpt>
      <trkpt lat="46.77234" lon="4.75187">
        <ele>187.617757</ele>
        <time>2011-02-20T13:38:59Z</time>
      </trkpt>
      <trkpt lat="46.77242" lon="4.75172">
        <ele>187.449452</ele>
        <time>2011-02-20T13:39:02Z</time>
      </trkpt>
      <trkpt lat="46.77251" lon="4.75159">
        <ele>187.203291</ele>
        <time>2011-02-20T13:39:05Z</time>
      </trkpt>
      <trkpt lat="46.7726" lon="4.75145">
        <ele>186.998677</ele>
        <time>2011-02-20T13:39:08Z</time>
      </trkpt>
      <trkpt lat="46.77266" lon="4.75136">
        <ele>186.847809</ele>
        <time>2011-02-20T13:39:10Z</time>
      </trkpt>
      <trkpt lat="46.7728" lon="4.75132">
        <ele>186.71372</ele>
        <time>2011-02-20T13:39:13Z</time>
      </trkpt>
      <trkpt lat="46.77289" lon="4.75132">
        <ele>186.618049</ele>
        <time>2011-02-20T13:39:15Z</time>
      </trkpt>
      <trkpt lat="46.77302" lon="4.75138">
        <ele>186.575651</ele>
        <time>2011-02-20T13:39:18Z</time>
      </trkpt>
      <trkpt lat="46.77314" lon="4.75147">
        <ele>186.563524</ele>
        <time>2011-02-20T13:39:21Z</time>
      </trkpt>
      <trkpt lat="46.77321" lon="4.75154">
        <ele>186.562171</ele>
        <time>2011-02-20T13:39:23Z</time>
      </trkpt>
      <trkpt lat="46.77334" lon="4.75164">
        <ele>186.526226</ele>
        <time>2011-02-20T13:39:26Z</time>
      </trkpt>
      <trkpt lat="46.77347" lon="4.75171">
        <ele>186.397733</ele>
        <time>2011-02-20T13:39:29Z</time>
      </trkpt>
      <trkpt lat="46.77359" lon="4.75168">
        <ele>186.199922</ele>
        <time>2011-02-20T13:39:32Z</time>
      </trkpt>
      <trkpt lat="46.77369" lon="4.75155">
        <ele>185.974513</ele>
        <time>2011-02-20T13:39:35Z</time>
      </trkpt>
      <trkpt lat="46.77378" lon="4.75137">
        <ele>185.673478</ele>
        <time>2011-02-20T13:39:38Z</time>
      </trkpt>
      <trkpt lat="46.77386" lon="4.75119">
        <ele>185.265597</ele>
        <time>2011-02-20T13:39:41Z</time>
      </trkpt>
      <trkpt lat="46.77393" lon="4.75101">
        <ele>184.8671</ele>
        <time>2011-02-20T13:39:44Z</time>
      </trkpt>
      <trkpt lat="46.77398" lon="4.75089">
        <ele>184.627494</ele>
        <time>2011-02-20T13:39:46Z</time>
      </trkpt>
      <trkpt lat="46.77404" lon="4.75073">
        <ele>184.560859</ele>
        <time>2011-02-20T13:39:49Z</time>
      </trkpt>
      <trkpt lat="46.7741" lon="4.75058">
        <ele>184.60603</ele>
        <time>2011-02-20T13:39:52Z</time>
      </trkpt>
      <trkpt lat="46.77414" lon="4.75044">
        <ele>184.720959</ele>
        <time>2011-02-20T13:39:55Z</time>
      </trkpt>
      <trkpt lat="46.77419" lon="4.75031">
        <ele>184.915886</ele>
        <time>2011-02-20T13:39:58Z</time>
      </trkpt>
      <trkpt lat="46.77424" lon="4.75019">
        <ele>185.217776</ele>
        <time>2011-02-20T13:40:01Z</time>
      </trkpt>
      <trkpt lat="46.77429" lon="4.75007">
        <ele>185.546895</ele>
        <time>2011-02-20T13:40:04Z</time>
      </trkpt>
      <trkpt lat="46.77433" lon="4.74994">
        <ele>185.773361</ele>
        <time>2011-02-20T13:40:07Z</time>
      </trkpt>
      <trkpt lat="46.77437" lon="4.74982">
        <ele>185.887526</ele>
        <time>2011-02-20T13:40:10Z</time>
      </trkpt>
      <trkpt lat="46.77443" lon="4.74966">
        <ele>185.953473</ele>
        <time>2011-02-20T13:40:14Z</time>
      </trkpt>
      <trkpt lat="46.77447" lon="4.74955">
        <ele>186.015932</ele>
        <time>2011-02-20T13:40:17Z</time>
      </trkpt>
      <trkpt lat="46.77453" lon="4.74941">
        <ele>186.085461</ele>
        <time>2011-02-20T13:40:21Z</time>
      </trkpt>
      <trkpt lat="46.77459" lon="4.74927">
        <ele>186.160531</ele>
        <time>2011-02-20T13:40:25Z</time>
      </trkpt>
      <trkpt lat="46.77466" lon="4.74912">
        <ele>186.241059</ele>
        <time>2011-02-20T13:40:29Z</time>
      </trkpt>
      <trkpt lat="46.7747" lon="4.749">
        <ele>186.327813</ele>
        <time>2011-02-20T13:40:32Z</time>
      </trkpt>
      <trkpt lat="46.77476" lon="4.74889">
        <ele>186.422019</ele>
        <time>2011-02-20T13:40:35Z</time>
      </trkpt>
      <trkpt lat="46.77482" lon="4.74877">
        <ele>186.538349</ele>
        <time>2011-02-20T13:40:38Z</time>
      </trkpt>
      <trkpt lat="46.77487" lon="4.74865">
        <ele>186.686799</ele>
        <time>2011-02-20T13:40:41Z</time>
      </trkpt>
      <trkpt lat="46.77492" lon="4.74853">
        <ele>186.853171</ele>
        <time>2011-02-20T13:40:44Z</time>
      </trkpt>
      <trkpt lat="46.77498" lon="4.74841">
        <ele>187.019341</ele>
        <time>2011-02-20T13:40:47Z</time>
      </trkpt>
      <trkpt lat="46.77505" lon="4.74829">
        <ele>187.180728</ele>
        <time>2011-02-20T13:40:50Z</time>
      </trkpt>
      <trkpt lat="46.77512" lon="4.74819">
        <ele>187.331129</ele>
        <time>2011-02-20T13:40:53Z</time>
      </trkpt>
      <trkpt lat="46.77522" lon="4.74813">
        <ele>187.470012</ele>
        <time>2011-02-20T13:40:56Z</time>
      </trkpt>
      <trkpt lat="46.77535" lon="4.74812">
        <ele>187.613578</ele>
        <time>2011-02-20T13:40:59Z</time>
      </trkpt>
      <trkpt lat="46.77548" lon="4.74813">
        <ele>187.779725</ele>
        <time>2011-02-20T13:41:02Z</time>
      </trkpt>
      <trkpt lat="46.7756" lon="4.74816">
        <ele>188.047357</ele>
        <time>2011-02-20T13:41:05Z</time>
      </trkpt>
      <trkpt lat="46.77573" lon="4.7482">
        <ele>188.563588</ele>
        <time>2011-02-20T13:41:08Z</time>
      </trkpt>
      <trkpt lat="46.77586" lon="4.74825">
        <ele>189.273338</ele>
        <time>2011-02-20T13:41:11Z</time>
      </trkpt>
      <trkpt lat="46.77596" lon="4.74829">
        <ele>189.881301</ele>
        <time>2011-02-20T13:41:13Z</time>
      </trkpt>
      <trkpt lat="46.77609" lon="4.74834">
        <ele>190.203384</ele>
        <time>2011-02-20T13:41:16Z</time>
      </trkpt>
      <trkpt lat="46.77619" lon="4.74837">
        <ele>190.289237</ele>
        <time>2011-02-20T13:41:18Z</time>
      </trkpt>
      <trkpt lat="46.77632" lon="4.74843">
        <ele>190.262663</ele>
        <time>2011-02-20T13:41:21Z</time>
      </trkpt>
      <trkpt lat="46.77641" lon="4.74848">
        <ele>190.219399</ele>
        <time>2011-02-20T13:41:23Z</time>
      </trkpt>
      <trkpt lat="46.77654" lon="4.74853">
        <ele>190.195074</ele>
        <time>2011-02-20T13:41:26Z</time>
      </trkpt>
      <trkpt lat="46.77666" lon="4.74859">
        <ele>190.189109</ele>
        <time>2011-02-20T13:41:29Z</time>
      </trkpt>
      <trkpt lat="46.77677" lon="4.74866">
        <ele>190.194564</ele>
        <time>2011-02-20T13:41:32Z</time>
      </trkpt>
      <trkpt lat="46.77689" lon="4.74871">
        <ele>190.206934</ele>
        <time>2011-02-20T13:41:35Z</time>
      </trkpt>
      <trkpt lat="46.77701" lon="4.74876">
        <ele>190.253629</ele>
        <time>2011-02-20T13:41:38Z</time>
      </trkpt>
      <trkpt lat="46.77712" lon="4.74881">
        <ele>190.396107</ele>
        <time>2011-02-20T13:41:41Z</time>
      </trkpt>
      <trkpt lat="46.77723" lon="4.74888">
        <ele>190.682224</ele>
        <time>2011-02-20T13:41:44Z</time>
      </trkpt>
      <trkpt lat="46.77732" lon="4.74894">
        <ele>191.118246</ele>
        <time>2011-02-20T13:41:46Z</time>
      </trkpt>
      <trkpt lat="46.77744" lon="4.74897">
        <ele>191.641887</ele>
        <time>2011-02-20T13:41:49Z</time>
      </trkpt>
      <trkpt lat="46.77753" lon="4.74885">
        <ele>192.146573</ele>
        <time>2011-02-20T13:41:52Z</time>
      </trkpt>
      <trkpt lat="46.77759" lon="4.7487">
        <ele>192.546987</ele>
        <time>2011-02-20T13:41:55Z</time>
      </trkpt>
      <trkpt lat="46.77761" lon="4.74855">
        <ele>192.789396</ele>
        <time>2011-02-20T13:41:58Z</time>
      </trkpt>
      <trkpt lat="46.77763" lon="4.74839">
        <ele>192.874536</ele>
        <time>2011-02-20T13:42:01Z</time>
      </trkpt>
      <trkpt lat="46.77765" lon="4.74824">
        <ele>192.86949</ele>
        <time>2011-02-20T13:42:04Z</time>
      </trkpt>
      <trkpt lat="46.77766" lon="4.74808">
        <ele>192.788841</ele>
        <time>2011-02-20T13:42:07Z</time>
      </trkpt>
      <trkpt lat="46.77767" lon="4.74793">
        <ele>192.60496</ele>
        <time>2011-02-20T13:42:10Z</time>
      </trkpt>
      <trkpt lat="46.77768" lon="4.74778">
        <ele>192.349813</ele>
        <time>2011-02-20T13:42:13Z</time>
      </trkpt>
      <trkpt lat="46.77768" lon="4.74762">
        <ele>192.080151</ele>
        <time>2011-02-20T13:42:17Z</time>
      </trkpt>
      <trkpt lat="46.77768" lon="4.74748">
        <ele>191.822207</ele>
        <time>2011-02-20T13:42:20Z</time>
      </trkpt>
      <trkpt lat="46.77768" lon="4.74731">
        <ele>191.603991</ele>
        <time>2011-02-20T13:42:23Z</time>
      </trkpt>
      <trkpt lat="46.7777" lon="4.74713">
        <ele>191.455346</ele>
        <time>2011-02-20T13:42:26Z</time>
      </trkpt>
      <trkpt lat="46.77771" lon="4.74697">
        <ele>191.388792</ele>
        <time>2011-02-20T13:42:29Z</time>
      </trkpt>
      <trkpt lat="46.77771" lon="4.7468">
        <ele>191.381098</ele>
        <time>2011-02-20T13:42:32Z</time>
      </trkpt>
      <trkpt lat="46.77771" lon="4.74662">
        <ele>191.505485</ele>
        <time>2011-02-20T13:42:35Z</time>
      </trkpt>
      <trkpt lat="46.77771" lon="4.74645">
        <ele>191.840732</ele>
        <time>2011-02-20T13:42:38Z</time>
      </trkpt>
      <trkpt lat="46.77771" lon="4.74629">
        <ele>192.253655</ele>
        <time>2011-02-20T13:42:41Z</time>
      </trkpt>
      <trkpt lat="46.77771" lon="4.74613">
        <ele>192.6617</ele>
        <time>2011-02-20T13:42:44Z</time>
      </trkpt>
      <trkpt lat="46.77771" lon="4.74598">
        <ele>193.098288</ele>
        <time>2011-02-20T13:42:47Z</time>
      </trkpt>
      <trkpt lat="46.77771" lon="4.74583">
        <ele>193.441611</ele>
        <time>2011-02-20T13:42:50Z</time>
      </trkpt>
      <trkpt lat="46.77771" lon="4.74569">
        <ele>193.583123</ele>
        <time>2011-02-20T13:42:53Z</time>
      </trkpt>
      <trkpt lat="46.77771" lon="4.74555">
        <ele>193.591715</ele>
        <time>2011-02-20T13:42:56Z</time>
      </trkpt>
      <trkpt lat="46.77771" lon="4.74542">
        <ele>193.538173</ele>
        <time>2011-02-20T13:42:59Z</time>
      </trkpt>
      <trkpt lat="46.77773" lon="4.74526">
        <ele>193.438676</ele>
        <time>2011-02-20T13:43:03Z</time>
      </trkpt>
      <trkpt lat="46.77773" lon="4.7451">
        <ele>193.31432</ele>
        <time>2011-02-20T13:43:07Z</time>
      </trkpt>
      <trkpt lat="46.77775" lon="4.74494">
        <ele>193.215021</ele>
        <time>2011-02-20T13:43:11Z</time>
      </trkpt>
      <trkpt lat="46.77775" lon="4.74477">
        <ele>193.168327</ele>
        <time>2011-02-20T13:43:15Z</time>
      </trkpt>
      <trkpt lat="46.77775" lon="4.74461">
        <ele>193.161508</ele>
        <time>2011-02-20T13:43:19Z</time>
      </trkpt>
      <trkpt lat="46.77776" lon="4.74444">
        <ele>193.200967</ele>
        <time>2011-02-20T13:43:23Z</time>
      </trkpt>
      <trkpt lat="46.77776" lon="4.74427">
        <ele>193.332228</ele>
        <time>2011-02-20T13:43:27Z</time>
      </trkpt>
      <trkpt lat="46.77776" lon="4.74414">
        <ele>193.567362</ele>
        <time>2011-02-20T13:43:30Z</time>
      </trkpt>
      <trkpt lat="46.77776" lon="4.74399">
        <ele>193.860711</ele>
        <time>2011-02-20T13:43:33Z</time>
      </trkpt>
      <trkpt lat="46.77776" lon="4.74385">
        <ele>194.1561</ele>
        <time>2011-02-20T13:43:36Z</time>
      </trkpt>
      <trkpt lat="46.77776" lon="4.74385">
        <ele>194.388213</ele>
        <time>2011-02-20T13:43:41Z</time>
      </trkpt>
      <trkpt lat="46.77776" lon="4.74348">
        <ele>194.525177</ele>
        <time>2011-02-20T13:43:45Z</time>
      </trkpt>
      <trkpt lat="46.77777" lon="4.74331">
        <ele>194.615485</ele>
        <time>2011-02-20T13:43:49Z</time>
      </trkpt>
      <trkpt lat="46.77778" lon="4.74317">
        <ele>194.721957</ele>
        <time>2011-02-20T13:43:52Z</time>
      </trkpt>
      <trkpt lat="46.77779" lon="4.74304">
        <ele>194.845822</ele>
        <time>2011-02-20T13:43:55Z</time>
      </trkpt>
      <trkpt lat="46.77782" lon="4.74287">
        <ele>194.948774</ele>
        <time>2011-02-20T13:43:59Z</time>
      </trkpt>
      <trkpt lat="46.77784" lon="4.7427">
        <ele>195.007524</ele>
        <time>2011-02-20T13:44:03Z</time>
      </trkpt>
      <trkpt lat="46.77786" lon="4.74253">
        <ele>195.035001</ele>
        <time>2011-02-20T13:44:07Z</time>
      </trkpt>
      <trkpt lat="46.7779" lon="4.74237">
        <ele>195.051538</ele>
        <time>2011-02-20T13:44:11Z</time>
      </trkpt>
      <trkpt lat="46.77793" lon="4.74223">
        <ele>195.063914</ele>
        <time>2011-02-20T13:44:14Z</time>
      </trkpt>
      <trkpt lat="46.77795" lon="4.74208">
        <ele>195.070942</ele>
        <time>2011-02-20T13:44:17Z</time>
      </trkpt>
      <trkpt lat="46.77797" lon="4.74192">
        <ele>195.0727</ele>
        <time>2011-02-20T13:44:20Z</time>
      </trkpt>
      <trkpt lat="46.778" lon="4.74176">
        <ele>195.071771</ele>
        <time>2011-02-20T13:44:23Z</time>
      </trkpt>
      <trkpt lat="46.77802" lon="4.74162">
        <ele>195.058299</ele>
        <time>2011-02-20T13:44:26Z</time>
      </trkpt>
      <trkpt lat="46.77805" lon="4.74146">
        <ele>195.019038</ele>
        <time>2011-02-20T13:44:29Z</time>
      </trkpt>
      <trkpt lat="46.77807" lon="4.74132">
        <ele>194.968081</ele>
        <time>2011-02-20T13:44:32Z</time>
      </trkpt>
      <trkpt lat="46.77809" lon="4.74119">
        <ele>194.933684</ele>
        <time>2011-02-20T13:44:35Z</time>
      </trkpt>
      <trkpt lat="46.77809" lon="4.74119">
        <ele>194.916185</ele>
        <time>2011-02-20T13:44:38Z</time>
      </trkpt>
      <trkpt lat="46.77811" lon="4.74094">
        <ele>194.907581</ele>
        <time>2011-02-20T13:44:42Z</time>
      </trkpt>
      <trkpt lat="46.77811" lon="4.74094">
        <ele>194.911343</ele>
        <time>2011-02-20T13:44:47Z</time>
      </trkpt>
      <trkpt lat="46.77811" lon="4.74051">
        <ele>194.949264</ele>
        <time>2011-02-20T13:44:55Z</time>
      </trkpt>
      <trkpt lat="46.77809" lon="4.74035">
        <ele>195.050569</ele>
        <time>2011-02-20T13:44:59Z</time>
      </trkpt>
      <trkpt lat="46.7781" lon="4.74018">
        <ele>195.247931</ele>
        <time>2011-02-20T13:45:03Z</time>
      </trkpt>
      <trkpt lat="46.7781" lon="4.74018">
        <ele>195.502628</ele>
        <time>2011-02-20T13:45:05Z</time>
      </trkpt>
      <trkpt lat="46.77825" lon="4.74012">
        <ele>195.816534</ele>
        <time>2011-02-20T13:45:10Z</time>
      </trkpt>
      <trkpt lat="46.77835" lon="4.74016">
        <ele>196.255882</ele>
        <time>2011-02-20T13:45:14Z</time>
      </trkpt>
      <trkpt lat="46.77845" lon="4.7402">
        <ele>196.804704</ele>
        <time>2011-02-20T13:45:18Z</time>
      </trkpt>
      <trkpt lat="46.77855" lon="4.74024">
        <ele>197.509145</ele>
        <time>2011-02-20T13:45:22Z</time>
      </trkpt>
      <trkpt lat="46.77864" lon="4.74027">
        <ele>198.428249</ele>
        <time>2011-02-20T13:45:25Z</time>
      </trkpt>
      <trkpt lat="46.77874" lon="4.74032">
        <ele>199.333576</ele>
        <time>2011-02-20T13:45:28Z</time>
      </trkpt>
      <trkpt lat="46.77883" lon="4.74036">
        <ele>199.970026</ele>
        <time>2011-02-20T13:45:31Z</time>
      </trkpt>
      <trkpt lat="46.77892" lon="4.74043">
        <ele>200.31203</ele>
        <time>2011-02-20T13:45:34Z</time>
      </trkpt>
      <trkpt lat="46.77901" lon="4.74049">
        <ele>200.436223</ele>
        <time>2011-02-20T13:45:37Z</time>
      </trkpt>
      <trkpt lat="46.77911" lon="4.74056">
        <ele>200.44139</ele>
        <time>2011-02-20T13:45:41Z</time>
      </trkpt>
      <trkpt lat="46.7792" lon="4.74062">
        <ele>200.40989</ele>
        <time>2011-02-20T13:45:44Z</time>
      </trkpt>
      <trkpt lat="46.7793" lon="4.74068">
        <ele>200.381218</ele>
        <time>2011-02-20T13:45:47Z</time>
      </trkpt>
      <trkpt lat="46.7794" lon="4.74075">
        <ele>200.354974</ele>
        <time>2011-02-20T13:45:50Z</time>
      </trkpt>
      <trkpt lat="46.7795" lon="4.74078">
        <ele>200.321086</ele>
        <time>2011-02-20T13:45:53Z</time>
      </trkpt>
      <trkpt lat="46.7796" lon="4.74082">
        <ele>200.280483</ele>
        <time>2011-02-20T13:45:56Z</time>
      </trkpt>
      <trkpt lat="46.7797" lon="4.74087">
        <ele>200.244444</ele>
        <time>2011-02-20T13:45:59Z</time>
      </trkpt>
      <trkpt lat="46.77981" lon="4.74091">
        <ele>200.22208</ele>
        <time>2011-02-20T13:46:03Z</time>
      </trkpt>
      <trkpt lat="46.7799" lon="4.74091">
        <ele>200.211699</ele>
        <time>2011-02-20T13:46:06Z</time>
      </trkpt>
      <trkpt lat="46.77998" lon="4.74084">
        <ele>200.20698</ele>
        <time>2011-02-20T13:46:09Z</time>
      </trkpt>
      <trkpt lat="46.78003" lon="4.74072">
        <ele>200.205323</ele>
        <time>2011-02-20T13:46:12Z</time>
      </trkpt>
      <trkpt lat="46.78007" lon="4.7406">
        <ele>200.206297</ele>
        <time>2011-02-20T13:46:15Z</time>
      </trkpt>
      <trkpt lat="46.7801" lon="4.74047">
        <ele>200.209313</ele>
        <time>2011-02-20T13:46:18Z</time>
      </trkpt>
      <trkpt lat="46.78015" lon="4.74032">
        <ele>200.230208</ele>
        <time>2011-02-20T13:46:22Z</time>
      </trkpt>
      <trkpt lat="46.78018" lon="4.74018">
        <ele>200.301807</ele>
        <time>2011-02-20T13:46:25Z</time>
      </trkpt>
      <trkpt lat="46.7802" lon="4.74004">
        <ele>200.432593</ele>
        <time>2011-02-20T13:46:28Z</time>
      </trkpt>
      <trkpt lat="46.78023" lon="4.7399">
        <ele>200.602758</ele>
        <time>2011-02-20T13:46:31Z</time>
      </trkpt>
      <trkpt lat="46.78025" lon="4.73976">
        <ele>200.792256</ele>
        <time>2011-02-20T13:46:34Z</time>
      </trkpt>
      <trkpt lat="46.78027" lon="4.73962">
        <ele>200.981804</ele>
        <time>2011-02-20T13:46:37Z</time>
      </trkpt>
      <trkpt lat="46.78028" lon="4.73946">
        <ele>201.160914</ele>
        <time>2011-02-20T13:46:40Z</time>
      </trkpt>
      <trkpt lat="46.78028" lon="4.73929">
        <ele>201.338338</ele>
        <time>2011-02-20T13:46:43Z</time>
      </trkpt>
      <trkpt lat="46.78027" lon="4.73913">
        <ele>201.526192</ele>
        <time>2011-02-20T13:46:46Z</time>
      </trkpt>
      <trkpt lat="46.78025" lon="4.73896">
        <ele>201.728436</ele>
        <time>2011-02-20T13:46:49Z</time>
      </trkpt>
      <trkpt lat="46.78023" lon="4.73879">
        <ele>201.944062</ele>
        <time>2011-02-20T13:46:52Z</time>
      </trkpt>
      <trkpt lat="46.78022" lon="4.73863">
        <ele>202.17393</ele>
        <time>2011-02-20T13:46:55Z</time>
      </trkpt>
      <trkpt lat="46.78021" lon="4.73848">
        <ele>202.415943</ele>
        <time>2011-02-20T13:46:58Z</time>
      </trkpt>
      <trkpt lat="46.78019" lon="4.73833">
        <ele>202.665514</ele>
        <time>2011-02-20T13:47:01Z</time>
      </trkpt>
      <trkpt lat="46.78017" lon="4.73816">
        <ele>202.921062</ele>
        <time>2011-02-20T13:47:04Z</time>
      </trkpt>
      <trkpt lat="46.78015" lon="4.738">
        <ele>203.181328</ele>
        <time>2011-02-20T13:47:07Z</time>
      </trkpt>
      <trkpt lat="46.78013" lon="4.73783">
        <ele>203.441047</ele>
        <time>2011-02-20T13:47:10Z</time>
      </trkpt>
      <trkpt lat="46.78011" lon="4.73768">
        <ele>203.694999</ele>
        <time>2011-02-20T13:47:13Z</time>
      </trkpt>
      <trkpt lat="46.7801" lon="4.73754">
        <ele>203.950566</ele>
        <time>2011-02-20T13:47:16Z</time>
      </trkpt>
      <trkpt lat="46.78008" lon="4.7374">
        <ele>204.22052</ele>
        <time>2011-02-20T13:47:19Z</time>
      </trkpt>
      <trkpt lat="46.78006" lon="4.73726">
        <ele>204.494424</ele>
        <time>2011-02-20T13:47:22Z</time>
      </trkpt>
      <trkpt lat="46.78004" lon="4.7371">
        <ele>204.744704</ele>
        <time>2011-02-20T13:47:25Z</time>
      </trkpt>
      <trkpt lat="46.78002" lon="4.73693">
        <ele>204.955067</ele>
        <time>2011-02-20T13:47:28Z</time>
      </trkpt>
      <trkpt lat="46.78" lon="4.73676">
        <ele>205.130599</ele>
        <time>2011-02-20T13:47:31Z</time>
      </trkpt>
      <trkpt lat="46.78" lon="4.73659">
        <ele>205.292193</ele>
        <time>2011-02-20T13:47:34Z</time>
      </trkpt>
      <trkpt lat="46.78" lon="4.73643">
        <ele>205.468695</ele>
        <time>2011-02-20T13:47:37Z</time>
      </trkpt>
      <trkpt lat="46.78002" lon="4.73626">
        <ele>205.689248</ele>
        <time>2011-02-20T13:47:40Z</time>
      </trkpt>
      <trkpt lat="46.78003" lon="4.7361">
        <ele>205.974245</ele>
        <time>2011-02-20T13:47:43Z</time>
      </trkpt>
      <trkpt lat="46.78005" lon="4.73594">
        <ele>206.314354</ele>
        <time>2011-02-20T13:47:46Z</time>
      </trkpt>
      <trkpt lat="46.78006" lon="4.73578">
        <ele>206.673831</ele>
        <time>2011-02-20T13:47:49Z</time>
      </trkpt>
      <trkpt lat="46.78007" lon="4.73562">
        <ele>207.022787</ele>
        <time>2011-02-20T13:47:52Z</time>
      </trkpt>
      <trkpt lat="46.78008" lon="4.73546">
        <ele>207.356879</ele>
        <time>2011-02-20T13:47:55Z</time>
      </trkpt>
      <trkpt lat="46.78008" lon="4.73532">
        <ele>207.684786</ele>
        <time>2011-02-20T13:47:58Z</time>
      </trkpt>
      <trkpt lat="46.78007" lon="4.73517">
        <ele>208.012669</ele>
        <time>2011-02-20T13:48:01Z</time>
      </trkpt>
      <trkpt lat="46.78005" lon="4.73502">
        <ele>208.336148</ele>
        <time>2011-02-20T13:48:04Z</time>
      </trkpt>
      <trkpt lat="46.78004" lon="4.73484">
        <ele>208.645145</ele>
        <time>2011-02-20T13:48:07Z</time>
      </trkpt>
      <trkpt lat="46.78002" lon="4.73465">
        <ele>208.936418</ele>
        <time>2011-02-20T13:48:10Z</time>
      </trkpt>
      <trkpt lat="46.78001" lon="4.73447">
        <ele>209.222653</ele>
        <time>2011-02-20T13:48:13Z</time>
      </trkpt>
      <trkpt lat="46.78" lon="4.7343">
        <ele>209.523101</ele>
        <time>2011-02-20T13:48:16Z</time>
      </trkpt>
      <trkpt lat="46.78001" lon="4.73413">
        <ele>209.849597</ele>
        <time>2011-02-20T13:48:19Z</time>
      </trkpt>
      <trkpt lat="46.78001" lon="4.73395">
        <ele>210.197085</ele>
        <time>2011-02-20T13:48:22Z</time>
      </trkpt>
      <trkpt lat="46.78002" lon="4.7338">
        <ele>210.54163</ele>
        <time>2011-02-20T13:48:25Z</time>
      </trkpt>
      <trkpt lat="46.78003" lon="4.73364">
        <ele>210.867047</ele>
        <time>2011-02-20T13:48:28Z</time>
      </trkpt>
      <trkpt lat="46.78003" lon="4.73347">
        <ele>211.177676</ele>
        <time>2011-02-20T13:48:31Z</time>
      </trkpt>
      <trkpt lat="46.78003" lon="4.73329">
        <ele>211.488707</ele>
        <time>2011-02-20T13:48:34Z</time>
      </trkpt>
      <trkpt lat="46.78003" lon="4.73313">
        <ele>211.815266</ele>
        <time>2011-02-20T13:48:37Z</time>
      </trkpt>
      <trkpt lat="46.78002" lon="4.73298">
        <ele>212.176597</ele>
        <time>2011-02-20T13:48:40Z</time>
      </trkpt>
      <trkpt lat="46.78002" lon="4.73283">
        <ele>212.598376</ele>
        <time>2011-02-20T13:48:43Z</time>
      </trkpt>
      <trkpt lat="46.78" lon="4.73267">
        <ele>213.071495</ele>
        <time>2011-02-20T13:48:46Z</time>
      </trkpt>
      <trkpt lat="46.77997" lon="4.73251">
        <ele>213.536597</ele>
        <time>2011-02-20T13:48:49Z</time>
      </trkpt>
      <trkpt lat="46.77994" lon="4.73234">
        <ele>213.948449</ele>
        <time>2011-02-20T13:48:52Z</time>
      </trkpt>
      <trkpt lat="46.77991" lon="4.73219">
        <ele>214.307123</ele>
        <time>2011-02-20T13:48:55Z</time>
      </trkpt>
      <trkpt lat="46.77987" lon="4.73203">
        <ele>214.630777</ele>
        <time>2011-02-20T13:48:58Z</time>
      </trkpt>
      <trkpt lat="46.77985" lon="4.73188">
        <ele>214.926624</ele>
        <time>2011-02-20T13:49:01Z</time>
      </trkpt>
      <trkpt lat="46.77983" lon="4.73175">
        <ele>215.192052</ele>
        <time>2011-02-20T13:49:04Z</time>
      </trkpt>
      <trkpt lat="46.7798" lon="4.73158">
        <ele>215.432999</ele>
        <time>2011-02-20T13:49:08Z</time>
      </trkpt>
      <trkpt lat="46.77979" lon="4.73144">
        <ele>215.660978</ele>
        <time>2011-02-20T13:49:12Z</time>
      </trkpt>
      <trkpt lat="46.7798" lon="4.73129">
        <ele>215.905562</ele>
        <time>2011-02-20T13:49:17Z</time>
      </trkpt>
      <trkpt lat="46.77983" lon="4.73115">
        <ele>216.225213</ele>
        <time>2011-02-20T13:49:23Z</time>
      </trkpt>
      <trkpt lat="46.77981" lon="4.73102">
        <ele>216.641184</ele>
        <time>2011-02-20T13:49:30Z</time>
      </trkpt>
      <trkpt lat="46.77981" lon="4.73102">
        <ele>217.045328</ele>
        <time>2011-02-20T13:49:32Z</time>
      </trkpt>
      <trkpt lat="46.77964" lon="4.73063">
        <ele>217.374388</ele>
        <time>2011-02-20T13:49:46Z</time>
      </trkpt>
      <trkpt lat="46.77959" lon="4.7305">
        <ele>217.762622</ele>
        <time>2011-02-20T13:49:49Z</time>
      </trkpt>
      <trkpt lat="46.77954" lon="4.73037">
        <ele>218.351506</ele>
        <time>2011-02-20T13:49:52Z</time>
      </trkpt>
      <trkpt lat="46.77949" lon="4.73022">
        <ele>219.3497</ele>
        <time>2011-02-20T13:49:56Z</time>
      </trkpt>
      <trkpt lat="46.77944" lon="4.7301">
        <ele>220.707822</ele>
        <time>2011-02-20T13:50:00Z</time>
      </trkpt>
      <trkpt lat="46.77939" lon="4.72998">
        <ele>221.839868</ele>
        <time>2011-02-20T13:50:04Z</time>
      </trkpt>
      <trkpt lat="46.77935" lon="4.72986">
        <ele>222.375249</ele>
        <time>2011-02-20T13:50:09Z</time>
      </trkpt>
      <trkpt lat="46.7794" lon="4.72974">
        <ele>222.537192</ele>
        <time>2011-02-20T13:50:18Z</time>
      </trkpt>
      <trkpt lat="46.7795" lon="4.72972">
        <ele>222.601024</ele>
        <time>2011-02-20T13:50:24Z</time>
      </trkpt>
      <trkpt lat="46.7796" lon="4.72968">
        <ele>222.707405</ele>
        <time>2011-02-20T13:50:30Z</time>
      </trkpt>
      <trkpt lat="46.77966" lon="4.72959">
        <ele>222.927996</ele>
        <time>2011-02-20T13:50:35Z</time>
      </trkpt>
      <trkpt lat="46.77973" lon="4.72948">
        <ele>223.277204</ele>
        <time>2011-02-20T13:50:41Z</time>
      </trkpt>
      <trkpt lat="46.77981" lon="4.7294">
        <ele>223.671864</ele>
        <time>2011-02-20T13:50:46Z</time>
      </trkpt>
      <trkpt lat="46.77988" lon="4.72929">
        <ele>223.983986</ele>
        <time>2011-02-20T13:50:52Z</time>
      </trkpt>
      <trkpt lat="46.77993" lon="4.72917">
        <ele>224.14439</ele>
        <time>2011-02-20T13:50:57Z</time>
      </trkpt>
      <trkpt lat="46.77997" lon="4.72904">
        <ele>224.176077</ele>
        <time>2011-02-20T13:51:02Z</time>
      </trkpt>
      <trkpt lat="46.78002" lon="4.72892">
        <ele>224.136782</ele>
        <time>2011-02-20T13:51:08Z</time>
      </trkpt>
      <trkpt lat="46.78009" lon="4.72881">
        <ele>224.045208</ele>
        <time>2011-02-20T13:51:15Z</time>
      </trkpt>
      <trkpt lat="46.78016" lon="4.72871">
        <ele>223.891017</ele>
        <time>2011-02-20T13:51:22Z</time>
      </trkpt>
      <trkpt lat="46.78024" lon="4.72865">
        <ele>223.646674</ele>
        <time>2011-02-20T13:51:30Z</time>
      </trkpt>
      <trkpt lat="46.78033" lon="4.72867">
        <ele>223.358071</ele>
        <time>2011-02-20T13:51:41Z</time>
      </trkpt>
      <trkpt lat="46.78042" lon="4.72872">
        <ele>223.152326</ele>
        <time>2011-02-20T13:51:49Z</time>
      </trkpt>
      <trkpt lat="46.78052" lon="4.72872">
        <ele>223.079841</ele>
        <time>2011-02-20T13:51:55Z</time>
      </trkpt>
      <trkpt lat="46.78063" lon="4.72874">
        <ele>223.10949</ele>
        <time>2011-02-20T13:52:00Z</time>
      </trkpt>
      <trkpt lat="46.78073" lon="4.72876">
        <ele>223.234938</ele>
        <time>2011-02-20T13:52:03Z</time>
      </trkpt>
      <trkpt lat="46.78082" lon="4.72879">
        <ele>223.516956</ele>
        <time>2011-02-20T13:52:07Z</time>
      </trkpt>
      <trkpt lat="46.78092" lon="4.72881">
        <ele>224.05587</ele>
        <time>2011-02-20T13:52:13Z</time>
      </trkpt>
      <trkpt lat="46.781" lon="4.72886">
        <ele>224.820815</ele>
        <time>2011-02-20T13:52:20Z</time>
      </trkpt>
      <trkpt lat="46.78109" lon="4.72889">
        <ele>225.634478</ele>
        <time>2011-02-20T13:52:27Z</time>
      </trkpt>
      <trkpt lat="46.78118" lon="4.72894">
        <ele>226.419683</ele>
        <time>2011-02-20T13:52:34Z</time>
      </trkpt>
      <trkpt lat="46.78126" lon="4.72901">
        <ele>227.273293</ele>
        <time>2011-02-20T13:52:42Z</time>
      </trkpt>
      <trkpt lat="46.78135" lon="4.72905">
        <ele>228.28039</ele>
        <time>2011-02-20T13:52:50Z</time>
      </trkpt>
      <trkpt lat="46.78144" lon="4.7291">
        <ele>229.383053</ele>
        <time>2011-02-20T13:52:58Z</time>
      </trkpt>
      <trkpt lat="46.78153" lon="4.72915">
        <ele>230.442523</ele>
        <time>2011-02-20T13:53:06Z</time>
      </trkpt>
      <trkpt lat="46.78162" lon="4.7292">
        <ele>231.351869</ele>
        <time>2011-02-20T13:53:15Z</time>
      </trkpt>
      <trkpt lat="46.7817" lon="4.72927">
        <ele>232.100475</ele>
        <time>2011-02-20T13:53:23Z</time>
      </trkpt>
      <trkpt lat="46.78179" lon="4.72933">
        <ele>232.758344</ele>
        <time>2011-02-20T13:53:30Z</time>
      </trkpt>
      <trkpt lat="46.78188" lon="4.72938">
        <ele>233.395074</ele>
        <time>2011-02-20T13:53:36Z</time>
      </trkpt>
      <trkpt lat="46.78197" lon="4.72941">
        <ele>234.015258</ele>
        <time>2011-02-20T13:53:42Z</time>
      </trkpt>
      <trkpt lat="46.78206" lon="4.72944">
        <ele>234.594987</ele>
        <time>2011-02-20T13:53:51Z</time>
      </trkpt>
      <trkpt lat="46.78216" lon="4.72944">
        <ele>235.16006</ele>
        <time>2011-02-20T13:54:01Z</time>
      </trkpt>
      <trkpt lat="46.78226" lon="4.72946">
        <ele>235.776809</ele>
        <time>2011-02-20T13:54:09Z</time>
      </trkpt>
      <trkpt lat="46.78235" lon="4.72948">
        <ele>236.513381</ele>
        <time>2011-02-20T13:54:18Z</time>
      </trkpt>
      <trkpt lat="46.78244" lon="4.72951">
        <ele>237.427387</ele>
        <time>2011-02-20T13:54:31Z</time>
      </trkpt>
      <trkpt lat="46.78248" lon="4.72938">
        <ele>238.469589</ele>
        <time>2011-02-20T13:54:44Z</time>
      </trkpt>
      <trkpt lat="46.7825" lon="4.72924">
        <ele>239.548051</ele>
        <time>2011-02-20T13:54:56Z</time>
      </trkpt>
      <trkpt lat="46.78253" lon="4.72912">
        <ele>240.810131</ele>
        <time>2011-02-20T13:55:05Z</time>
      </trkpt>
      <trkpt lat="46.78255" lon="4.72898">
        <ele>242.495991</ele>
        <time>2011-02-20T13:55:15Z</time>
      </trkpt>
      <trkpt lat="46.78256" lon="4.72885">
        <ele>244.426362</ele>
        <time>2011-02-20T13:55:25Z</time>
      </trkpt>
      <trkpt lat="46.78258" lon="4.72865">
        <ele>246.051998</ele>
        <time>2011-02-20T13:55:42Z</time>
      </trkpt>
      <trkpt lat="46.78253" lon="4.72852">
        <ele>247.027071</ele>
        <time>2011-02-20T13:55:49Z</time>
      </trkpt>
      <trkpt lat="46.78244" lon="4.72844">
        <ele>247.441317</ele>
        <time>2011-02-20T13:55:55Z</time>
      </trkpt>
      <trkpt lat="46.78238" lon="4.72834">
        <ele>247.637468</ele>
        <time>2011-02-20T13:56:02Z</time>
      </trkpt>
      <trkpt lat="46.78238" lon="4.72834">
        <ele>247.845455</ele>
        <time>2011-02-20T13:56:13Z</time>
      </trkpt>
      <trkpt lat="46.78238" lon="4.72834">
        <ele>248.02726</ele>
        <time>2011-02-20T13:57:01Z</time>
      </trkpt>
      <trkpt lat="46.78256" lon="4.72805">
        <ele>248.17765</ele>
        <time>2011-02-20T13:58:34Z</time>
      </trkpt>
      <trkpt lat="46.78258" lon="4.72791">
        <ele>248.418665</ele>
        <time>2011-02-20T13:58:45Z</time>
      </trkpt>
      <trkpt lat="46.78255" lon="4.72777">
        <ele>248.733083</ele>
        <time>2011-02-20T13:58:53Z</time>
      </trkpt>
      <trkpt lat="46.78255" lon="4.72763">
        <ele>253.589921</ele>
        <time>2011-02-20T13:59:02Z</time>
      </trkpt>
      <trkpt lat="46.78255" lon="4.72749">
        <ele>266.064024</ele>
        <time>2011-02-20T13:59:11Z</time>
      </trkpt>
      <trkpt lat="46.78253" lon="4.72736">
        <ele>279.391799</ele>
        <time>2011-02-20T13:59:19Z</time>
      </trkpt>
      <trkpt lat="46.78252" lon="4.72723">
        <ele>286.334482</ele>
        <time>2011-02-20T13:59:26Z</time>
      </trkpt>
      <trkpt lat="46.78252" lon="4.72709">
        <ele>287.82136</ele>
        <time>2011-02-20T13:59:34Z</time>
      </trkpt>
      <trkpt lat="46.78252" lon="4.72694">
        <ele>286.961313</ele>
        <time>2011-02-20T13:59:41Z</time>
      </trkpt>
      <trkpt lat="46.78252" lon="4.72679">
        <ele>285.826803</ele>
        <time>2011-02-20T13:59:49Z</time>
      </trkpt>
      <trkpt lat="46.78252" lon="4.72665">
        <ele>285.00331</ele>
        <time>2011-02-20T13:59:58Z</time>
      </trkpt>
      <trkpt lat="46.78254" lon="4.72652">
        <ele>284.352212</ele>
        <time>2011-02-20T14:00:06Z</time>
      </trkpt>
      <trkpt lat="46.78256" lon="4.72639">
        <ele>283.679554</ele>
        <time>2011-02-20T14:00:14Z</time>
      </trkpt>
      <trkpt lat="46.78258" lon="4.72625">
        <ele>282.968119</ele>
        <time>2011-02-20T14:00:24Z</time>
      </trkpt>
      <trkpt lat="46.78263" lon="4.72613">
        <ele>282.383955</ele>
        <time>2011-02-20T14:00:34Z</time>
      </trkpt>
      <trkpt lat="46.78265" lon="4.72599">
        <ele>282.078698</ele>
        <time>2011-02-20T14:00:42Z</time>
      </trkpt>
      <trkpt lat="46.78262" lon="4.72586">
        <ele>282.015597</ele>
        <time>2011-02-20T14:00:47Z</time>
      </trkpt>
      <trkpt lat="46.78263" lon="4.72573">
        <ele>282.090585</ele>
        <time>2011-02-20T14:00:53Z</time>
      </trkpt>
      <trkpt lat="46.78261" lon="4.72559">
        <ele>282.273543</ele>
        <time>2011-02-20T14:00:58Z</time>
      </trkpt>
      <trkpt lat="46.78258" lon="4.72543">
        <ele>282.528277</ele>
        <time>2011-02-20T14:01:03Z</time>
      </trkpt>
      <trkpt lat="46.78256" lon="4.72529">
        <ele>282.789592</ele>
        <time>2011-02-20T14:01:08Z</time>
      </trkpt>
      <trkpt lat="46.78256" lon="4.72516">
        <ele>283.06426</ele>
        <time>2011-02-20T14:01:13Z</time>
      </trkpt>
      <trkpt lat="46.78254" lon="4.72503">
        <ele>283.402218</ele>
        <time>2011-02-20T14:01:19Z</time>
      </trkpt>
      <trkpt lat="46.78253" lon="4.7249">
        <ele>283.793734</ele>
        <time>2011-02-20T14:01:26Z</time>
      </trkpt>
      <trkpt lat="46.78251" lon="4.72475">
        <ele>284.192762</ele>
        <time>2011-02-20T14:01:32Z</time>
      </trkpt>
      <trkpt lat="46.78248" lon="4.72461">
        <ele>284.573651</ele>
        <time>2011-02-20T14:01:38Z</time>
      </trkpt>
      <trkpt lat="46.78248" lon="4.72447">
        <ele>284.930364</ele>
        <time>2011-02-20T14:01:44Z</time>
      </trkpt>
      <trkpt lat="46.78247" lon="4.72434">
        <ele>285.270226</ele>
        <time>2011-02-20T14:01:49Z</time>
      </trkpt>
      <trkpt lat="46.78246" lon="4.7242">
        <ele>285.601848</ele>
        <time>2011-02-20T14:01:55Z</time>
      </trkpt>
      <trkpt lat="46.78242" lon="4.72408">
        <ele>285.914172</ele>
        <time>2011-02-20T14:02:00Z</time>
      </trkpt>
      <trkpt lat="46.78237" lon="4.72397">
        <ele>286.179224</ele>
        <time>2011-02-20T14:02:05Z</time>
      </trkpt>
      <trkpt lat="46.78235" lon="4.72383">
        <ele>286.38034</ele>
        <time>2011-02-20T14:02:11Z</time>
      </trkpt>
      <trkpt lat="46.78234" lon="4.72368">
        <ele>286.525718</ele>
        <time>2011-02-20T14:02:17Z</time>
      </trkpt>
      <trkpt lat="46.78232" lon="4.72355">
        <ele>286.622706</ele>
        <time>2011-02-20T14:02:23Z</time>
      </trkpt>
      <trkpt lat="46.78229" lon="4.72342">
        <ele>286.6704</ele>
        <time>2011-02-20T14:02:30Z</time>
      </trkpt>
      <trkpt lat="46.78228" lon="4.72328">
        <ele>286.680355</ele>
        <time>2011-02-20T14:02:37Z</time>
      </trkpt>
      <trkpt lat="46.78228" lon="4.72314">
        <ele>286.674252</ele>
        <time>2011-02-20T14:02:44Z</time>
      </trkpt>
      <trkpt lat="46.78229" lon="4.72301">
        <ele>286.666826</ele>
        <time>2011-02-20T14:02:49Z</time>
      </trkpt>
      <trkpt lat="46.78234" lon="4.72288">
        <ele>286.662981</ele>
        <time>2011-02-20T14:02:56Z</time>
      </trkpt>
      <trkpt lat="46.78237" lon="4.72274">
        <ele>286.663251</ele>
        <time>2011-02-20T14:03:02Z</time>
      </trkpt>
      <trkpt lat="46.78237" lon="4.72261">
        <ele>286.666487</ele>
        <time>2011-02-20T14:03:07Z</time>
      </trkpt>
      <trkpt lat="46.78235" lon="4.72247">
        <ele>286.68063</ele>
        <time>2011-02-20T14:03:12Z</time>
      </trkpt>
      <trkpt lat="46.78235" lon="4.72232">
        <ele>286.720799</ele>
        <time>2011-02-20T14:03:19Z</time>
      </trkpt>
      <trkpt lat="46.78232" lon="4.72218">
        <ele>286.787452</ele>
        <time>2011-02-20T14:03:26Z</time>
      </trkpt>
      <trkpt lat="46.78229" lon="4.72206">
        <ele>286.870516</ele>
        <time>2011-02-20T14:03:32Z</time>
      </trkpt>
      <trkpt lat="46.78229" lon="4.72192">
        <ele>286.980724</ele>
        <time>2011-02-20T14:03:38Z</time>
      </trkpt>
      <trkpt lat="46.78232" lon="4.72179">
        <ele>287.143221</ele>
        <time>2011-02-20T14:03:45Z</time>
      </trkpt>
      <trkpt lat="46.78232" lon="4.72165">
        <ele>287.359083</ele>
        <time>2011-02-20T14:03:52Z</time>
      </trkpt>
      <trkpt lat="46.78233" lon="4.72152">
        <ele>287.591392</ele>
        <time>2011-02-20T14:03:59Z</time>
      </trkpt>
      <trkpt lat="46.78231" lon="4.72137">
        <ele>287.815402</ele>
        <time>2011-02-20T14:04:05Z</time>
      </trkpt>
      <trkpt lat="46.7823" lon="4.72124">
        <ele>288.074075</ele>
        <time>2011-02-20T14:04:10Z</time>
      </trkpt>
      <trkpt lat="46.78229" lon="4.7211">
        <ele>288.437441</ele>
        <time>2011-02-20T14:04:16Z</time>
      </trkpt>
      <trkpt lat="46.78227" lon="4.72095">
        <ele>288.90759</ele>
        <time>2011-02-20T14:04:23Z</time>
      </trkpt>
      <trkpt lat="46.78228" lon="4.72081">
        <ele>289.398518</ele>
        <time>2011-02-20T14:04:29Z</time>
      </trkpt>
      <trkpt lat="46.78229" lon="4.72067">
        <ele>289.824046</ele>
        <time>2011-02-20T14:04:35Z</time>
      </trkpt>
      <trkpt lat="46.78228" lon="4.72054">
        <ele>290.185561</ele>
        <time>2011-02-20T14:04:41Z</time>
      </trkpt>
      <trkpt lat="46.78227" lon="4.72039">
        <ele>290.54875</ele>
        <time>2011-02-20T14:04:49Z</time>
      </trkpt>
      <trkpt lat="46.78228" lon="4.72024">
        <ele>290.976109</ele>
        <time>2011-02-20T14:04:57Z</time>
      </trkpt>
      <trkpt lat="46.78229" lon="4.72009">
        <ele>291.504718</ele>
        <time>2011-02-20T14:05:04Z</time>
      </trkpt>
      <trkpt lat="46.78228" lon="4.71995">
        <ele>292.173496</ele>
        <time>2011-02-20T14:05:12Z</time>
      </trkpt>
      <trkpt lat="46.78229" lon="4.71981">
        <ele>292.977321</ele>
        <time>2011-02-20T14:05:19Z</time>
      </trkpt>
      <trkpt lat="46.78231" lon="4.71966">
        <ele>293.778815</ele>
        <time>2011-02-20T14:05:24Z</time>
      </trkpt>
      <trkpt lat="46.78231" lon="4.71966">
        <ele>294.363222</ele>
        <time>2011-02-20T14:05:38Z</time>
      </trkpt>
      <trkpt lat="46.78239" lon="4.71924">
        <ele>294.649448</ele>
        <time>2011-02-20T14:05:57Z</time>
      </trkpt>
      <trkpt lat="46.78236" lon="4.71911">
        <ele>294.753964</ele>
        <time>2011-02-20T14:06:08Z</time>
      </trkpt>
      <trkpt lat="46.78236" lon="4.71911">
        <ele>294.810965</ele>
        <time>2011-02-20T14:06:19Z</time>
      </trkpt>
      <trkpt lat="46.7825" lon="4.71942">
        <ele>294.906853</ele>
        <time>2011-02-20T14:15:35Z</time>
      </trkpt>
      <trkpt lat="46.7825" lon="4.71942">
        <ele>294.945163</ele>
        <time>2011-02-20T14:15:49Z</time>
      </trkpt>
      <trkpt lat="46.78248" lon="4.71992">
        <ele>295.677969</ele>
        <time>2011-02-20T14:16:12Z</time>
      </trkpt>
      <trkpt lat="46.78249" lon="4.72005">
        <ele>297.941825</ele>
        <time>2011-02-20T14:16:18Z</time>
      </trkpt>
      <trkpt lat="46.78249" lon="4.72019">
        <ele>306.141634</ele>
        <time>2011-02-20T14:16:24Z</time>
      </trkpt>
      <trkpt lat="46.78251" lon="4.72034">
        <ele>322.372913</ele>
        <time>2011-02-20T14:16:31Z</time>
      </trkpt>
      <trkpt lat="46.78252" lon="4.72047">
        <ele>338.578076</ele>
        <time>2011-02-20T14:16:37Z</time>
      </trkpt>
      <trkpt lat="46.78252" lon="4.72061">
        <ele>346.802585</ele>
        <time>2011-02-20T14:16:44Z</time>
      </trkpt>
      <trkpt lat="46.78249" lon="4.72074">
        <ele>348.59391</ele>
        <time>2011-02-20T14:16:49Z</time>
      </trkpt>
      <trkpt lat="46.78246" lon="4.72088">
        <ele>347.800279</ele>
        <time>2011-02-20T14:16:54Z</time>
      </trkpt>
      <trkpt lat="46.78243" lon="4.72102">
        <ele>346.882001</ele>
        <time>2011-02-20T14:17:00Z</time>
      </trkpt>
      <trkpt lat="46.7824" lon="4.72116">
        <ele>346.566194</ele>
        <time>2011-02-20T14:17:06Z</time>
      </trkpt>
      <trkpt lat="46.78239" lon="4.72129">
        <ele>346.685943</ele>
        <time>2011-02-20T14:17:12Z</time>
      </trkpt>
      <trkpt lat="46.78239" lon="4.72145">
        <ele>346.921723</ele>
        <time>2011-02-20T14:17:19Z</time>
      </trkpt>
      <trkpt lat="46.78239" lon="4.72158">
        <ele>347.093521</ele>
        <time>2011-02-20T14:17:25Z</time>
      </trkpt>
      <trkpt lat="46.78243" lon="4.72171">
        <ele>347.184529</ele>
        <time>2011-02-20T14:17:32Z</time>
      </trkpt>
      <trkpt lat="46.78242" lon="4.72186">
        <ele>347.25241</ele>
        <time>2011-02-20T14:17:39Z</time>
      </trkpt>
      <trkpt lat="46.7824" lon="4.722">
        <ele>347.317506</ele>
        <time>2011-02-20T14:17:46Z</time>
      </trkpt>
      <trkpt lat="46.78241" lon="4.72214">
        <ele>347.35935</ele>
        <time>2011-02-20T14:17:52Z</time>
      </trkpt>
      <trkpt lat="46.78241" lon="4.72228">
        <ele>347.372766</ele>
        <time>2011-02-20T14:17:57Z</time>
      </trkpt>
      <trkpt lat="46.7824" lon="4.72241">
        <ele>347.370932</ele>
        <time>2011-02-20T14:18:02Z</time>
      </trkpt>
      <trkpt lat="46.78241" lon="4.72255">
        <ele>347.365372</ele>
        <time>2011-02-20T14:18:08Z</time>
      </trkpt>
      <trkpt lat="46.78241" lon="4.72255">
        <ele>347.344153</ele>
        <time>2011-02-20T14:18:26Z</time>
      </trkpt>
      <trkpt lat="46.78244" lon="4.72302">
        <ele>347.273193</ele>
        <time>2011-02-20T14:18:58Z</time>
      </trkpt>
      <trkpt lat="46.78245" lon="4.72315">
        <ele>347.150141</ele>
        <time>2011-02-20T14:19:02Z</time>
      </trkpt>
      <trkpt lat="46.78245" lon="4.7233">
        <ele>347.02182</ele>
        <time>2011-02-20T14:19:07Z</time>
      </trkpt>
      <trkpt lat="46.78246" lon="4.72345">
        <ele>346.83224</ele>
        <time>2011-02-20T14:19:13Z</time>
      </trkpt>
      <trkpt lat="46.7825" lon="4.72357">
        <ele>346.513669</ele>
        <time>2011-02-20T14:19:20Z</time>
      </trkpt>
      <trkpt lat="46.7825" lon="4.72372">
        <ele>346.177309</ele>
        <time>2011-02-20T14:19:28Z</time>
      </trkpt>
      <trkpt lat="46.78252" lon="4.72386">
        <ele>345.944025</ele>
        <time>2011-02-20T14:19:35Z</time>
      </trkpt>
      <trkpt lat="46.78258" lon="4.72398">
        <ele>345.789126</ele>
        <time>2011-02-20T14:19:42Z</time>
      </trkpt>
      <trkpt lat="46.78258" lon="4.72412">
        <ele>345.651571</ele>
        <time>2011-02-20T14:19:47Z</time>
      </trkpt>
      <trkpt lat="46.78261" lon="4.72427">
        <ele>345.481757</ele>
        <time>2011-02-20T14:19:52Z</time>
      </trkpt>
      <trkpt lat="46.78266" lon="4.7244">
        <ele>345.285577</ele>
        <time>2011-02-20T14:19:58Z</time>
      </trkpt>
      <trkpt lat="46.7827" lon="4.72453">
        <ele>345.067855</ele>
        <time>2011-02-20T14:20:04Z</time>
      </trkpt>
      <trkpt lat="46.78267" lon="4.72466">
        <ele>344.791272</ele>
        <time>2011-02-20T14:20:10Z</time>
      </trkpt>
      <trkpt lat="46.78266" lon="4.72481">
        <ele>344.438177</ele>
        <time>2011-02-20T14:20:17Z</time>
      </trkpt>
      <trkpt lat="46.78267" lon="4.72496">
        <ele>344.017084</ele>
        <time>2011-02-20T14:20:24Z</time>
      </trkpt>
      <trkpt lat="46.78265" lon="4.72511">
        <ele>343.52619</ele>
        <time>2011-02-20T14:20:30Z</time>
      </trkpt>
      <trkpt lat="46.78262" lon="4.72523">
        <ele>342.966145</ele>
        <time>2011-02-20T14:20:34Z</time>
      </trkpt>
      <trkpt lat="46.7826" lon="4.72539">
        <ele>342.315465</ele>
        <time>2011-02-20T14:20:39Z</time>
      </trkpt>
      <trkpt lat="46.78261" lon="4.72553">
        <ele>341.601148</ele>
        <time>2011-02-20T14:20:44Z</time>
      </trkpt>
      <trkpt lat="46.78261" lon="4.72567">
        <ele>340.959926</ele>
        <time>2011-02-20T14:20:49Z</time>
      </trkpt>
      <trkpt lat="46.78261" lon="4.72582">
        <ele>340.499041</ele>
        <time>2011-02-20T14:20:55Z</time>
      </trkpt>
      <trkpt lat="46.78261" lon="4.72595">
        <ele>340.153844</ele>
        <time>2011-02-20T14:21:00Z</time>
      </trkpt>
      <trkpt lat="46.78262" lon="4.72609">
        <ele>339.781181</ele>
        <time>2011-02-20T14:21:06Z</time>
      </trkpt>
      <trkpt lat="46.78259" lon="4.72622">
        <ele>339.258644</ele>
        <time>2011-02-20T14:21:12Z</time>
      </trkpt>
      <trkpt lat="46.78257" lon="4.72635">
        <ele>338.570905</ele>
        <time>2011-02-20T14:21:18Z</time>
      </trkpt>
      <trkpt lat="46.78254" lon="4.72649">
        <ele>337.83533</ele>
        <time>2011-02-20T14:21:23Z</time>
      </trkpt>
      <trkpt lat="46.78254" lon="4.72664">
        <ele>337.137956</ele>
        <time>2011-02-20T14:21:29Z</time>
      </trkpt>
      <trkpt lat="46.78253" lon="4.72677">
        <ele>336.430431</ele>
        <time>2011-02-20T14:21:33Z</time>
      </trkpt>
      <trkpt lat="46.78252" lon="4.7269">
        <ele>335.642689</ele>
        <time>2011-02-20T14:21:37Z</time>
      </trkpt>
      <trkpt lat="46.78252" lon="4.72704">
        <ele>334.721321</ele>
        <time>2011-02-20T14:21:42Z</time>
      </trkpt>
      <trkpt lat="46.78251" lon="4.72718">
        <ele>333.691475</ele>
        <time>2011-02-20T14:21:47Z</time>
      </trkpt>
      <trkpt lat="46.7825" lon="4.72731">
        <ele>332.697641</ele>
        <time>2011-02-20T14:21:54Z</time>
      </trkpt>
      <trkpt lat="46.78253" lon="4.72744">
        <ele>331.827284</ele>
        <time>2011-02-20T14:22:01Z</time>
      </trkpt>
      <trkpt lat="46.78254" lon="4.72758">
        <ele>331.018553</ele>
        <time>2011-02-20T14:22:07Z</time>
      </trkpt>
      <trkpt lat="46.78252" lon="4.72773">
        <ele>330.151989</ele>
        <time>2011-02-20T14:22:14Z</time>
      </trkpt>
      <trkpt lat="46.78252" lon="4.72788">
        <ele>329.099066</ele>
        <time>2011-02-20T14:22:20Z</time>
      </trkpt>
      <trkpt lat="46.78253" lon="4.72801">
        <ele>327.807912</ele>
        <time>2011-02-20T14:22:26Z</time>
      </trkpt>
      <trkpt lat="46.78254" lon="4.72815">
        <ele>326.33621</ele>
        <time>2011-02-20T14:22:32Z</time>
      </trkpt>
      <trkpt lat="46.78255" lon="4.72828">
        <ele>324.7721</ele>
        <time>2011-02-20T14:22:38Z</time>
      </trkpt>
      <trkpt lat="46.78257" lon="4.72843">
        <ele>323.16367</ele>
        <time>2011-02-20T14:22:45Z</time>
      </trkpt>
      <trkpt lat="46.78257" lon="4.72858">
        <ele>321.488153</ele>
        <time>2011-02-20T14:22:52Z</time>
      </trkpt>
      <trkpt lat="46.78258" lon="4.72871">
        <ele>319.731617</ele>
        <time>2011-02-20T14:23:00Z</time>
      </trkpt>
      <trkpt lat="46.78253" lon="4.72883">
        <ele>317.948288</ele>
        <time>2011-02-20T14:23:09Z</time>
      </trkpt>
      <trkpt lat="46.78251" lon="4.72897">
        <ele>316.217875</ele>
        <time>2011-02-20T14:23:17Z</time>
      </trkpt>
      <trkpt lat="46.78257" lon="4.72907">
        <ele>314.597635</ele>
        <time>2011-02-20T14:23:24Z</time>
      </trkpt>
      <trkpt lat="46.78253" lon="4.7292">
        <ele>313.17182</ele>
        <time>2011-02-20T14:23:28Z</time>
      </trkpt>
      <trkpt lat="46.78251" lon="4.72934">
        <ele>311.969803</ele>
        <time>2011-02-20T14:23:34Z</time>
      </trkpt>
      <trkpt lat="46.78251" lon="4.72948">
        <ele>310.917206</ele>
        <time>2011-02-20T14:23:41Z</time>
      </trkpt>
      <trkpt lat="46.78258" lon="4.72957">
        <ele>309.980771</ele>
        <time>2011-02-20T14:23:47Z</time>
      </trkpt>
      <trkpt lat="46.78265" lon="4.72967">
        <ele>309.054208</ele>
        <time>2011-02-20T14:23:55Z</time>
      </trkpt>
      <trkpt lat="46.7827" lon="4.7298">
        <ele>307.79251</ele>
        <time>2011-02-20T14:24:02Z</time>
      </trkpt>
      <trkpt lat="46.78272" lon="4.72992">
        <ele>306.075472</ele>
        <time>2011-02-20T14:24:07Z</time>
      </trkpt>
      <trkpt lat="46.78272" lon="4.73006">
        <ele>304.149899</ele>
        <time>2011-02-20T14:24:14Z</time>
      </trkpt>
      <trkpt lat="46.78273" lon="4.73019">
        <ele>302.177885</ele>
        <time>2011-02-20T14:24:23Z</time>
      </trkpt>
      <trkpt lat="46.78272" lon="4.73034">
        <ele>300.207161</ele>
        <time>2011-02-20T14:24:32Z</time>
      </trkpt>
      <trkpt lat="46.78269" lon="4.73046">
        <ele>298.282957</ele>
        <time>2011-02-20T14:24:39Z</time>
      </trkpt>
      <trkpt lat="46.78266" lon="4.7306">
        <ele>296.201809</ele>
        <time>2011-02-20T14:24:46Z</time>
      </trkpt>
      <trkpt lat="46.78264" lon="4.73075">
        <ele>293.657725</ele>
        <time>2011-02-20T14:24:54Z</time>
      </trkpt>
      <trkpt lat="46.78269" lon="4.73087">
        <ele>290.761609</ele>
        <time>2011-02-20T14:25:02Z</time>
      </trkpt>
      <trkpt lat="46.78274" lon="4.73098">
        <ele>287.972594</ele>
        <time>2011-02-20T14:25:08Z</time>
      </trkpt>
      <trkpt lat="46.78276" lon="4.73113">
        <ele>285.583247</ele>
        <time>2011-02-20T14:25:14Z</time>
      </trkpt>
      <trkpt lat="46.78276" lon="4.73128">
        <ele>283.556768</ele>
        <time>2011-02-20T14:25:20Z</time>
      </trkpt>
      <trkpt lat="46.78277" lon="4.73142">
        <ele>281.774323</ele>
        <time>2011-02-20T14:25:26Z</time>
      </trkpt>
      <trkpt lat="46.78276" lon="4.73157">
        <ele>280.190365</ele>
        <time>2011-02-20T14:25:33Z</time>
      </trkpt>
      <trkpt lat="46.78275" lon="4.73171">
        <ele>278.79219</ele>
        <time>2011-02-20T14:25:39Z</time>
      </trkpt>
      <trkpt lat="46.78273" lon="4.73185">
        <ele>277.541728</ele>
        <time>2011-02-20T14:25:45Z</time>
      </trkpt>
      <trkpt lat="46.7827" lon="4.73199">
        <ele>276.37126</ele>
        <time>2011-02-20T14:25:52Z</time>
      </trkpt>
      <trkpt lat="46.78269" lon="4.73213">
        <ele>275.224725</ele>
        <time>2011-02-20T14:25:59Z</time>
      </trkpt>
      <trkpt lat="46.78267" lon="4.73227">
        <ele>274.09964</ele>
        <time>2011-02-20T14:26:05Z</time>
      </trkpt>
      <trkpt lat="46.78268" lon="4.7324">
        <ele>272.997942</ele>
        <time>2011-02-20T14:26:11Z</time>
      </trkpt>
      <trkpt lat="46.78268" lon="4.73255">
        <ele>271.898313</ele>
        <time>2011-02-20T14:26:18Z</time>
      </trkpt>
      <trkpt lat="46.78266" lon="4.7327">
        <ele>270.808833</ele>
        <time>2011-02-20T14:26:25Z</time>
      </trkpt>
      <trkpt lat="46.78264" lon="4.73283">
        <ele>269.755996</ele>
        <time>2011-02-20T14:26:31Z</time>
      </trkpt>
      <trkpt lat="46.7826" lon="4.73297">
        <ele>268.710774</ele>
        <time>2011-02-20T14:26:37Z</time>
      </trkpt>
      <trkpt lat="46.78257" lon="4.73311">
        <ele>267.613333</ele>
        <time>2011-02-20T14:26:43Z</time>
      </trkpt>
      <trkpt lat="46.78254" lon="4.73323">
        <ele>266.479405</ele>
        <time>2011-02-20T14:26:50Z</time>
      </trkpt>
      <trkpt lat="46.78251" lon="4.73336">
        <ele>265.379923</ele>
        <time>2011-02-20T14:26:57Z</time>
      </trkpt>
      <trkpt lat="46.78248" lon="4.73349">
        <ele>264.325296</ele>
        <time>2011-02-20T14:27:03Z</time>
      </trkpt>
      <trkpt lat="46.78243" lon="4.73361">
        <ele>263.252341</ele>
        <time>2011-02-20T14:27:09Z</time>
      </trkpt>
      <trkpt lat="46.78239" lon="4.73373">
        <ele>262.113593</ele>
        <time>2011-02-20T14:27:15Z</time>
      </trkpt>
      <trkpt lat="46.78235" lon="4.73385">
        <ele>260.957848</ele>
        <time>2011-02-20T14:27:21Z</time>
      </trkpt>
      <trkpt lat="46.78232" lon="4.73398">
        <ele>259.88218</ele>
        <time>2011-02-20T14:27:27Z</time>
      </trkpt>
      <trkpt lat="46.78229" lon="4.73411">
        <ele>258.910819</ele>
        <time>2011-02-20T14:27:34Z</time>
      </trkpt>
      <trkpt lat="46.78233" lon="4.73423">
        <ele>257.994659</ele>
        <time>2011-02-20T14:27:43Z</time>
      </trkpt>
      <trkpt lat="46.78241" lon="4.73429">
        <ele>257.101613</ele>
        <time>2011-02-20T14:27:50Z</time>
      </trkpt>
      <trkpt lat="46.7825" lon="4.73438">
        <ele>256.210799</ele>
        <time>2011-02-20T14:27:56Z</time>
      </trkpt>
      <trkpt lat="46.78258" lon="4.73445">
        <ele>255.260581</ele>
        <time>2011-02-20T14:28:02Z</time>
      </trkpt>
      <trkpt lat="46.78267" lon="4.73453">
        <ele>254.246939</ele>
        <time>2011-02-20T14:28:08Z</time>
      </trkpt>
      <trkpt lat="46.78268" lon="4.73467">
        <ele>253.285111</ele>
        <time>2011-02-20T14:28:14Z</time>
      </trkpt>
      <trkpt lat="46.78265" lon="4.7348">
        <ele>252.459416</ele>
        <time>2011-02-20T14:28:20Z</time>
      </trkpt>
      <trkpt lat="46.78263" lon="4.73495">
        <ele>251.734077</ele>
        <time>2011-02-20T14:28:26Z</time>
      </trkpt>
      <trkpt lat="46.78261" lon="4.73509">
        <ele>251.04388</ele>
        <time>2011-02-20T14:28:32Z</time>
      </trkpt>
      <trkpt lat="46.78258" lon="4.73522">
        <ele>250.352501</ele>
        <time>2011-02-20T14:28:38Z</time>
      </trkpt>
      <trkpt lat="46.78256" lon="4.73535">
        <ele>249.637806</ele>
        <time>2011-02-20T14:28:44Z</time>
      </trkpt>
      <trkpt lat="46.78253" lon="4.73549">
        <ele>248.891221</ele>
        <time>2011-02-20T14:28:51Z</time>
      </trkpt>
      <trkpt lat="46.7825" lon="4.73563">
        <ele>248.133633</ele>
        <time>2011-02-20T14:28:57Z</time>
      </trkpt>
      <trkpt lat="46.78246" lon="4.73577">
        <ele>247.386936</ele>
        <time>2011-02-20T14:29:03Z</time>
      </trkpt>
      <trkpt lat="46.78243" lon="4.7359">
        <ele>246.628814</ele>
        <time>2011-02-20T14:29:09Z</time>
      </trkpt>
      <trkpt lat="46.78237" lon="4.73602">
        <ele>245.841817</ele>
        <time>2011-02-20T14:29:15Z</time>
      </trkpt>
      <trkpt lat="46.78233" lon="4.73616">
        <ele>245.057848</ele>
        <time>2011-02-20T14:29:22Z</time>
      </trkpt>
      <trkpt lat="46.78228" lon="4.73629">
        <ele>244.312439</ele>
        <time>2011-02-20T14:29:28Z</time>
      </trkpt>
      <trkpt lat="46.78225" lon="4.73642">
        <ele>243.611471</ele>
        <time>2011-02-20T14:29:34Z</time>
      </trkpt>
      <trkpt lat="46.7822" lon="4.73654">
        <ele>242.939403</ele>
        <time>2011-02-20T14:29:40Z</time>
      </trkpt>
      <trkpt lat="46.78214" lon="4.73667">
        <ele>242.279134</ele>
        <time>2011-02-20T14:29:46Z</time>
      </trkpt>
      <trkpt lat="46.7821" lon="4.73679">
        <ele>241.625775</ele>
        <time>2011-02-20T14:29:52Z</time>
      </trkpt>
      <trkpt lat="46.78205" lon="4.73693">
        <ele>240.976252</ele>
        <time>2011-02-20T14:29:58Z</time>
      </trkpt>
      <trkpt lat="46.78199" lon="4.73705">
        <ele>240.33319</ele>
        <time>2011-02-20T14:30:04Z</time>
      </trkpt>
      <trkpt lat="46.78194" lon="4.73717">
        <ele>239.701981</ele>
        <time>2011-02-20T14:30:10Z</time>
      </trkpt>
      <trkpt lat="46.78188" lon="4.73728">
        <ele>239.07743</ele>
        <time>2011-02-20T14:30:17Z</time>
      </trkpt>
      <trkpt lat="46.78182" lon="4.73738">
        <ele>238.462307</ele>
        <time>2011-02-20T14:30:23Z</time>
      </trkpt>
      <trkpt lat="46.78173" lon="4.73748">
        <ele>237.870317</ele>
        <time>2011-02-20T14:30:29Z</time>
      </trkpt>
      <trkpt lat="46.78167" lon="4.73758">
        <ele>237.300338</ele>
        <time>2011-02-20T14:30:33Z</time>
      </trkpt>
      <trkpt lat="46.78161" lon="4.73769">
        <ele>236.750043</ele>
        <time>2011-02-20T14:30:38Z</time>
      </trkpt>
      <trkpt lat="46.78156" lon="4.7378">
        <ele>236.232083</ele>
        <time>2011-02-20T14:30:44Z</time>
      </trkpt>
      <trkpt lat="46.78151" lon="4.73794">
        <ele>235.76101</ele>
        <time>2011-02-20T14:30:50Z</time>
      </trkpt>
      <trkpt lat="46.78145" lon="4.73806">
        <ele>235.330898</ele>
        <time>2011-02-20T14:30:56Z</time>
      </trkpt>
      <trkpt lat="46.78138" lon="4.73817">
        <ele>234.903437</ele>
        <time>2011-02-20T14:31:02Z</time>
      </trkpt>
      <trkpt lat="46.78132" lon="4.73829">
        <ele>234.435485</ele>
        <time>2011-02-20T14:31:07Z</time>
      </trkpt>
      <trkpt lat="46.78128" lon="4.7384">
        <ele>233.929436</ele>
        <time>2011-02-20T14:31:12Z</time>
      </trkpt>
      <trkpt lat="46.78122" lon="4.73851">
        <ele>233.430084</ele>
        <time>2011-02-20T14:31:17Z</time>
      </trkpt>
      <trkpt lat="46.78116" lon="4.73863">
        <ele>232.992034</ele>
        <time>2011-02-20T14:31:22Z</time>
      </trkpt>
      <trkpt lat="46.78111" lon="4.73875">
        <ele>232.634113</ele>
        <time>2011-02-20T14:31:27Z</time>
      </trkpt>
      <trkpt lat="46.78106" lon="4.73886">
        <ele>232.322096</ele>
        <time>2011-02-20T14:31:33Z</time>
      </trkpt>
      <trkpt lat="46.78101" lon="4.73899">
        <ele>232.019227</ele>
        <time>2011-02-20T14:31:39Z</time>
      </trkpt>
      <trkpt lat="46.78096" lon="4.73911">
        <ele>231.734081</ele>
        <time>2011-02-20T14:31:44Z</time>
      </trkpt>
      <trkpt lat="46.78091" lon="4.73924">
        <ele>231.492909</ele>
        <time>2011-02-20T14:31:50Z</time>
      </trkpt>
      <trkpt lat="46.78086" lon="4.73935">
        <ele>231.304091</ele>
        <time>2011-02-20T14:31:56Z</time>
      </trkpt>
      <trkpt lat="46.7808" lon="4.73946">
        <ele>231.163086</ele>
        <time>2011-02-20T14:32:02Z</time>
      </trkpt>
      <trkpt lat="46.78075" lon="4.73959">
        <ele>231.051925</ele>
        <time>2011-02-20T14:32:09Z</time>
      </trkpt>
      <trkpt lat="46.7807" lon="4.7397">
        <ele>230.944946</ele>
        <time>2011-02-20T14:32:16Z</time>
      </trkpt>
      <trkpt lat="46.78065" lon="4.73984">
        <ele>230.834597</ele>
        <time>2011-02-20T14:32:23Z</time>
      </trkpt>
      <trkpt lat="46.78061" lon="4.73995">
        <ele>230.693156</ele>
        <time>2011-02-20T14:32:29Z</time>
      </trkpt>
      <trkpt lat="46.78056" lon="4.74007">
        <ele>230.441492</ele>
        <time>2011-02-20T14:32:35Z</time>
      </trkpt>
      <trkpt lat="46.78053" lon="4.7402">
        <ele>230.026128</ele>
        <time>2011-02-20T14:32:40Z</time>
      </trkpt>
      <trkpt lat="46.78048" lon="4.74032">
        <ele>229.478703</ele>
        <time>2011-02-20T14:32:48Z</time>
      </trkpt>
      <trkpt lat="46.78041" lon="4.74042">
        <ele>228.862309</ele>
        <time>2011-02-20T14:32:54Z</time>
      </trkpt>
      <trkpt lat="46.78036" lon="4.74054">
        <ele>228.222046</ele>
        <time>2011-02-20T14:32:59Z</time>
      </trkpt>
      <trkpt lat="46.78031" lon="4.74068">
        <ele>227.550897</ele>
        <time>2011-02-20T14:33:04Z</time>
      </trkpt>
      <trkpt lat="46.78029" lon="4.74081">
        <ele>226.851012</ele>
        <time>2011-02-20T14:33:10Z</time>
      </trkpt>
      <trkpt lat="46.78031" lon="4.74095">
        <ele>226.185929</ele>
        <time>2011-02-20T14:33:16Z</time>
      </trkpt>
      <trkpt lat="46.78035" lon="4.74108">
        <ele>225.597378</ele>
        <time>2011-02-20T14:33:22Z</time>
      </trkpt>
      <trkpt lat="46.78043" lon="4.74116">
        <ele>225.06669</ele>
        <time>2011-02-20T14:33:28Z</time>
      </trkpt>
      <trkpt lat="46.7805" lon="4.74124">
        <ele>224.587679</ele>
        <time>2011-02-20T14:33:34Z</time>
      </trkpt>
      <trkpt lat="46.78058" lon="4.74133">
        <ele>224.177051</ele>
        <time>2011-02-20T14:33:41Z</time>
      </trkpt>
      <trkpt lat="46.78067" lon="4.74141">
        <ele>223.847279</ele>
        <time>2011-02-20T14:33:48Z</time>
      </trkpt>
      <trkpt lat="46.78075" lon="4.74148">
        <ele>223.579784</ele>
        <time>2011-02-20T14:33:53Z</time>
      </trkpt>
      <trkpt lat="46.78084" lon="4.74156">
        <ele>223.315434</ele>
        <time>2011-02-20T14:33:58Z</time>
      </trkpt>
      <trkpt lat="46.78093" lon="4.74163">
        <ele>222.976009</ele>
        <time>2011-02-20T14:34:04Z</time>
      </trkpt>
      <trkpt lat="46.781" lon="4.74173">
        <ele>222.535956</ele>
        <time>2011-02-20T14:34:11Z</time>
      </trkpt>
      <trkpt lat="46.78109" lon="4.7418">
        <ele>222.04493</ele>
        <time>2011-02-20T14:34:17Z</time>
      </trkpt>
      <trkpt lat="46.78117" lon="4.74188">
        <ele>221.54323</ele>
        <time>2011-02-20T14:34:22Z</time>
      </trkpt>
      <trkpt lat="46.78126" lon="4.74196">
        <ele>221.017374</ele>
        <time>2011-02-20T14:34:28Z</time>
      </trkpt>
      <trkpt lat="46.78134" lon="4.74203">
        <ele>220.464015</ele>
        <time>2011-02-20T14:34:34Z</time>
      </trkpt>
      <trkpt lat="46.78141" lon="4.74214">
        <ele>219.930792</ele>
        <time>2011-02-20T14:34:41Z</time>
      </trkpt>
      <trkpt lat="46.78147" lon="4.74224">
        <ele>219.46282</ele>
        <time>2011-02-20T14:34:47Z</time>
      </trkpt>
      <trkpt lat="46.78154" lon="4.74234">
        <ele>219.065847</ele>
        <time>2011-02-20T14:34:53Z</time>
      </trkpt>
      <trkpt lat="46.7816" lon="4.74245">
        <ele>218.721131</ele>
        <time>2011-02-20T14:34:59Z</time>
      </trkpt>
      <trkpt lat="46.7816" lon="4.74259">
        <ele>218.405132</ele>
        <time>2011-02-20T14:35:06Z</time>
      </trkpt>
      <trkpt lat="46.78159" lon="4.74273">
        <ele>218.108321</ele>
        <time>2011-02-20T14:35:11Z</time>
      </trkpt>
      <trkpt lat="46.78156" lon="4.74286">
        <ele>217.84603</ele>
        <time>2011-02-20T14:35:16Z</time>
      </trkpt>
      <trkpt lat="46.78154" lon="4.74301">
        <ele>217.65605</ele>
        <time>2011-02-20T14:35:22Z</time>
      </trkpt>
      <trkpt lat="46.78149" lon="4.74315">
        <ele>217.565938</ele>
        <time>2011-02-20T14:35:28Z</time>
      </trkpt>
      <trkpt lat="46.78147" lon="4.74329">
        <ele>217.552307</ele>
        <time>2011-02-20T14:35:36Z</time>
      </trkpt>
      <trkpt lat="46.78145" lon="4.74343">
        <ele>217.585269</ele>
        <time>2011-02-20T14:35:44Z</time>
      </trkpt>
      <trkpt lat="46.78146" lon="4.74358">
        <ele>217.66307</ele>
        <time>2011-02-20T14:35:50Z</time>
      </trkpt>
      <trkpt lat="46.78148" lon="4.74371">
        <ele>217.775377</ele>
        <time>2011-02-20T14:35:55Z</time>
      </trkpt>
      <trkpt lat="46.78154" lon="4.74383">
        <ele>217.906448</ele>
        <time>2011-02-20T14:36:01Z</time>
      </trkpt>
      <trkpt lat="46.78162" lon="4.74393">
        <ele>218.053458</ele>
        <time>2011-02-20T14:36:07Z</time>
      </trkpt>
      <trkpt lat="46.78168" lon="4.74402">
        <ele>218.188213</ele>
        <time>2011-02-20T14:36:13Z</time>
      </trkpt>
      <trkpt lat="46.78175" lon="4.74414">
        <ele>218.267565</ele>
        <time>2011-02-20T14:36:20Z</time>
      </trkpt>
      <trkpt lat="46.78183" lon="4.74421">
        <ele>218.288841</ele>
        <time>2011-02-20T14:36:27Z</time>
      </trkpt>
      <trkpt lat="46.78193" lon="4.74424">
        <ele>218.264726</ele>
        <time>2011-02-20T14:36:34Z</time>
      </trkpt>
      <trkpt lat="46.78201" lon="4.7443">
        <ele>218.184054</ele>
        <time>2011-02-20T14:36:41Z</time>
      </trkpt>
      <trkpt lat="46.7821" lon="4.74438">
        <ele>217.999353</ele>
        <time>2011-02-20T14:36:48Z</time>
      </trkpt>
      <trkpt lat="46.78219" lon="4.74444">
        <ele>217.622269</ele>
        <time>2011-02-20T14:36:55Z</time>
      </trkpt>
      <trkpt lat="46.78227" lon="4.7445">
        <ele>217.019462</ele>
        <time>2011-02-20T14:37:01Z</time>
      </trkpt>
      <trkpt lat="46.78236" lon="4.74455">
        <ele>216.292296</ele>
        <time>2011-02-20T14:37:07Z</time>
      </trkpt>
      <trkpt lat="46.78244" lon="4.74461">
        <ele>215.591937</ele>
        <time>2011-02-20T14:37:13Z</time>
      </trkpt>
      <trkpt lat="46.78251" lon="4.74471">
        <ele>215.012697</ele>
        <time>2011-02-20T14:37:19Z</time>
      </trkpt>
      <trkpt lat="46.78252" lon="4.74486">
        <ele>214.573187</ele>
        <time>2011-02-20T14:37:27Z</time>
      </trkpt>
      <trkpt lat="46.78252" lon="4.745">
        <ele>214.241352</ele>
        <time>2011-02-20T14:37:33Z</time>
      </trkpt>
      <trkpt lat="46.78246" lon="4.74514">
        <ele>213.971272</ele>
        <time>2011-02-20T14:37:39Z</time>
      </trkpt>
      <trkpt lat="46.78244" lon="4.74527">
        <ele>213.74074</ele>
        <time>2011-02-20T14:37:45Z</time>
      </trkpt>
      <trkpt lat="46.78238" lon="4.74538">
        <ele>213.572484</ele>
        <time>2011-02-20T14:37:51Z</time>
      </trkpt>
      <trkpt lat="46.78232" lon="4.7455">
        <ele>213.491395</ele>
        <time>2011-02-20T14:37:57Z</time>
      </trkpt>
      <trkpt lat="46.78228" lon="4.74563">
        <ele>213.47836</ele>
        <time>2011-02-20T14:38:03Z</time>
      </trkpt>
      <trkpt lat="46.78225" lon="4.74576">
        <ele>213.504037</ele>
        <time>2011-02-20T14:38:09Z</time>
      </trkpt>
      <trkpt lat="46.78222" lon="4.7459">
        <ele>213.550099</ele>
        <time>2011-02-20T14:38:15Z</time>
      </trkpt>
      <trkpt lat="46.78219" lon="4.74603">
        <ele>213.590188</ele>
        <time>2011-02-20T14:38:21Z</time>
      </trkpt>
      <trkpt lat="46.78216" lon="4.74618">
        <ele>213.620154</ele>
        <time>2011-02-20T14:38:27Z</time>
      </trkpt>
      <trkpt lat="46.78212" lon="4.7463">
        <ele>213.656387</ele>
        <time>2011-02-20T14:38:33Z</time>
      </trkpt>
      <trkpt lat="46.78207" lon="4.74643">
        <ele>213.694761</ele>
        <time>2011-02-20T14:38:39Z</time>
      </trkpt>
      <trkpt lat="46.78203" lon="4.74655">
        <ele>213.749774</ele>
        <time>2011-02-20T14:38:45Z</time>
      </trkpt>
      <trkpt lat="46.782" lon="4.74669">
        <ele>213.863349</ele>
        <time>2011-02-20T14:38:51Z</time>
      </trkpt>
      <trkpt lat="46.78197" lon="4.74682">
        <ele>214.030311</ele>
        <time>2011-02-20T14:38:57Z</time>
      </trkpt>
      <trkpt lat="46.78194" lon="4.74695">
        <ele>214.199068</ele>
        <time>2011-02-20T14:39:02Z</time>
      </trkpt>
      <trkpt lat="46.78192" lon="4.74708">
        <ele>214.33399</ele>
        <time>2011-02-20T14:39:07Z</time>
      </trkpt>
      <trkpt lat="46.78191" lon="4.74722">
        <ele>214.428052</ele>
        <time>2011-02-20T14:39:12Z</time>
      </trkpt>
      <trkpt lat="46.78188" lon="4.74737">
        <ele>214.496774</ele>
        <time>2011-02-20T14:39:18Z</time>
      </trkpt>
      <trkpt lat="46.78185" lon="4.7475">
        <ele>214.575028</ele>
        <time>2011-02-20T14:39:24Z</time>
      </trkpt>
      <trkpt lat="46.78182" lon="4.74766">
        <ele>214.692506</ele>
        <time>2011-02-20T14:39:28Z</time>
      </trkpt>
      <trkpt lat="46.78181" lon="4.74779">
        <ele>214.852787</ele>
        <time>2011-02-20T14:39:31Z</time>
      </trkpt>
      <trkpt lat="46.78178" lon="4.74795">
        <ele>215.020451</ele>
        <time>2011-02-20T14:39:35Z</time>
      </trkpt>
      <trkpt lat="46.78176" lon="4.7481">
        <ele>215.139598</ele>
        <time>2011-02-20T14:39:39Z</time>
      </trkpt>
      <trkpt lat="46.7818" lon="4.74821">
        <ele>215.188219</ele>
        <time>2011-02-20T14:39:45Z</time>
      </trkpt>
      <trkpt lat="46.78187" lon="4.74829">
        <ele>215.190833</ele>
        <time>2011-02-20T14:39:51Z</time>
      </trkpt>
      <trkpt lat="46.78195" lon="4.74838">
        <ele>215.170077</ele>
        <time>2011-02-20T14:39:58Z</time>
      </trkpt>
      <trkpt lat="46.78203" lon="4.74847">
        <ele>215.123667</ele>
        <time>2011-02-20T14:40:05Z</time>
      </trkpt>
      <trkpt lat="46.78211" lon="4.74856">
        <ele>215.053506</ele>
        <time>2011-02-20T14:40:12Z</time>
      </trkpt>
      <trkpt lat="46.78211" lon="4.74856">
        <ele>214.973513</ele>
        <time>2011-02-20T14:40:23Z</time>
      </trkpt>
      <trkpt lat="46.78211" lon="4.74856">
        <ele>214.894175</ele>
        <time>2011-02-20T14:40:42Z</time>
      </trkpt>
    </trkseg>
  </trk>
</gpx>